<?xml version="1.0" encoding="UTF-8" standalone="no" ?>
<gpx xmlns="http://www.topografix.com/GPX/1/1" xmlns:xsi="http://www.w3.org/2001/XMLSchema-instance" xsi:schemaLocation="http://www.topografix.com/GPX/1/1 http://www.topografix.com/GPX/1/1/gpx.xsd" version="1.1" creator="VisuGPX - https://www.visugpx.com">
  <metadata>
    <name>CARLIT et boucle des 12 lacs</name>
    <desc><![CDATA[Une grande classique parfois trop fréquentée....
ATTENTION : des passages aériens où il faut mettre les mains sur les derniers 100 m de dénivelés.]]></desc>
  </metadata>
  <trk>
    <name><![CDATA[CARLIT et boucle des 12 lacs]]></name>
    <trkseg>
      <trkpt lat="42.5598" lon="1.99718">
        <ele>2032.36</ele>
        <time>2019-08-24T06:03:16Z</time>
      </trkpt>
      <trkpt lat="42.55979" lon="1.99709">
        <ele>2044.86</ele>
        <time>2019-08-24T06:04:13Z</time>
      </trkpt>
      <trkpt lat="42.55975" lon="1.99696">
        <ele>2044.86</ele>
        <time>2019-08-24T06:04:21Z</time>
      </trkpt>
      <trkpt lat="42.55972" lon="1.99684">
        <ele>2044.86</ele>
        <time>2019-08-24T06:04:29Z</time>
      </trkpt>
      <trkpt lat="42.55974" lon="1.99671">
        <ele>2044.86</ele>
        <time>2019-08-24T06:04:38Z</time>
      </trkpt>
      <trkpt lat="42.55978" lon="1.99659">
        <ele>2044.86</ele>
        <time>2019-08-24T06:04:46Z</time>
      </trkpt>
      <trkpt lat="42.55984" lon="1.99647">
        <ele>2044.38</ele>
        <time>2019-08-24T06:04:55Z</time>
      </trkpt>
      <trkpt lat="42.5599" lon="1.99636">
        <ele>2045.34</ele>
        <time>2019-08-24T06:05:04Z</time>
      </trkpt>
      <trkpt lat="42.55994" lon="1.99623">
        <ele>2046.3</ele>
        <time>2019-08-24T06:05:15Z</time>
      </trkpt>
      <trkpt lat="42.55997" lon="1.99606">
        <ele>2048.23</ele>
        <time>2019-08-24T06:05:33Z</time>
      </trkpt>
      <trkpt lat="42.55998" lon="1.99592">
        <ele>2049.19</ele>
        <time>2019-08-24T06:05:47Z</time>
      </trkpt>
      <trkpt lat="42.56005" lon="1.99574">
        <ele>2051.11</ele>
        <time>2019-08-24T06:06:07Z</time>
      </trkpt>
      <trkpt lat="42.56007" lon="1.99557">
        <ele>2052.07</ele>
        <time>2019-08-24T06:06:20Z</time>
      </trkpt>
      <trkpt lat="42.56012" lon="1.9954">
        <ele>2052.55</ele>
        <time>2019-08-24T06:06:35Z</time>
      </trkpt>
      <trkpt lat="42.56019" lon="1.99521">
        <ele>2054.96</ele>
        <time>2019-08-24T06:06:57Z</time>
      </trkpt>
      <trkpt lat="42.56032" lon="1.99507">
        <ele>2059.76</ele>
        <time>2019-08-24T06:07:30Z</time>
      </trkpt>
      <trkpt lat="42.56032" lon="1.9949">
        <ele>2060.72</ele>
        <time>2019-08-24T06:07:48Z</time>
      </trkpt>
      <trkpt lat="42.56028" lon="1.99477">
        <ele>2060.72</ele>
        <time>2019-08-24T06:08:02Z</time>
      </trkpt>
      <trkpt lat="42.5603" lon="1.99463">
        <ele>2062.65</ele>
        <time>2019-08-24T06:08:20Z</time>
      </trkpt>
      <trkpt lat="42.56032" lon="1.99443">
        <ele>2067.45</ele>
        <time>2019-08-24T06:08:55Z</time>
      </trkpt>
      <trkpt lat="42.56027" lon="1.99425">
        <ele>2070.82</ele>
        <time>2019-08-24T06:09:22Z</time>
      </trkpt>
      <trkpt lat="42.56022" lon="1.99422">
        <ele>2072.26</ele>
        <time>2019-08-24T06:11:17Z</time>
      </trkpt>
      <trkpt lat="42.56023" lon="1.99419">
        <ele>2071.78</ele>
        <time>2019-08-24T06:12:09Z</time>
      </trkpt>
      <trkpt lat="42.56018" lon="1.99413">
        <ele>2074.18</ele>
        <time>2019-08-24T06:14:43Z</time>
      </trkpt>
      <trkpt lat="42.56013" lon="1.99398">
        <ele>2078.51</ele>
        <time>2019-08-24T06:15:16Z</time>
      </trkpt>
      <trkpt lat="42.56013" lon="1.99382">
        <ele>2082.35</ele>
        <time>2019-08-24T06:15:41Z</time>
      </trkpt>
      <trkpt lat="42.5601" lon="1.9936">
        <ele>2082.83</ele>
        <time>2019-08-24T06:16:09Z</time>
      </trkpt>
      <trkpt lat="42.56004" lon="1.99339">
        <ele>2078.99</ele>
        <time>2019-08-24T06:16:31Z</time>
      </trkpt>
      <trkpt lat="42.56003" lon="1.99317">
        <ele>2081.39</ele>
        <time>2019-08-24T06:16:47Z</time>
      </trkpt>
      <trkpt lat="42.55998" lon="1.99285">
        <ele>2080.43</ele>
        <time>2019-08-24T06:17:06Z</time>
      </trkpt>
      <trkpt lat="42.55992" lon="1.99266">
        <ele>2079.95</ele>
        <time>2019-08-24T06:17:20Z</time>
      </trkpt>
      <trkpt lat="42.55996" lon="1.99247">
        <ele>2079.95</ele>
        <time>2019-08-24T06:17:37Z</time>
      </trkpt>
      <trkpt lat="42.55999" lon="1.9923">
        <ele>2080.91</ele>
        <time>2019-08-24T06:17:52Z</time>
      </trkpt>
      <trkpt lat="42.56005" lon="1.99209">
        <ele>2080.91</ele>
        <time>2019-08-24T06:18:10Z</time>
      </trkpt>
      <trkpt lat="42.56008" lon="1.99186">
        <ele>2079.95</ele>
        <time>2019-08-24T06:18:26Z</time>
      </trkpt>
      <trkpt lat="42.5601" lon="1.99164">
        <ele>2081.39</ele>
        <time>2019-08-24T06:18:43Z</time>
      </trkpt>
      <trkpt lat="42.56016" lon="1.9915">
        <ele>2083.31</ele>
        <time>2019-08-24T06:18:57Z</time>
      </trkpt>
      <trkpt lat="42.56018" lon="1.99134">
        <ele>2084.76</ele>
        <time>2019-08-24T06:19:11Z</time>
      </trkpt>
      <trkpt lat="42.5602" lon="1.99114">
        <ele>2087.64</ele>
        <time>2019-08-24T06:19:30Z</time>
      </trkpt>
      <trkpt lat="42.56021" lon="1.99099">
        <ele>2090.52</ele>
        <time>2019-08-24T06:19:46Z</time>
      </trkpt>
      <trkpt lat="42.56025" lon="1.99082">
        <ele>2091.97</ele>
        <time>2019-08-24T06:20:04Z</time>
      </trkpt>
      <trkpt lat="42.56033" lon="1.99065">
        <ele>2091</ele>
        <time>2019-08-24T06:20:21Z</time>
      </trkpt>
      <trkpt lat="42.56049" lon="1.99055">
        <ele>2091</ele>
        <time>2019-08-24T06:20:38Z</time>
      </trkpt>
      <trkpt lat="42.56056" lon="1.9904">
        <ele>2092.45</ele>
        <time>2019-08-24T06:20:57Z</time>
      </trkpt>
      <trkpt lat="42.56071" lon="1.99028">
        <ele>2093.89</ele>
        <time>2019-08-24T06:21:13Z</time>
      </trkpt>
      <trkpt lat="42.56081" lon="1.99015">
        <ele>2093.41</ele>
        <time>2019-08-24T06:21:25Z</time>
      </trkpt>
      <trkpt lat="42.5609" lon="1.99001">
        <ele>2092.93</ele>
        <time>2019-08-24T06:21:41Z</time>
      </trkpt>
      <trkpt lat="42.56096" lon="1.98985">
        <ele>2093.89</ele>
        <time>2019-08-24T06:21:54Z</time>
      </trkpt>
      <trkpt lat="42.56101" lon="1.98968">
        <ele>2093.41</ele>
        <time>2019-08-24T06:22:09Z</time>
      </trkpt>
      <trkpt lat="42.56104" lon="1.98955">
        <ele>2094.37</ele>
        <time>2019-08-24T06:22:23Z</time>
      </trkpt>
      <trkpt lat="42.56113" lon="1.98942">
        <ele>2096.77</ele>
        <time>2019-08-24T06:22:40Z</time>
      </trkpt>
      <trkpt lat="42.56124" lon="1.98927">
        <ele>2097.25</ele>
        <time>2019-08-24T06:23:03Z</time>
      </trkpt>
      <trkpt lat="42.5613" lon="1.98914">
        <ele>2097.73</ele>
        <time>2019-08-24T06:23:22Z</time>
      </trkpt>
      <trkpt lat="42.56145" lon="1.98906">
        <ele>2098.21</ele>
        <time>2019-08-24T06:23:39Z</time>
      </trkpt>
      <trkpt lat="42.56153" lon="1.98894">
        <ele>2099.18</ele>
        <time>2019-08-24T06:23:51Z</time>
      </trkpt>
      <trkpt lat="42.56157" lon="1.98878">
        <ele>2101.1</ele>
        <time>2019-08-24T06:24:08Z</time>
      </trkpt>
      <trkpt lat="42.56162" lon="1.98864">
        <ele>2102.54</ele>
        <time>2019-08-24T06:24:24Z</time>
      </trkpt>
      <trkpt lat="42.56169" lon="1.98854">
        <ele>2106.87</ele>
        <time>2019-08-24T06:24:43Z</time>
      </trkpt>
      <trkpt lat="42.56177" lon="1.98842">
        <ele>2109.75</ele>
        <time>2019-08-24T06:25:05Z</time>
      </trkpt>
      <trkpt lat="42.56185" lon="1.98832">
        <ele>2111.19</ele>
        <time>2019-08-24T06:25:25Z</time>
      </trkpt>
      <trkpt lat="42.56194" lon="1.98823">
        <ele>2110.23</ele>
        <time>2019-08-24T06:25:44Z</time>
      </trkpt>
      <trkpt lat="42.56201" lon="1.98814">
        <ele>2111.67</ele>
        <time>2019-08-24T06:26:12Z</time>
      </trkpt>
      <trkpt lat="42.56211" lon="1.98812">
        <ele>2110.23</ele>
        <time>2019-08-24T06:26:26Z</time>
      </trkpt>
      <trkpt lat="42.56221" lon="1.98805">
        <ele>2110.23</ele>
        <time>2019-08-24T06:26:39Z</time>
      </trkpt>
      <trkpt lat="42.56231" lon="1.98793">
        <ele>2111.19</ele>
        <time>2019-08-24T06:26:53Z</time>
      </trkpt>
      <trkpt lat="42.56239" lon="1.98784">
        <ele>2112.15</ele>
        <time>2019-08-24T06:27:08Z</time>
      </trkpt>
      <trkpt lat="42.56248" lon="1.98776">
        <ele>2113.12</ele>
        <time>2019-08-24T06:27:25Z</time>
      </trkpt>
      <trkpt lat="42.56258" lon="1.98765">
        <ele>2114.08</ele>
        <time>2019-08-24T06:27:43Z</time>
      </trkpt>
      <trkpt lat="42.56263" lon="1.98756">
        <ele>2116</ele>
        <time>2019-08-24T06:28:01Z</time>
      </trkpt>
      <trkpt lat="42.56264" lon="1.98739">
        <ele>2119.36</ele>
        <time>2019-08-24T06:28:22Z</time>
      </trkpt>
      <trkpt lat="42.56276" lon="1.98736">
        <ele>2121.29</ele>
        <time>2019-08-24T06:28:39Z</time>
      </trkpt>
      <trkpt lat="42.56284" lon="1.98723">
        <ele>2123.21</ele>
        <time>2019-08-24T06:28:57Z</time>
      </trkpt>
      <trkpt lat="42.563" lon="1.98719">
        <ele>2122.73</ele>
        <time>2019-08-24T06:29:12Z</time>
      </trkpt>
      <trkpt lat="42.56309" lon="1.98709">
        <ele>2122.73</ele>
        <time>2019-08-24T06:29:26Z</time>
      </trkpt>
      <trkpt lat="42.56316" lon="1.98698">
        <ele>2123.21</ele>
        <time>2019-08-24T06:29:40Z</time>
      </trkpt>
      <trkpt lat="42.56325" lon="1.98689">
        <ele>2126.09</ele>
        <time>2019-08-24T06:29:56Z</time>
      </trkpt>
      <trkpt lat="42.56331" lon="1.98677">
        <ele>2128.02</ele>
        <time>2019-08-24T06:30:14Z</time>
      </trkpt>
      <trkpt lat="42.56338" lon="1.98665">
        <ele>2130.9</ele>
        <time>2019-08-24T06:30:34Z</time>
      </trkpt>
      <trkpt lat="42.56337" lon="1.98651">
        <ele>2133.3</ele>
        <time>2019-08-24T06:30:50Z</time>
      </trkpt>
      <trkpt lat="42.56344" lon="1.9864">
        <ele>2135.71</ele>
        <time>2019-08-24T06:31:07Z</time>
      </trkpt>
      <trkpt lat="42.56355" lon="1.9863">
        <ele>2136.19</ele>
        <time>2019-08-24T06:31:22Z</time>
      </trkpt>
      <trkpt lat="42.56364" lon="1.98621">
        <ele>2138.59</ele>
        <time>2019-08-24T06:31:38Z</time>
      </trkpt>
      <trkpt lat="42.56376" lon="1.98613">
        <ele>2139.07</ele>
        <time>2019-08-24T06:31:52Z</time>
      </trkpt>
      <trkpt lat="42.56375" lon="1.98601">
        <ele>2142.44</ele>
        <time>2019-08-24T06:32:08Z</time>
      </trkpt>
      <trkpt lat="42.56389" lon="1.98594">
        <ele>2143.4</ele>
        <time>2019-08-24T06:32:26Z</time>
      </trkpt>
      <trkpt lat="42.56401" lon="1.98585">
        <ele>2142.44</ele>
        <time>2019-08-24T06:32:41Z</time>
      </trkpt>
      <trkpt lat="42.56413" lon="1.98576">
        <ele>2144.36</ele>
        <time>2019-08-24T06:32:53Z</time>
      </trkpt>
      <trkpt lat="42.56423" lon="1.98568">
        <ele>2143.88</ele>
        <time>2019-08-24T06:33:03Z</time>
      </trkpt>
      <trkpt lat="42.56433" lon="1.98559">
        <ele>2142.92</ele>
        <time>2019-08-24T06:33:14Z</time>
      </trkpt>
      <trkpt lat="42.56435" lon="1.98544">
        <ele>2146.28</ele>
        <time>2019-08-24T06:33:28Z</time>
      </trkpt>
      <trkpt lat="42.56436" lon="1.98523">
        <ele>2147.24</ele>
        <time>2019-08-24T06:33:45Z</time>
      </trkpt>
      <trkpt lat="42.56438" lon="1.98503">
        <ele>2147.72</ele>
        <time>2019-08-24T06:34:00Z</time>
      </trkpt>
      <trkpt lat="42.56431" lon="1.98488">
        <ele>2148.2</ele>
        <time>2019-08-24T06:34:13Z</time>
      </trkpt>
      <trkpt lat="42.56427" lon="1.98471">
        <ele>2152.53</ele>
        <time>2019-08-24T06:34:26Z</time>
      </trkpt>
      <trkpt lat="42.56424" lon="1.98455">
        <ele>2153.01</ele>
        <time>2019-08-24T06:34:37Z</time>
      </trkpt>
      <trkpt lat="42.56422" lon="1.9844">
        <ele>2152.53</ele>
        <time>2019-08-24T06:34:46Z</time>
      </trkpt>
      <trkpt lat="42.56424" lon="1.98428">
        <ele>2153.97</ele>
        <time>2019-08-24T06:34:56Z</time>
      </trkpt>
      <trkpt lat="42.56423" lon="1.98413">
        <ele>2154.93</ele>
        <time>2019-08-24T06:35:08Z</time>
      </trkpt>
      <trkpt lat="42.56422" lon="1.98397">
        <ele>2156.37</ele>
        <time>2019-08-24T06:35:19Z</time>
      </trkpt>
      <trkpt lat="42.56425" lon="1.98382">
        <ele>2154.45</ele>
        <time>2019-08-24T06:35:29Z</time>
      </trkpt>
      <trkpt lat="42.56425" lon="1.98367">
        <ele>2154.45</ele>
        <time>2019-08-24T06:35:39Z</time>
      </trkpt>
      <trkpt lat="42.56428" lon="1.98351">
        <ele>2153.97</ele>
        <time>2019-08-24T06:35:49Z</time>
      </trkpt>
      <trkpt lat="42.56433" lon="1.98339">
        <ele>2153.49</ele>
        <time>2019-08-24T06:35:59Z</time>
      </trkpt>
      <trkpt lat="42.56442" lon="1.9833">
        <ele>2155.41</ele>
        <time>2019-08-24T06:36:08Z</time>
      </trkpt>
      <trkpt lat="42.5645" lon="1.98318">
        <ele>2153.97</ele>
        <time>2019-08-24T06:36:20Z</time>
      </trkpt>
      <trkpt lat="42.56455" lon="1.98303">
        <ele>2154.93</ele>
        <time>2019-08-24T06:37:12Z</time>
      </trkpt>
      <trkpt lat="42.56463" lon="1.98292">
        <ele>2154.45</ele>
        <time>2019-08-24T06:37:29Z</time>
      </trkpt>
      <trkpt lat="42.56472" lon="1.98281">
        <ele>2154.93</ele>
        <time>2019-08-24T06:37:44Z</time>
      </trkpt>
      <trkpt lat="42.5648" lon="1.98272">
        <ele>2153.97</ele>
        <time>2019-08-24T06:37:56Z</time>
      </trkpt>
      <trkpt lat="42.5649" lon="1.98264">
        <ele>2157.82</ele>
        <time>2019-08-24T06:38:12Z</time>
      </trkpt>
      <trkpt lat="42.56497" lon="1.98253">
        <ele>2158.78</ele>
        <time>2019-08-24T06:38:30Z</time>
      </trkpt>
      <trkpt lat="42.56505" lon="1.98244">
        <ele>2162.62</ele>
        <time>2019-08-24T06:38:50Z</time>
      </trkpt>
      <trkpt lat="42.56516" lon="1.98238">
        <ele>2162.62</ele>
        <time>2019-08-24T06:39:10Z</time>
      </trkpt>
      <trkpt lat="42.56527" lon="1.98226">
        <ele>2161.18</ele>
        <time>2019-08-24T06:39:27Z</time>
      </trkpt>
      <trkpt lat="42.56534" lon="1.98217">
        <ele>2165.51</ele>
        <time>2019-08-24T06:39:41Z</time>
      </trkpt>
      <trkpt lat="42.56541" lon="1.98206">
        <ele>2165.99</ele>
        <time>2019-08-24T06:39:56Z</time>
      </trkpt>
      <trkpt lat="42.56537" lon="1.98215">
        <ele>2164.06</ele>
        <time>2019-08-24T06:40:25Z</time>
      </trkpt>
      <trkpt lat="42.56541" lon="1.98198">
        <ele>2165.99</ele>
        <time>2019-08-24T06:40:58Z</time>
      </trkpt>
      <trkpt lat="42.56542" lon="1.98172">
        <ele>2168.39</ele>
        <time>2019-08-24T06:41:30Z</time>
      </trkpt>
      <trkpt lat="42.56533" lon="1.98154">
        <ele>2168.87</ele>
        <time>2019-08-24T06:41:47Z</time>
      </trkpt>
      <trkpt lat="42.56525" lon="1.98138">
        <ele>2169.35</ele>
        <time>2019-08-24T06:42:04Z</time>
      </trkpt>
      <trkpt lat="42.56524" lon="1.9812">
        <ele>2169.83</ele>
        <time>2019-08-24T06:42:19Z</time>
      </trkpt>
      <trkpt lat="42.56521" lon="1.98109">
        <ele>2170.79</ele>
        <time>2019-08-24T06:42:33Z</time>
      </trkpt>
      <trkpt lat="42.56514" lon="1.98101">
        <ele>2170.31</ele>
        <time>2019-08-24T06:42:47Z</time>
      </trkpt>
      <trkpt lat="42.56508" lon="1.98087">
        <ele>2168.87</ele>
        <time>2019-08-24T06:43:01Z</time>
      </trkpt>
      <trkpt lat="42.56501" lon="1.98076">
        <ele>2168.39</ele>
        <time>2019-08-24T06:43:12Z</time>
      </trkpt>
      <trkpt lat="42.56497" lon="1.98061">
        <ele>2168.39</ele>
        <time>2019-08-24T06:43:25Z</time>
      </trkpt>
      <trkpt lat="42.56499" lon="1.98042">
        <ele>2168.87</ele>
        <time>2019-08-24T06:43:39Z</time>
      </trkpt>
      <trkpt lat="42.565" lon="1.98029">
        <ele>2168.87</ele>
        <time>2019-08-24T06:43:50Z</time>
      </trkpt>
      <trkpt lat="42.56495" lon="1.98015">
        <ele>2170.31</ele>
        <time>2019-08-24T06:44:02Z</time>
      </trkpt>
      <trkpt lat="42.56494" lon="1.97998">
        <ele>2169.83</ele>
        <time>2019-08-24T06:44:15Z</time>
      </trkpt>
      <trkpt lat="42.5649" lon="1.97984">
        <ele>2169.83</ele>
        <time>2019-08-24T06:44:26Z</time>
      </trkpt>
      <trkpt lat="42.56487" lon="1.97971">
        <ele>2169.83</ele>
        <time>2019-08-24T06:44:36Z</time>
      </trkpt>
      <trkpt lat="42.56483" lon="1.97961">
        <ele>2172.24</ele>
        <time>2019-08-24T06:44:47Z</time>
      </trkpt>
      <trkpt lat="42.56478" lon="1.97951">
        <ele>2171.76</ele>
        <time>2019-08-24T06:46:14Z</time>
      </trkpt>
      <trkpt lat="42.5647" lon="1.97945">
        <ele>2172.72</ele>
        <time>2019-08-24T06:46:25Z</time>
      </trkpt>
      <trkpt lat="42.56465" lon="1.97934">
        <ele>2171.27</ele>
        <time>2019-08-24T06:46:35Z</time>
      </trkpt>
      <trkpt lat="42.56459" lon="1.97923">
        <ele>2173.2</ele>
        <time>2019-08-24T06:46:45Z</time>
      </trkpt>
      <trkpt lat="42.56461" lon="1.97909">
        <ele>2171.27</ele>
        <time>2019-08-24T06:46:54Z</time>
      </trkpt>
      <trkpt lat="42.56462" lon="1.97896">
        <ele>2170.31</ele>
        <time>2019-08-24T06:47:02Z</time>
      </trkpt>
      <trkpt lat="42.56462" lon="1.97883">
        <ele>2169.83</ele>
        <time>2019-08-24T06:47:11Z</time>
      </trkpt>
      <trkpt lat="42.56461" lon="1.97871">
        <ele>2169.83</ele>
        <time>2019-08-24T06:47:21Z</time>
      </trkpt>
      <trkpt lat="42.56459" lon="1.97857">
        <ele>2171.27</ele>
        <time>2019-08-24T06:47:33Z</time>
      </trkpt>
      <trkpt lat="42.56459" lon="1.97842">
        <ele>2169.83</ele>
        <time>2019-08-24T06:47:45Z</time>
      </trkpt>
      <trkpt lat="42.56461" lon="1.97829">
        <ele>2169.83</ele>
        <time>2019-08-24T06:48:11Z</time>
      </trkpt>
      <trkpt lat="42.5646" lon="1.97814">
        <ele>2169.83</ele>
        <time>2019-08-24T06:48:25Z</time>
      </trkpt>
      <trkpt lat="42.56453" lon="1.97804">
        <ele>2168.39</ele>
        <time>2019-08-24T06:48:34Z</time>
      </trkpt>
      <trkpt lat="42.56451" lon="1.9779">
        <ele>2167.43</ele>
        <time>2019-08-24T06:48:44Z</time>
      </trkpt>
      <trkpt lat="42.56453" lon="1.97777">
        <ele>2166.47</ele>
        <time>2019-08-24T06:48:53Z</time>
      </trkpt>
      <trkpt lat="42.56454" lon="1.97768">
        <ele>2165.99</ele>
        <time>2019-08-24T06:49:02Z</time>
      </trkpt>
      <trkpt lat="42.5645" lon="1.97758">
        <ele>2165.51</ele>
        <time>2019-08-24T06:49:11Z</time>
      </trkpt>
      <trkpt lat="42.5645" lon="1.97743">
        <ele>2165.03</ele>
        <time>2019-08-24T06:49:20Z</time>
      </trkpt>
      <trkpt lat="42.56447" lon="1.97734">
        <ele>2165.51</ele>
        <time>2019-08-24T06:49:29Z</time>
      </trkpt>
      <trkpt lat="42.56444" lon="1.97721">
        <ele>2165.51</ele>
        <time>2019-08-24T06:49:39Z</time>
      </trkpt>
      <trkpt lat="42.56444" lon="1.97708">
        <ele>2165.99</ele>
        <time>2019-08-24T06:49:51Z</time>
      </trkpt>
      <trkpt lat="42.5645" lon="1.97697">
        <ele>2165.99</ele>
        <time>2019-08-24T06:50:02Z</time>
      </trkpt>
      <trkpt lat="42.56453" lon="1.97685">
        <ele>2166.47</ele>
        <time>2019-08-24T06:50:12Z</time>
      </trkpt>
      <trkpt lat="42.56454" lon="1.97671">
        <ele>2167.91</ele>
        <time>2019-08-24T06:50:23Z</time>
      </trkpt>
      <trkpt lat="42.56457" lon="1.97659">
        <ele>2167.43</ele>
        <time>2019-08-24T06:50:34Z</time>
      </trkpt>
      <trkpt lat="42.56458" lon="1.97647">
        <ele>2166.47</ele>
        <time>2019-08-24T06:50:44Z</time>
      </trkpt>
      <trkpt lat="42.56464" lon="1.97636">
        <ele>2165.99</ele>
        <time>2019-08-24T06:50:54Z</time>
      </trkpt>
      <trkpt lat="42.56474" lon="1.97632">
        <ele>2166.95</ele>
        <time>2019-08-24T06:51:05Z</time>
      </trkpt>
      <trkpt lat="42.56482" lon="1.97623">
        <ele>2166.95</ele>
        <time>2019-08-24T06:51:15Z</time>
      </trkpt>
      <trkpt lat="42.56483" lon="1.97613">
        <ele>2165.99</ele>
        <time>2019-08-24T06:51:25Z</time>
      </trkpt>
      <trkpt lat="42.56484" lon="1.976">
        <ele>2165.99</ele>
        <time>2019-08-24T06:51:35Z</time>
      </trkpt>
      <trkpt lat="42.56484" lon="1.97587">
        <ele>2165.51</ele>
        <time>2019-08-24T06:51:45Z</time>
      </trkpt>
      <trkpt lat="42.56489" lon="1.97576">
        <ele>2167.43</ele>
        <time>2019-08-24T06:51:57Z</time>
      </trkpt>
      <trkpt lat="42.56498" lon="1.97568">
        <ele>2168.87</ele>
        <time>2019-08-24T06:52:11Z</time>
      </trkpt>
      <trkpt lat="42.56505" lon="1.97558">
        <ele>2170.31</ele>
        <time>2019-08-24T06:52:24Z</time>
      </trkpt>
      <trkpt lat="42.56514" lon="1.97551">
        <ele>2170.31</ele>
        <time>2019-08-24T06:52:37Z</time>
      </trkpt>
      <trkpt lat="42.56517" lon="1.97544">
        <ele>2168.39</ele>
        <time>2019-08-24T06:52:50Z</time>
      </trkpt>
      <trkpt lat="42.56522" lon="1.97533">
        <ele>2167.43</ele>
        <time>2019-08-24T06:53:00Z</time>
      </trkpt>
      <trkpt lat="42.56526" lon="1.97522">
        <ele>2167.91</ele>
        <time>2019-08-24T06:53:10Z</time>
      </trkpt>
      <trkpt lat="42.5653" lon="1.9751">
        <ele>2168.87</ele>
        <time>2019-08-24T06:53:21Z</time>
      </trkpt>
      <trkpt lat="42.56526" lon="1.97499">
        <ele>2169.83</ele>
        <time>2019-08-24T06:53:32Z</time>
      </trkpt>
      <trkpt lat="42.56531" lon="1.97488">
        <ele>2169.35</ele>
        <time>2019-08-24T06:53:44Z</time>
      </trkpt>
      <trkpt lat="42.56524" lon="1.97481">
        <ele>2170.31</ele>
        <time>2019-08-24T06:53:54Z</time>
      </trkpt>
      <trkpt lat="42.56516" lon="1.97475">
        <ele>2171.76</ele>
        <time>2019-08-24T06:54:05Z</time>
      </trkpt>
      <trkpt lat="42.5651" lon="1.97468">
        <ele>2174.64</ele>
        <time>2019-08-24T06:54:19Z</time>
      </trkpt>
      <trkpt lat="42.56507" lon="1.97457">
        <ele>2176.08</ele>
        <time>2019-08-24T06:54:32Z</time>
      </trkpt>
      <trkpt lat="42.56511" lon="1.97445">
        <ele>2178.48</ele>
        <time>2019-08-24T06:54:45Z</time>
      </trkpt>
      <trkpt lat="42.56521" lon="1.9744">
        <ele>2179.93</ele>
        <time>2019-08-24T06:55:01Z</time>
      </trkpt>
      <trkpt lat="42.56528" lon="1.97433">
        <ele>2181.85</ele>
        <time>2019-08-24T06:55:14Z</time>
      </trkpt>
      <trkpt lat="42.56538" lon="1.97431">
        <ele>2181.85</ele>
        <time>2019-08-24T06:55:27Z</time>
      </trkpt>
      <trkpt lat="42.56547" lon="1.97426">
        <ele>2182.81</ele>
        <time>2019-08-24T06:55:37Z</time>
      </trkpt>
      <trkpt lat="42.56555" lon="1.97421">
        <ele>2182.81</ele>
        <time>2019-08-24T06:55:47Z</time>
      </trkpt>
      <trkpt lat="42.56565" lon="1.97418">
        <ele>2182.81</ele>
        <time>2019-08-24T06:55:56Z</time>
      </trkpt>
      <trkpt lat="42.56574" lon="1.97414">
        <ele>2183.77</ele>
        <time>2019-08-24T06:56:05Z</time>
      </trkpt>
      <trkpt lat="42.56582" lon="1.97409">
        <ele>2183.29</ele>
        <time>2019-08-24T06:56:14Z</time>
      </trkpt>
      <trkpt lat="42.56592" lon="1.97404">
        <ele>2182.81</ele>
        <time>2019-08-24T06:56:23Z</time>
      </trkpt>
      <trkpt lat="42.56598" lon="1.97395">
        <ele>2183.29</ele>
        <time>2019-08-24T06:56:32Z</time>
      </trkpt>
      <trkpt lat="42.56607" lon="1.9739">
        <ele>2183.77</ele>
        <time>2019-08-24T06:56:40Z</time>
      </trkpt>
      <trkpt lat="42.56616" lon="1.97385">
        <ele>2183.77</ele>
        <time>2019-08-24T06:56:48Z</time>
      </trkpt>
      <trkpt lat="42.56625" lon="1.9738">
        <ele>2183.77</ele>
        <time>2019-08-24T06:56:56Z</time>
      </trkpt>
      <trkpt lat="42.56632" lon="1.97374">
        <ele>2184.73</ele>
        <time>2019-08-24T06:57:04Z</time>
      </trkpt>
      <trkpt lat="42.56642" lon="1.97369">
        <ele>2185.21</ele>
        <time>2019-08-24T06:57:13Z</time>
      </trkpt>
      <trkpt lat="42.56651" lon="1.97363">
        <ele>2185.69</ele>
        <time>2019-08-24T06:57:22Z</time>
      </trkpt>
      <trkpt lat="42.5666" lon="1.97358">
        <ele>2186.18</ele>
        <time>2019-08-24T06:57:31Z</time>
      </trkpt>
      <trkpt lat="42.56669" lon="1.97355">
        <ele>2187.14</ele>
        <time>2019-08-24T06:57:40Z</time>
      </trkpt>
      <trkpt lat="42.56677" lon="1.9735">
        <ele>2189.06</ele>
        <time>2019-08-24T06:57:51Z</time>
      </trkpt>
      <trkpt lat="42.56687" lon="1.97344">
        <ele>2190.02</ele>
        <time>2019-08-24T06:58:00Z</time>
      </trkpt>
      <trkpt lat="42.56695" lon="1.97342">
        <ele>2190.98</ele>
        <time>2019-08-24T06:58:09Z</time>
      </trkpt>
      <trkpt lat="42.56705" lon="1.97337">
        <ele>2191.94</ele>
        <time>2019-08-24T06:58:20Z</time>
      </trkpt>
      <trkpt lat="42.56713" lon="1.97335">
        <ele>2193.39</ele>
        <time>2019-08-24T06:58:30Z</time>
      </trkpt>
      <trkpt lat="42.56723" lon="1.97334">
        <ele>2194.35</ele>
        <time>2019-08-24T06:58:40Z</time>
      </trkpt>
      <trkpt lat="42.56732" lon="1.97338">
        <ele>2195.79</ele>
        <time>2019-08-24T06:58:50Z</time>
      </trkpt>
      <trkpt lat="42.56732" lon="1.97338">
        <ele>2194.83</ele>
        <time>2019-08-24T07:00:36Z</time>
      </trkpt>
      <trkpt lat="42.56732" lon="1.97327">
        <ele>2194.83</ele>
        <time>2019-08-24T07:00:52Z</time>
      </trkpt>
      <trkpt lat="42.56732" lon="1.97314">
        <ele>2195.79</ele>
        <time>2019-08-24T07:01:05Z</time>
      </trkpt>
      <trkpt lat="42.56739" lon="1.97305">
        <ele>2197.23</ele>
        <time>2019-08-24T07:01:17Z</time>
      </trkpt>
      <trkpt lat="42.56748" lon="1.97297">
        <ele>2198.67</ele>
        <time>2019-08-24T07:01:28Z</time>
      </trkpt>
      <trkpt lat="42.56756" lon="1.9729">
        <ele>2199.63</ele>
        <time>2019-08-24T07:01:39Z</time>
      </trkpt>
      <trkpt lat="42.56765" lon="1.97283">
        <ele>2199.63</ele>
        <time>2019-08-24T07:01:49Z</time>
      </trkpt>
      <trkpt lat="42.56773" lon="1.97276">
        <ele>2199.63</ele>
        <time>2019-08-24T07:02:01Z</time>
      </trkpt>
      <trkpt lat="42.5678" lon="1.97267">
        <ele>2201.08</ele>
        <time>2019-08-24T07:02:12Z</time>
      </trkpt>
      <trkpt lat="42.56788" lon="1.97259">
        <ele>2202.52</ele>
        <time>2019-08-24T07:02:22Z</time>
      </trkpt>
      <trkpt lat="42.56796" lon="1.97251">
        <ele>2203.48</ele>
        <time>2019-08-24T07:02:32Z</time>
      </trkpt>
      <trkpt lat="42.56804" lon="1.97244">
        <ele>2204.44</ele>
        <time>2019-08-24T07:02:44Z</time>
      </trkpt>
      <trkpt lat="42.56811" lon="1.97233">
        <ele>2205.4</ele>
        <time>2019-08-24T07:02:55Z</time>
      </trkpt>
      <trkpt lat="42.5682" lon="1.97229">
        <ele>2206.84</ele>
        <time>2019-08-24T07:03:07Z</time>
      </trkpt>
      <trkpt lat="42.56822" lon="1.97215">
        <ele>2208.77</ele>
        <time>2019-08-24T07:03:20Z</time>
      </trkpt>
      <trkpt lat="42.5683" lon="1.97206">
        <ele>2209.73</ele>
        <time>2019-08-24T07:03:34Z</time>
      </trkpt>
      <trkpt lat="42.56839" lon="1.97201">
        <ele>2210.21</ele>
        <time>2019-08-24T07:03:52Z</time>
      </trkpt>
      <trkpt lat="42.56846" lon="1.97192">
        <ele>2211.65</ele>
        <time>2019-08-24T07:04:04Z</time>
      </trkpt>
      <trkpt lat="42.56856" lon="1.97189">
        <ele>2212.61</ele>
        <time>2019-08-24T07:04:15Z</time>
      </trkpt>
      <trkpt lat="42.56865" lon="1.97183">
        <ele>2214.05</ele>
        <time>2019-08-24T07:04:27Z</time>
      </trkpt>
      <trkpt lat="42.56875" lon="1.97176">
        <ele>2216.46</ele>
        <time>2019-08-24T07:04:41Z</time>
      </trkpt>
      <trkpt lat="42.56885" lon="1.97169">
        <ele>2217.9</ele>
        <time>2019-08-24T07:04:54Z</time>
      </trkpt>
      <trkpt lat="42.56894" lon="1.9716">
        <ele>2219.34</ele>
        <time>2019-08-24T07:05:07Z</time>
      </trkpt>
      <trkpt lat="42.56904" lon="1.97153">
        <ele>2220.78</ele>
        <time>2019-08-24T07:05:21Z</time>
      </trkpt>
      <trkpt lat="42.56912" lon="1.97147">
        <ele>2222.71</ele>
        <time>2019-08-24T07:05:34Z</time>
      </trkpt>
      <trkpt lat="42.5692" lon="1.97138">
        <ele>2224.15</ele>
        <time>2019-08-24T07:05:48Z</time>
      </trkpt>
      <trkpt lat="42.56928" lon="1.97129">
        <ele>2225.59</ele>
        <time>2019-08-24T07:06:01Z</time>
      </trkpt>
      <trkpt lat="42.56937" lon="1.97124">
        <ele>2226.55</ele>
        <time>2019-08-24T07:06:20Z</time>
      </trkpt>
      <trkpt lat="42.56948" lon="1.97121">
        <ele>2228.47</ele>
        <time>2019-08-24T07:06:33Z</time>
      </trkpt>
      <trkpt lat="42.56957" lon="1.97116">
        <ele>2229.92</ele>
        <time>2019-08-24T07:06:45Z</time>
      </trkpt>
      <trkpt lat="42.56969" lon="1.97112">
        <ele>2230.88</ele>
        <time>2019-08-24T07:06:58Z</time>
      </trkpt>
      <trkpt lat="42.56978" lon="1.97106">
        <ele>2232.32</ele>
        <time>2019-08-24T07:07:11Z</time>
      </trkpt>
      <trkpt lat="42.56989" lon="1.97103">
        <ele>2233.76</ele>
        <time>2019-08-24T07:07:23Z</time>
      </trkpt>
      <trkpt lat="42.57001" lon="1.97099">
        <ele>2234.72</ele>
        <time>2019-08-24T07:07:35Z</time>
      </trkpt>
      <trkpt lat="42.57013" lon="1.97097">
        <ele>2235.68</ele>
        <time>2019-08-24T07:07:59Z</time>
      </trkpt>
      <trkpt lat="42.57018" lon="1.97088">
        <ele>2236.16</ele>
        <time>2019-08-24T07:08:22Z</time>
      </trkpt>
      <trkpt lat="42.57031" lon="1.97089">
        <ele>2236.64</ele>
        <time>2019-08-24T07:08:34Z</time>
      </trkpt>
      <trkpt lat="42.57042" lon="1.97089">
        <ele>2237.61</ele>
        <time>2019-08-24T07:08:44Z</time>
      </trkpt>
      <trkpt lat="42.57051" lon="1.97084">
        <ele>2237.61</ele>
        <time>2019-08-24T07:08:55Z</time>
      </trkpt>
      <trkpt lat="42.57061" lon="1.97081">
        <ele>2238.09</ele>
        <time>2019-08-24T07:09:06Z</time>
      </trkpt>
      <trkpt lat="42.5707" lon="1.9708">
        <ele>2238.57</ele>
        <time>2019-08-24T07:09:16Z</time>
      </trkpt>
      <trkpt lat="42.57079" lon="1.97075">
        <ele>2239.05</ele>
        <time>2019-08-24T07:09:26Z</time>
      </trkpt>
      <trkpt lat="42.57089" lon="1.97071">
        <ele>2239.53</ele>
        <time>2019-08-24T07:09:35Z</time>
      </trkpt>
      <trkpt lat="42.57099" lon="1.97068">
        <ele>2239.05</ele>
        <time>2019-08-24T07:09:44Z</time>
      </trkpt>
      <trkpt lat="42.57108" lon="1.97065">
        <ele>2239.53</ele>
        <time>2019-08-24T07:09:52Z</time>
      </trkpt>
      <trkpt lat="42.57117" lon="1.9706">
        <ele>2239.53</ele>
        <time>2019-08-24T07:10:03Z</time>
      </trkpt>
      <trkpt lat="42.57126" lon="1.97055">
        <ele>2239.53</ele>
        <time>2019-08-24T07:10:11Z</time>
      </trkpt>
      <trkpt lat="42.57135" lon="1.97048">
        <ele>2239.53</ele>
        <time>2019-08-24T07:10:20Z</time>
      </trkpt>
      <trkpt lat="42.57143" lon="1.97042">
        <ele>2239.53</ele>
        <time>2019-08-24T07:10:28Z</time>
      </trkpt>
      <trkpt lat="42.57151" lon="1.97034">
        <ele>2239.53</ele>
        <time>2019-08-24T07:10:37Z</time>
      </trkpt>
      <trkpt lat="42.57158" lon="1.97026">
        <ele>2240.49</ele>
        <time>2019-08-24T07:10:45Z</time>
      </trkpt>
      <trkpt lat="42.57166" lon="1.97018">
        <ele>2240.97</ele>
        <time>2019-08-24T07:10:53Z</time>
      </trkpt>
      <trkpt lat="42.57173" lon="1.9701">
        <ele>2240.97</ele>
        <time>2019-08-24T07:11:02Z</time>
      </trkpt>
      <trkpt lat="42.5718" lon="1.96999">
        <ele>2240.97</ele>
        <time>2019-08-24T07:11:11Z</time>
      </trkpt>
      <trkpt lat="42.57187" lon="1.96992">
        <ele>2240.97</ele>
        <time>2019-08-24T07:11:20Z</time>
      </trkpt>
      <trkpt lat="42.57195" lon="1.96983">
        <ele>2240.01</ele>
        <time>2019-08-24T07:11:29Z</time>
      </trkpt>
      <trkpt lat="42.57203" lon="1.96974">
        <ele>2239.53</ele>
        <time>2019-08-24T07:11:37Z</time>
      </trkpt>
      <trkpt lat="42.57211" lon="1.96969">
        <ele>2239.53</ele>
        <time>2019-08-24T07:11:54Z</time>
      </trkpt>
      <trkpt lat="42.5722" lon="1.96962">
        <ele>2239.05</ele>
        <time>2019-08-24T07:12:06Z</time>
      </trkpt>
      <trkpt lat="42.57228" lon="1.96955">
        <ele>2237.13</ele>
        <time>2019-08-24T07:12:17Z</time>
      </trkpt>
      <trkpt lat="42.57235" lon="1.96944">
        <ele>2236.64</ele>
        <time>2019-08-24T07:12:28Z</time>
      </trkpt>
      <trkpt lat="42.57245" lon="1.96937">
        <ele>2235.2</ele>
        <time>2019-08-24T07:12:38Z</time>
      </trkpt>
      <trkpt lat="42.57252" lon="1.96925">
        <ele>2233.76</ele>
        <time>2019-08-24T07:12:48Z</time>
      </trkpt>
      <trkpt lat="42.57257" lon="1.96914">
        <ele>2232.8</ele>
        <time>2019-08-24T07:12:57Z</time>
      </trkpt>
      <trkpt lat="42.57265" lon="1.96907">
        <ele>2230.88</ele>
        <time>2019-08-24T07:13:07Z</time>
      </trkpt>
      <trkpt lat="42.57272" lon="1.96897">
        <ele>2229.43</ele>
        <time>2019-08-24T07:13:16Z</time>
      </trkpt>
      <trkpt lat="42.57283" lon="1.96895">
        <ele>2227.51</ele>
        <time>2019-08-24T07:13:26Z</time>
      </trkpt>
      <trkpt lat="42.57293" lon="1.96893">
        <ele>2226.07</ele>
        <time>2019-08-24T07:13:35Z</time>
      </trkpt>
      <trkpt lat="42.57296" lon="1.96881">
        <ele>2222.22</ele>
        <time>2019-08-24T07:13:47Z</time>
      </trkpt>
      <trkpt lat="42.57303" lon="1.9687">
        <ele>2221.26</ele>
        <time>2019-08-24T07:13:57Z</time>
      </trkpt>
      <trkpt lat="42.57306" lon="1.96854">
        <ele>2221.74</ele>
        <time>2019-08-24T07:14:08Z</time>
      </trkpt>
      <trkpt lat="42.57308" lon="1.9684">
        <ele>2222.22</ele>
        <time>2019-08-24T07:14:19Z</time>
      </trkpt>
      <trkpt lat="42.57309" lon="1.96828">
        <ele>2223.67</ele>
        <time>2019-08-24T07:14:30Z</time>
      </trkpt>
      <trkpt lat="42.57314" lon="1.96815">
        <ele>2224.15</ele>
        <time>2019-08-24T07:14:43Z</time>
      </trkpt>
      <trkpt lat="42.57308" lon="1.96804">
        <ele>2224.15</ele>
        <time>2019-08-24T07:14:53Z</time>
      </trkpt>
      <trkpt lat="42.57306" lon="1.96789">
        <ele>2224.15</ele>
        <time>2019-08-24T07:15:03Z</time>
      </trkpt>
      <trkpt lat="42.57308" lon="1.96776">
        <ele>2224.63</ele>
        <time>2019-08-24T07:15:14Z</time>
      </trkpt>
      <trkpt lat="42.57313" lon="1.96774">
        <ele>2226.07</ele>
        <time>2019-08-24T07:16:15Z</time>
      </trkpt>
      <trkpt lat="42.57312" lon="1.96758">
        <ele>2225.59</ele>
        <time>2019-08-24T07:16:24Z</time>
      </trkpt>
      <trkpt lat="42.57313" lon="1.96743">
        <ele>2224.63</ele>
        <time>2019-08-24T07:16:35Z</time>
      </trkpt>
      <trkpt lat="42.57316" lon="1.96731">
        <ele>2227.03</ele>
        <time>2019-08-24T07:16:46Z</time>
      </trkpt>
      <trkpt lat="42.57316" lon="1.96717">
        <ele>2227.51</ele>
        <time>2019-08-24T07:16:56Z</time>
      </trkpt>
      <trkpt lat="42.57315" lon="1.96704">
        <ele>2227.99</ele>
        <time>2019-08-24T07:17:06Z</time>
      </trkpt>
      <trkpt lat="42.57311" lon="1.9669">
        <ele>2228.95</ele>
        <time>2019-08-24T07:17:17Z</time>
      </trkpt>
      <trkpt lat="42.57307" lon="1.96691">
        <ele>2228.47</ele>
        <time>2019-08-24T07:17:52Z</time>
      </trkpt>
      <trkpt lat="42.57306" lon="1.96675">
        <ele>2228.95</ele>
        <time>2019-08-24T07:18:01Z</time>
      </trkpt>
      <trkpt lat="42.573" lon="1.96664">
        <ele>2229.92</ele>
        <time>2019-08-24T07:18:12Z</time>
      </trkpt>
      <trkpt lat="42.57293" lon="1.96654">
        <ele>2231.84</ele>
        <time>2019-08-24T07:18:24Z</time>
      </trkpt>
      <trkpt lat="42.57287" lon="1.96644">
        <ele>2233.28</ele>
        <time>2019-08-24T07:18:37Z</time>
      </trkpt>
      <trkpt lat="42.5728" lon="1.96636">
        <ele>2236.16</ele>
        <time>2019-08-24T07:18:52Z</time>
      </trkpt>
      <trkpt lat="42.57273" lon="1.96628">
        <ele>2238.57</ele>
        <time>2019-08-24T07:19:07Z</time>
      </trkpt>
      <trkpt lat="42.57263" lon="1.96627">
        <ele>2240.01</ele>
        <time>2019-08-24T07:19:22Z</time>
      </trkpt>
      <trkpt lat="42.57263" lon="1.96613">
        <ele>2241.93</ele>
        <time>2019-08-24T07:19:38Z</time>
      </trkpt>
      <trkpt lat="42.57266" lon="1.966">
        <ele>2244.33</ele>
        <time>2019-08-24T07:19:57Z</time>
      </trkpt>
      <trkpt lat="42.57267" lon="1.96588">
        <ele>2246.26</ele>
        <time>2019-08-24T07:20:13Z</time>
      </trkpt>
      <trkpt lat="42.57269" lon="1.96575">
        <ele>2248.66</ele>
        <time>2019-08-24T07:20:41Z</time>
      </trkpt>
      <trkpt lat="42.57272" lon="1.96563">
        <ele>2249.14</ele>
        <time>2019-08-24T07:20:54Z</time>
      </trkpt>
      <trkpt lat="42.5727" lon="1.96549">
        <ele>2251.06</ele>
        <time>2019-08-24T07:21:10Z</time>
      </trkpt>
      <trkpt lat="42.57264" lon="1.96537">
        <ele>2251.06</ele>
        <time>2019-08-24T07:21:50Z</time>
      </trkpt>
      <trkpt lat="42.57257" lon="1.96532">
        <ele>2251.54</ele>
        <time>2019-08-24T07:22:03Z</time>
      </trkpt>
      <trkpt lat="42.57252" lon="1.96519">
        <ele>2252.99</ele>
        <time>2019-08-24T07:22:15Z</time>
      </trkpt>
      <trkpt lat="42.57253" lon="1.96503">
        <ele>2255.39</ele>
        <time>2019-08-24T07:22:30Z</time>
      </trkpt>
      <trkpt lat="42.57253" lon="1.96488">
        <ele>2257.31</ele>
        <time>2019-08-24T07:22:47Z</time>
      </trkpt>
      <trkpt lat="42.57256" lon="1.96477">
        <ele>2259.24</ele>
        <time>2019-08-24T07:23:01Z</time>
      </trkpt>
      <trkpt lat="42.57251" lon="1.96468">
        <ele>2261.64</ele>
        <time>2019-08-24T07:23:20Z</time>
      </trkpt>
      <trkpt lat="42.57249" lon="1.96453">
        <ele>2264.04</ele>
        <time>2019-08-24T07:23:41Z</time>
      </trkpt>
      <trkpt lat="42.57246" lon="1.96438">
        <ele>2266.93</ele>
        <time>2019-08-24T07:24:01Z</time>
      </trkpt>
      <trkpt lat="42.57243" lon="1.96423">
        <ele>2269.33</ele>
        <time>2019-08-24T07:24:18Z</time>
      </trkpt>
      <trkpt lat="42.57239" lon="1.96407">
        <ele>2270.77</ele>
        <time>2019-08-24T07:24:34Z</time>
      </trkpt>
      <trkpt lat="42.57236" lon="1.96394">
        <ele>2272.69</ele>
        <time>2019-08-24T07:24:48Z</time>
      </trkpt>
      <trkpt lat="42.57236" lon="1.96381">
        <ele>2274.62</ele>
        <time>2019-08-24T07:25:02Z</time>
      </trkpt>
      <trkpt lat="42.57235" lon="1.96367">
        <ele>2275.58</ele>
        <time>2019-08-24T07:25:14Z</time>
      </trkpt>
      <trkpt lat="42.57233" lon="1.96351">
        <ele>2275.1</ele>
        <time>2019-08-24T07:25:26Z</time>
      </trkpt>
      <trkpt lat="42.57235" lon="1.96338">
        <ele>2274.14</ele>
        <time>2019-08-24T07:25:39Z</time>
      </trkpt>
      <trkpt lat="42.57235" lon="1.96325">
        <ele>2273.17</ele>
        <time>2019-08-24T07:25:50Z</time>
      </trkpt>
      <trkpt lat="42.57229" lon="1.96311">
        <ele>2272.21</ele>
        <time>2019-08-24T07:26:00Z</time>
      </trkpt>
      <trkpt lat="42.57222" lon="1.96299">
        <ele>2271.73</ele>
        <time>2019-08-24T07:26:11Z</time>
      </trkpt>
      <trkpt lat="42.57218" lon="1.96286">
        <ele>2272.21</ele>
        <time>2019-08-24T07:26:21Z</time>
      </trkpt>
      <trkpt lat="42.57214" lon="1.96274">
        <ele>2273.17</ele>
        <time>2019-08-24T07:26:34Z</time>
      </trkpt>
      <trkpt lat="42.57215" lon="1.96261">
        <ele>2274.62</ele>
        <time>2019-08-24T07:26:48Z</time>
      </trkpt>
      <trkpt lat="42.57219" lon="1.96249">
        <ele>2275.1</ele>
        <time>2019-08-24T07:27:00Z</time>
      </trkpt>
      <trkpt lat="42.57215" lon="1.96234">
        <ele>2276.54</ele>
        <time>2019-08-24T07:27:13Z</time>
      </trkpt>
      <trkpt lat="42.57211" lon="1.96221">
        <ele>2279.42</ele>
        <time>2019-08-24T07:27:26Z</time>
      </trkpt>
      <trkpt lat="42.57207" lon="1.96208">
        <ele>2279.9</ele>
        <time>2019-08-24T07:27:39Z</time>
      </trkpt>
      <trkpt lat="42.57201" lon="1.96197">
        <ele>2281.83</ele>
        <time>2019-08-24T07:27:53Z</time>
      </trkpt>
      <trkpt lat="42.57201" lon="1.96183">
        <ele>2282.79</ele>
        <time>2019-08-24T07:28:07Z</time>
      </trkpt>
      <trkpt lat="42.57204" lon="1.96169">
        <ele>2285.19</ele>
        <time>2019-08-24T07:28:22Z</time>
      </trkpt>
      <trkpt lat="42.57205" lon="1.96156">
        <ele>2286.15</ele>
        <time>2019-08-24T07:28:35Z</time>
      </trkpt>
      <trkpt lat="42.57206" lon="1.96143">
        <ele>2288.08</ele>
        <time>2019-08-24T07:28:49Z</time>
      </trkpt>
      <trkpt lat="42.5721" lon="1.96132">
        <ele>2290.48</ele>
        <time>2019-08-24T07:29:05Z</time>
      </trkpt>
      <trkpt lat="42.57212" lon="1.96119">
        <ele>2292.88</ele>
        <time>2019-08-24T07:29:23Z</time>
      </trkpt>
      <trkpt lat="42.57215" lon="1.96108">
        <ele>2294.8</ele>
        <time>2019-08-24T07:29:39Z</time>
      </trkpt>
      <trkpt lat="42.57222" lon="1.96105">
        <ele>2297.21</ele>
        <time>2019-08-24T07:29:56Z</time>
      </trkpt>
      <trkpt lat="42.57219" lon="1.9609">
        <ele>2300.09</ele>
        <time>2019-08-24T07:30:14Z</time>
      </trkpt>
      <trkpt lat="42.57215" lon="1.96078">
        <ele>2302.01</ele>
        <time>2019-08-24T07:30:32Z</time>
      </trkpt>
      <trkpt lat="42.57214" lon="1.96066">
        <ele>2303.94</ele>
        <time>2019-08-24T07:30:47Z</time>
      </trkpt>
      <trkpt lat="42.57215" lon="1.96053">
        <ele>2306.34</ele>
        <time>2019-08-24T07:31:02Z</time>
      </trkpt>
      <trkpt lat="42.57215" lon="1.9604">
        <ele>2308.74</ele>
        <time>2019-08-24T07:31:22Z</time>
      </trkpt>
      <trkpt lat="42.57221" lon="1.96028">
        <ele>2310.67</ele>
        <time>2019-08-24T07:31:37Z</time>
      </trkpt>
      <trkpt lat="42.57224" lon="1.96015">
        <ele>2311.15</ele>
        <time>2019-08-24T07:31:49Z</time>
      </trkpt>
      <trkpt lat="42.57232" lon="1.96006">
        <ele>2312.11</ele>
        <time>2019-08-24T07:32:00Z</time>
      </trkpt>
      <trkpt lat="42.57242" lon="1.96004">
        <ele>2314.51</ele>
        <time>2019-08-24T07:32:11Z</time>
      </trkpt>
      <trkpt lat="42.57244" lon="1.96005">
        <ele>2314.51</ele>
        <time>2019-08-24T07:32:25Z</time>
      </trkpt>
      <trkpt lat="42.57238" lon="1.95995">
        <ele>2314.03</ele>
        <time>2019-08-24T07:32:42Z</time>
      </trkpt>
      <trkpt lat="42.57238" lon="1.95981">
        <ele>2314.03</ele>
        <time>2019-08-24T07:32:57Z</time>
      </trkpt>
      <trkpt lat="42.5724" lon="1.95967">
        <ele>2314.99</ele>
        <time>2019-08-24T07:33:10Z</time>
      </trkpt>
      <trkpt lat="42.57241" lon="1.95953">
        <ele>2315.95</ele>
        <time>2019-08-24T07:33:24Z</time>
      </trkpt>
      <trkpt lat="42.57241" lon="1.9594">
        <ele>2316.91</ele>
        <time>2019-08-24T07:33:40Z</time>
      </trkpt>
      <trkpt lat="42.57244" lon="1.95925">
        <ele>2319.8</ele>
        <time>2019-08-24T07:34:03Z</time>
      </trkpt>
      <trkpt lat="42.57247" lon="1.95909">
        <ele>2320.76</ele>
        <time>2019-08-24T07:34:21Z</time>
      </trkpt>
      <trkpt lat="42.57252" lon="1.95895">
        <ele>2323.16</ele>
        <time>2019-08-24T07:34:42Z</time>
      </trkpt>
      <trkpt lat="42.5725" lon="1.95882">
        <ele>2325.09</ele>
        <time>2019-08-24T07:34:58Z</time>
      </trkpt>
      <trkpt lat="42.57251" lon="1.95867">
        <ele>2327.01</ele>
        <time>2019-08-24T07:35:15Z</time>
      </trkpt>
      <trkpt lat="42.57252" lon="1.95853">
        <ele>2328.93</ele>
        <time>2019-08-24T07:35:33Z</time>
      </trkpt>
      <trkpt lat="42.57251" lon="1.9584">
        <ele>2330.37</ele>
        <time>2019-08-24T07:35:48Z</time>
      </trkpt>
      <trkpt lat="42.5725" lon="1.95826">
        <ele>2333.26</ele>
        <time>2019-08-24T07:36:06Z</time>
      </trkpt>
      <trkpt lat="42.57249" lon="1.95812">
        <ele>2335.66</ele>
        <time>2019-08-24T07:36:22Z</time>
      </trkpt>
      <trkpt lat="42.57247" lon="1.95799">
        <ele>2338.06</ele>
        <time>2019-08-24T07:36:37Z</time>
      </trkpt>
      <trkpt lat="42.57246" lon="1.95789">
        <ele>2340.47</ele>
        <time>2019-08-24T07:37:05Z</time>
      </trkpt>
      <trkpt lat="42.57237" lon="1.9578">
        <ele>2341.91</ele>
        <time>2019-08-24T07:37:18Z</time>
      </trkpt>
      <trkpt lat="42.57228" lon="1.95771">
        <ele>2341.43</ele>
        <time>2019-08-24T07:37:29Z</time>
      </trkpt>
      <trkpt lat="42.57219" lon="1.95763">
        <ele>2341.91</ele>
        <time>2019-08-24T07:37:40Z</time>
      </trkpt>
      <trkpt lat="42.57213" lon="1.9575">
        <ele>2341.43</ele>
        <time>2019-08-24T07:37:51Z</time>
      </trkpt>
      <trkpt lat="42.57205" lon="1.95743">
        <ele>2341.91</ele>
        <time>2019-08-24T07:38:02Z</time>
      </trkpt>
      <trkpt lat="42.57197" lon="1.95733">
        <ele>2344.31</ele>
        <time>2019-08-24T07:38:12Z</time>
      </trkpt>
      <trkpt lat="42.57189" lon="1.95724">
        <ele>2344.31</ele>
        <time>2019-08-24T07:38:23Z</time>
      </trkpt>
      <trkpt lat="42.57182" lon="1.95714">
        <ele>2344.31</ele>
        <time>2019-08-24T07:38:33Z</time>
      </trkpt>
      <trkpt lat="42.57176" lon="1.95703">
        <ele>2345.27</ele>
        <time>2019-08-24T07:38:43Z</time>
      </trkpt>
      <trkpt lat="42.5717" lon="1.95693">
        <ele>2345.75</ele>
        <time>2019-08-24T07:38:52Z</time>
      </trkpt>
      <trkpt lat="42.57164" lon="1.95684">
        <ele>2345.27</ele>
        <time>2019-08-24T07:39:01Z</time>
      </trkpt>
      <trkpt lat="42.57161" lon="1.95675">
        <ele>2345.27</ele>
        <time>2019-08-24T07:39:10Z</time>
      </trkpt>
      <trkpt lat="42.57157" lon="1.95664">
        <ele>2345.27</ele>
        <time>2019-08-24T07:39:18Z</time>
      </trkpt>
      <trkpt lat="42.57152" lon="1.95654">
        <ele>2345.75</ele>
        <time>2019-08-24T07:39:27Z</time>
      </trkpt>
      <trkpt lat="42.57146" lon="1.95644">
        <ele>2347.2</ele>
        <time>2019-08-24T07:39:37Z</time>
      </trkpt>
      <trkpt lat="42.57143" lon="1.95631">
        <ele>2348.64</ele>
        <time>2019-08-24T07:39:48Z</time>
      </trkpt>
      <trkpt lat="42.57141" lon="1.95618">
        <ele>2350.08</ele>
        <time>2019-08-24T07:39:59Z</time>
      </trkpt>
      <trkpt lat="42.57141" lon="1.95605">
        <ele>2351.52</ele>
        <time>2019-08-24T07:40:11Z</time>
      </trkpt>
      <trkpt lat="42.57141" lon="1.95592">
        <ele>2352.48</ele>
        <time>2019-08-24T07:40:22Z</time>
      </trkpt>
      <trkpt lat="42.57145" lon="1.95579">
        <ele>2352.48</ele>
        <time>2019-08-24T07:40:33Z</time>
      </trkpt>
      <trkpt lat="42.57149" lon="1.95566">
        <ele>2353.93</ele>
        <time>2019-08-24T07:40:47Z</time>
      </trkpt>
      <trkpt lat="42.57149" lon="1.95553">
        <ele>2353.44</ele>
        <time>2019-08-24T07:40:58Z</time>
      </trkpt>
      <trkpt lat="42.57154" lon="1.95543">
        <ele>2354.41</ele>
        <time>2019-08-24T07:41:08Z</time>
      </trkpt>
      <trkpt lat="42.57156" lon="1.95529">
        <ele>2355.37</ele>
        <time>2019-08-24T07:41:20Z</time>
      </trkpt>
      <trkpt lat="42.57157" lon="1.95516">
        <ele>2355.37</ele>
        <time>2019-08-24T07:41:30Z</time>
      </trkpt>
      <trkpt lat="42.57156" lon="1.95502">
        <ele>2356.33</ele>
        <time>2019-08-24T07:41:41Z</time>
      </trkpt>
      <trkpt lat="42.57155" lon="1.95489">
        <ele>2356.81</ele>
        <time>2019-08-24T07:41:52Z</time>
      </trkpt>
      <trkpt lat="42.57156" lon="1.95476">
        <ele>2357.77</ele>
        <time>2019-08-24T07:42:03Z</time>
      </trkpt>
      <trkpt lat="42.57155" lon="1.95464">
        <ele>2358.25</ele>
        <time>2019-08-24T07:42:13Z</time>
      </trkpt>
      <trkpt lat="42.57156" lon="1.9545">
        <ele>2357.77</ele>
        <time>2019-08-24T07:42:22Z</time>
      </trkpt>
      <trkpt lat="42.57156" lon="1.95436">
        <ele>2358.73</ele>
        <time>2019-08-24T07:42:31Z</time>
      </trkpt>
      <trkpt lat="42.57158" lon="1.95424">
        <ele>2359.69</ele>
        <time>2019-08-24T07:42:41Z</time>
      </trkpt>
      <trkpt lat="42.57161" lon="1.95411">
        <ele>2358.73</ele>
        <time>2019-08-24T07:42:52Z</time>
      </trkpt>
      <trkpt lat="42.57161" lon="1.95396">
        <ele>2359.69</ele>
        <time>2019-08-24T07:43:02Z</time>
      </trkpt>
      <trkpt lat="42.57162" lon="1.95386">
        <ele>2360.65</ele>
        <time>2019-08-24T07:43:11Z</time>
      </trkpt>
      <trkpt lat="42.57161" lon="1.95372">
        <ele>2360.65</ele>
        <time>2019-08-24T07:43:20Z</time>
      </trkpt>
      <trkpt lat="42.57162" lon="1.95361">
        <ele>2361.14</ele>
        <time>2019-08-24T07:43:29Z</time>
      </trkpt>
      <trkpt lat="42.57162" lon="1.95348">
        <ele>2360.17</ele>
        <time>2019-08-24T07:43:38Z</time>
      </trkpt>
      <trkpt lat="42.57162" lon="1.95335">
        <ele>2361.62</ele>
        <time>2019-08-24T07:43:47Z</time>
      </trkpt>
      <trkpt lat="42.5716" lon="1.95322">
        <ele>2362.1</ele>
        <time>2019-08-24T07:43:56Z</time>
      </trkpt>
      <trkpt lat="42.5716" lon="1.95307">
        <ele>2362.1</ele>
        <time>2019-08-24T07:44:05Z</time>
      </trkpt>
      <trkpt lat="42.5716" lon="1.95294">
        <ele>2361.62</ele>
        <time>2019-08-24T07:44:13Z</time>
      </trkpt>
      <trkpt lat="42.57159" lon="1.95281">
        <ele>2361.62</ele>
        <time>2019-08-24T07:44:22Z</time>
      </trkpt>
      <trkpt lat="42.5716" lon="1.95267">
        <ele>2361.62</ele>
        <time>2019-08-24T07:44:31Z</time>
      </trkpt>
      <trkpt lat="42.57159" lon="1.95255">
        <ele>2361.14</ele>
        <time>2019-08-24T07:44:40Z</time>
      </trkpt>
      <trkpt lat="42.57157" lon="1.95244">
        <ele>2360.65</ele>
        <time>2019-08-24T07:44:50Z</time>
      </trkpt>
      <trkpt lat="42.57155" lon="1.95232">
        <ele>2360.65</ele>
        <time>2019-08-24T07:44:58Z</time>
      </trkpt>
      <trkpt lat="42.57153" lon="1.95221">
        <ele>2360.17</ele>
        <time>2019-08-24T07:45:06Z</time>
      </trkpt>
      <trkpt lat="42.57153" lon="1.95209">
        <ele>2358.73</ele>
        <time>2019-08-24T07:45:14Z</time>
      </trkpt>
      <trkpt lat="42.5715" lon="1.95197">
        <ele>2358.25</ele>
        <time>2019-08-24T07:45:22Z</time>
      </trkpt>
      <trkpt lat="42.57147" lon="1.95185">
        <ele>2357.29</ele>
        <time>2019-08-24T07:45:30Z</time>
      </trkpt>
      <trkpt lat="42.57148" lon="1.95171">
        <ele>2358.25</ele>
        <time>2019-08-24T07:45:39Z</time>
      </trkpt>
      <trkpt lat="42.5715" lon="1.95159">
        <ele>2359.21</ele>
        <time>2019-08-24T07:45:48Z</time>
      </trkpt>
      <trkpt lat="42.57152" lon="1.95147">
        <ele>2359.69</ele>
        <time>2019-08-24T07:45:59Z</time>
      </trkpt>
      <trkpt lat="42.57155" lon="1.95135">
        <ele>2362.1</ele>
        <time>2019-08-24T07:46:12Z</time>
      </trkpt>
      <trkpt lat="42.57155" lon="1.95122">
        <ele>2364.02</ele>
        <time>2019-08-24T07:46:25Z</time>
      </trkpt>
      <trkpt lat="42.57156" lon="1.95108">
        <ele>2364.5</ele>
        <time>2019-08-24T07:46:36Z</time>
      </trkpt>
      <trkpt lat="42.57155" lon="1.95097">
        <ele>2366.9</ele>
        <time>2019-08-24T07:46:49Z</time>
      </trkpt>
      <trkpt lat="42.57158" lon="1.95084">
        <ele>2366.9</ele>
        <time>2019-08-24T07:47:00Z</time>
      </trkpt>
      <trkpt lat="42.57162" lon="1.95072">
        <ele>2367.38</ele>
        <time>2019-08-24T07:47:11Z</time>
      </trkpt>
      <trkpt lat="42.57164" lon="1.95061">
        <ele>2369.79</ele>
        <time>2019-08-24T07:47:26Z</time>
      </trkpt>
      <trkpt lat="42.57166" lon="1.95047">
        <ele>2371.23</ele>
        <time>2019-08-24T07:47:39Z</time>
      </trkpt>
      <trkpt lat="42.57171" lon="1.95036">
        <ele>2372.67</ele>
        <time>2019-08-24T07:47:51Z</time>
      </trkpt>
      <trkpt lat="42.57173" lon="1.95023">
        <ele>2374.11</ele>
        <time>2019-08-24T07:48:03Z</time>
      </trkpt>
      <trkpt lat="42.57176" lon="1.95011">
        <ele>2375.07</ele>
        <time>2019-08-24T07:48:15Z</time>
      </trkpt>
      <trkpt lat="42.57178" lon="1.95">
        <ele>2376.04</ele>
        <time>2019-08-24T07:48:29Z</time>
      </trkpt>
      <trkpt lat="42.57178" lon="1.94988">
        <ele>2378.92</ele>
        <time>2019-08-24T07:48:45Z</time>
      </trkpt>
      <trkpt lat="42.57177" lon="1.94976">
        <ele>2380.84</ele>
        <time>2019-08-24T07:49:00Z</time>
      </trkpt>
      <trkpt lat="42.5717" lon="1.94974">
        <ele>2383.25</ele>
        <time>2019-08-24T07:49:17Z</time>
      </trkpt>
      <trkpt lat="42.57165" lon="1.94964">
        <ele>2386.13</ele>
        <time>2019-08-24T07:49:35Z</time>
      </trkpt>
      <trkpt lat="42.57167" lon="1.94952">
        <ele>2389.49</ele>
        <time>2019-08-24T07:49:54Z</time>
      </trkpt>
      <trkpt lat="42.57166" lon="1.94943">
        <ele>2391.42</ele>
        <time>2019-08-24T07:50:11Z</time>
      </trkpt>
      <trkpt lat="42.57166" lon="1.94929">
        <ele>2390.94</ele>
        <time>2019-08-24T07:50:25Z</time>
      </trkpt>
      <trkpt lat="42.57168" lon="1.94917">
        <ele>2389.97</ele>
        <time>2019-08-24T07:50:37Z</time>
      </trkpt>
      <trkpt lat="42.57164" lon="1.94908">
        <ele>2391.9</ele>
        <time>2019-08-24T07:50:49Z</time>
      </trkpt>
      <trkpt lat="42.57158" lon="1.94902">
        <ele>2394.3</ele>
        <time>2019-08-24T07:51:04Z</time>
      </trkpt>
      <trkpt lat="42.57152" lon="1.94895">
        <ele>2397.18</ele>
        <time>2019-08-24T07:51:20Z</time>
      </trkpt>
      <trkpt lat="42.57149" lon="1.94885">
        <ele>2398.63</ele>
        <time>2019-08-24T07:51:34Z</time>
      </trkpt>
      <trkpt lat="42.5714" lon="1.94885">
        <ele>2402.47</ele>
        <time>2019-08-24T07:51:52Z</time>
      </trkpt>
      <trkpt lat="42.57133" lon="1.94876">
        <ele>2403.43</ele>
        <time>2019-08-24T07:52:04Z</time>
      </trkpt>
      <trkpt lat="42.57129" lon="1.94866">
        <ele>2403.43</ele>
        <time>2019-08-24T07:52:17Z</time>
      </trkpt>
      <trkpt lat="42.57126" lon="1.94852">
        <ele>2403.91</ele>
        <time>2019-08-24T07:52:29Z</time>
      </trkpt>
      <trkpt lat="42.57126" lon="1.94837">
        <ele>2405.36</ele>
        <time>2019-08-24T07:52:41Z</time>
      </trkpt>
      <trkpt lat="42.57126" lon="1.94823">
        <ele>2405.36</ele>
        <time>2019-08-24T07:52:52Z</time>
      </trkpt>
      <trkpt lat="42.57127" lon="1.9481">
        <ele>2404.88</ele>
        <time>2019-08-24T07:53:03Z</time>
      </trkpt>
      <trkpt lat="42.57128" lon="1.94799">
        <ele>2408.24</ele>
        <time>2019-08-24T07:53:21Z</time>
      </trkpt>
      <trkpt lat="42.57127" lon="1.94788">
        <ele>2410.16</ele>
        <time>2019-08-24T07:53:37Z</time>
      </trkpt>
      <trkpt lat="42.57127" lon="1.94776">
        <ele>2412.57</ele>
        <time>2019-08-24T07:53:49Z</time>
      </trkpt>
      <trkpt lat="42.57125" lon="1.94764">
        <ele>2412.57</ele>
        <time>2019-08-24T07:54:01Z</time>
      </trkpt>
      <trkpt lat="42.57119" lon="1.94756">
        <ele>2413.53</ele>
        <time>2019-08-24T07:54:12Z</time>
      </trkpt>
      <trkpt lat="42.57113" lon="1.94746">
        <ele>2414.97</ele>
        <time>2019-08-24T07:54:24Z</time>
      </trkpt>
      <trkpt lat="42.57106" lon="1.94736">
        <ele>2415.93</ele>
        <time>2019-08-24T07:54:36Z</time>
      </trkpt>
      <trkpt lat="42.57102" lon="1.94724">
        <ele>2416.89</ele>
        <time>2019-08-24T07:54:47Z</time>
      </trkpt>
      <trkpt lat="42.57098" lon="1.94712">
        <ele>2417.85</ele>
        <time>2019-08-24T07:55:00Z</time>
      </trkpt>
      <trkpt lat="42.57096" lon="1.94698">
        <ele>2419.3</ele>
        <time>2019-08-24T07:55:14Z</time>
      </trkpt>
      <trkpt lat="42.57095" lon="1.94686">
        <ele>2421.7</ele>
        <time>2019-08-24T07:55:35Z</time>
      </trkpt>
      <trkpt lat="42.57096" lon="1.94674">
        <ele>2423.62</ele>
        <time>2019-08-24T07:55:51Z</time>
      </trkpt>
      <trkpt lat="42.57099" lon="1.94661">
        <ele>2424.58</ele>
        <time>2019-08-24T07:56:03Z</time>
      </trkpt>
      <trkpt lat="42.57099" lon="1.94647">
        <ele>2426.5</ele>
        <time>2019-08-24T07:56:18Z</time>
      </trkpt>
      <trkpt lat="42.57097" lon="1.94637">
        <ele>2427.47</ele>
        <time>2019-08-24T07:56:42Z</time>
      </trkpt>
      <trkpt lat="42.57093" lon="1.94626">
        <ele>2428.43</ele>
        <time>2019-08-24T07:56:54Z</time>
      </trkpt>
      <trkpt lat="42.57091" lon="1.94609">
        <ele>2429.87</ele>
        <time>2019-08-24T07:57:09Z</time>
      </trkpt>
      <trkpt lat="42.5709" lon="1.94596">
        <ele>2432.27</ele>
        <time>2019-08-24T07:57:23Z</time>
      </trkpt>
      <trkpt lat="42.57093" lon="1.94585">
        <ele>2433.23</ele>
        <time>2019-08-24T07:57:37Z</time>
      </trkpt>
      <trkpt lat="42.57088" lon="1.94575">
        <ele>2433.71</ele>
        <time>2019-08-24T07:57:52Z</time>
      </trkpt>
      <trkpt lat="42.57084" lon="1.94563">
        <ele>2435.16</ele>
        <time>2019-08-24T07:58:04Z</time>
      </trkpt>
      <trkpt lat="42.57078" lon="1.94557">
        <ele>2435.64</ele>
        <time>2019-08-24T07:58:15Z</time>
      </trkpt>
      <trkpt lat="42.5707" lon="1.94548">
        <ele>2437.56</ele>
        <time>2019-08-24T07:58:30Z</time>
      </trkpt>
      <trkpt lat="42.57062" lon="1.94542">
        <ele>2439.96</ele>
        <time>2019-08-24T07:58:48Z</time>
      </trkpt>
      <trkpt lat="42.57054" lon="1.9453">
        <ele>2442.85</ele>
        <time>2019-08-24T07:59:07Z</time>
      </trkpt>
      <trkpt lat="42.57051" lon="1.94517">
        <ele>2445.73</ele>
        <time>2019-08-24T07:59:28Z</time>
      </trkpt>
      <trkpt lat="42.57048" lon="1.94502">
        <ele>2448.13</ele>
        <time>2019-08-24T07:59:48Z</time>
      </trkpt>
      <trkpt lat="42.57045" lon="1.94489">
        <ele>2450.06</ele>
        <time>2019-08-24T08:00:06Z</time>
      </trkpt>
      <trkpt lat="42.57036" lon="1.94469">
        <ele>2456.79</ele>
        <time>2019-08-24T08:00:48Z</time>
      </trkpt>
      <trkpt lat="42.57028" lon="1.94462">
        <ele>2462.07</ele>
        <time>2019-08-24T08:01:20Z</time>
      </trkpt>
      <trkpt lat="42.57023" lon="1.94451">
        <ele>2464.96</ele>
        <time>2019-08-24T08:01:41Z</time>
      </trkpt>
      <trkpt lat="42.57016" lon="1.94441">
        <ele>2468.8</ele>
        <time>2019-08-24T08:02:14Z</time>
      </trkpt>
      <trkpt lat="42.57011" lon="1.94428">
        <ele>2470.73</ele>
        <time>2019-08-24T08:02:52Z</time>
      </trkpt>
      <trkpt lat="42.57012" lon="1.94421">
        <ele>2473.61</ele>
        <time>2019-08-24T08:03:08Z</time>
      </trkpt>
      <trkpt lat="42.57009" lon="1.94412">
        <ele>2476.49</ele>
        <time>2019-08-24T08:03:34Z</time>
      </trkpt>
      <trkpt lat="42.57008" lon="1.94402">
        <ele>2478.42</ele>
        <time>2019-08-24T08:03:49Z</time>
      </trkpt>
      <trkpt lat="42.57007" lon="1.94393">
        <ele>2480.34</ele>
        <time>2019-08-24T08:04:04Z</time>
      </trkpt>
      <trkpt lat="42.57008" lon="1.9438">
        <ele>2481.78</ele>
        <time>2019-08-24T08:04:18Z</time>
      </trkpt>
      <trkpt lat="42.57005" lon="1.94368">
        <ele>2484.66</ele>
        <time>2019-08-24T08:04:38Z</time>
      </trkpt>
      <trkpt lat="42.57006" lon="1.94351">
        <ele>2488.51</ele>
        <time>2019-08-24T08:05:08Z</time>
      </trkpt>
      <trkpt lat="42.57008" lon="1.94341">
        <ele>2491.39</ele>
        <time>2019-08-24T08:05:28Z</time>
      </trkpt>
      <trkpt lat="42.57007" lon="1.94331">
        <ele>2494.28</ele>
        <time>2019-08-24T08:05:51Z</time>
      </trkpt>
      <trkpt lat="42.5701" lon="1.94319">
        <ele>2497.64</ele>
        <time>2019-08-24T08:06:11Z</time>
      </trkpt>
      <trkpt lat="42.57011" lon="1.9431">
        <ele>2500.53</ele>
        <time>2019-08-24T08:06:31Z</time>
      </trkpt>
      <trkpt lat="42.57013" lon="1.943">
        <ele>2503.41</ele>
        <time>2019-08-24T08:06:50Z</time>
      </trkpt>
      <trkpt lat="42.57015" lon="1.94292">
        <ele>2507.26</ele>
        <time>2019-08-24T08:07:20Z</time>
      </trkpt>
      <trkpt lat="42.5702" lon="1.94284">
        <ele>2510.14</ele>
        <time>2019-08-24T08:07:44Z</time>
      </trkpt>
      <trkpt lat="42.57027" lon="1.94268">
        <ele>2514.95</ele>
        <time>2019-08-24T08:08:16Z</time>
      </trkpt>
      <trkpt lat="42.57025" lon="1.94263">
        <ele>2518.31</ele>
        <time>2019-08-24T08:08:42Z</time>
      </trkpt>
      <trkpt lat="42.57028" lon="1.94251">
        <ele>2523.12</ele>
        <time>2019-08-24T08:09:12Z</time>
      </trkpt>
      <trkpt lat="42.57034" lon="1.94245">
        <ele>2526</ele>
        <time>2019-08-24T08:09:37Z</time>
      </trkpt>
      <trkpt lat="42.57033" lon="1.94242">
        <ele>2529.85</ele>
        <time>2019-08-24T08:10:06Z</time>
      </trkpt>
      <trkpt lat="42.57035" lon="1.94229">
        <ele>2531.77</ele>
        <time>2019-08-24T08:10:24Z</time>
      </trkpt>
      <trkpt lat="42.57035" lon="1.94218">
        <ele>2534.65</ele>
        <time>2019-08-24T08:10:42Z</time>
      </trkpt>
      <trkpt lat="42.57036" lon="1.94205">
        <ele>2537.54</ele>
        <time>2019-08-24T08:11:04Z</time>
      </trkpt>
      <trkpt lat="42.57037" lon="1.94194">
        <ele>2540.42</ele>
        <time>2019-08-24T08:11:25Z</time>
      </trkpt>
      <trkpt lat="42.57041" lon="1.94182">
        <ele>2541.38</ele>
        <time>2019-08-24T08:11:39Z</time>
      </trkpt>
      <trkpt lat="42.57041" lon="1.94171">
        <ele>2543.31</ele>
        <time>2019-08-24T08:11:56Z</time>
      </trkpt>
      <trkpt lat="42.57046" lon="1.9416">
        <ele>2545.23</ele>
        <time>2019-08-24T08:12:12Z</time>
      </trkpt>
      <trkpt lat="42.57048" lon="1.9415">
        <ele>2549.55</ele>
        <time>2019-08-24T08:12:40Z</time>
      </trkpt>
      <trkpt lat="42.5705" lon="1.94138">
        <ele>2553.4</ele>
        <time>2019-08-24T08:13:14Z</time>
      </trkpt>
      <trkpt lat="42.5705" lon="1.94133">
        <ele>2555.8</ele>
        <time>2019-08-24T08:13:35Z</time>
      </trkpt>
      <trkpt lat="42.57054" lon="1.94121">
        <ele>2558.69</ele>
        <time>2019-08-24T08:13:59Z</time>
      </trkpt>
      <trkpt lat="42.57052" lon="1.94113">
        <ele>2561.09</ele>
        <time>2019-08-24T08:14:16Z</time>
      </trkpt>
      <trkpt lat="42.5705" lon="1.94097">
        <ele>2564.45</ele>
        <time>2019-08-24T08:14:44Z</time>
      </trkpt>
      <trkpt lat="42.57051" lon="1.94084">
        <ele>2568.78</ele>
        <time>2019-08-24T08:15:09Z</time>
      </trkpt>
      <trkpt lat="42.57051" lon="1.94074">
        <ele>2572.14</ele>
        <time>2019-08-24T08:15:34Z</time>
      </trkpt>
      <trkpt lat="42.57049" lon="1.94065">
        <ele>2575.03</ele>
        <time>2019-08-24T08:15:57Z</time>
      </trkpt>
      <trkpt lat="42.57051" lon="1.94054">
        <ele>2578.87</ele>
        <time>2019-08-24T08:16:28Z</time>
      </trkpt>
      <trkpt lat="42.5705" lon="1.94041">
        <ele>2583.2</ele>
        <time>2019-08-24T08:16:57Z</time>
      </trkpt>
      <trkpt lat="42.5705" lon="1.94028">
        <ele>2587.53</ele>
        <time>2019-08-24T08:17:27Z</time>
      </trkpt>
      <trkpt lat="42.57046" lon="1.94019">
        <ele>2589.45</ele>
        <time>2019-08-24T08:17:48Z</time>
      </trkpt>
      <trkpt lat="42.57047" lon="1.9401">
        <ele>2592.33</ele>
        <time>2019-08-24T08:18:10Z</time>
      </trkpt>
      <trkpt lat="42.57039" lon="1.94006">
        <ele>2593.77</ele>
        <time>2019-08-24T08:18:28Z</time>
      </trkpt>
      <trkpt lat="42.57034" lon="1.94002">
        <ele>2596.18</ele>
        <time>2019-08-24T08:18:50Z</time>
      </trkpt>
      <trkpt lat="42.57026" lon="1.94">
        <ele>2598.58</ele>
        <time>2019-08-24T08:19:12Z</time>
      </trkpt>
      <trkpt lat="42.5702" lon="1.9399">
        <ele>2600.5</ele>
        <time>2019-08-24T08:19:36Z</time>
      </trkpt>
      <trkpt lat="42.57013" lon="1.93979">
        <ele>2604.83</ele>
        <time>2019-08-24T08:20:04Z</time>
      </trkpt>
      <trkpt lat="42.57009" lon="1.9397">
        <ele>2608.19</ele>
        <time>2019-08-24T08:20:33Z</time>
      </trkpt>
      <trkpt lat="42.57007" lon="1.93958">
        <ele>2611.08</ele>
        <time>2019-08-24T08:20:54Z</time>
      </trkpt>
      <trkpt lat="42.57006" lon="1.93946">
        <ele>2613</ele>
        <time>2019-08-24T08:21:16Z</time>
      </trkpt>
      <trkpt lat="42.57006" lon="1.93936">
        <ele>2616.37</ele>
        <time>2019-08-24T08:21:43Z</time>
      </trkpt>
      <trkpt lat="42.57001" lon="1.93935">
        <ele>2620.69</ele>
        <time>2019-08-24T08:22:08Z</time>
      </trkpt>
      <trkpt lat="42.56994" lon="1.9393">
        <ele>2623.09</ele>
        <time>2019-08-24T08:22:34Z</time>
      </trkpt>
      <trkpt lat="42.56993" lon="1.9392">
        <ele>2625.98</ele>
        <time>2019-08-24T08:22:58Z</time>
      </trkpt>
      <trkpt lat="42.5699" lon="1.93908">
        <ele>2627.42</ele>
        <time>2019-08-24T08:23:21Z</time>
      </trkpt>
      <trkpt lat="42.56991" lon="1.93897">
        <ele>2630.79</ele>
        <time>2019-08-24T08:23:44Z</time>
      </trkpt>
      <trkpt lat="42.56991" lon="1.93891">
        <ele>2632.71</ele>
        <time>2019-08-24T08:24:03Z</time>
      </trkpt>
      <trkpt lat="42.56997" lon="1.93882">
        <ele>2635.11</ele>
        <time>2019-08-24T08:24:23Z</time>
      </trkpt>
      <trkpt lat="42.56991" lon="1.93874">
        <ele>2637.51</ele>
        <time>2019-08-24T08:24:46Z</time>
      </trkpt>
      <trkpt lat="42.56984" lon="1.9387">
        <ele>2640.88</ele>
        <time>2019-08-24T08:25:09Z</time>
      </trkpt>
      <trkpt lat="42.56987" lon="1.9386">
        <ele>2644.24</ele>
        <time>2019-08-24T08:25:37Z</time>
      </trkpt>
      <trkpt lat="42.56987" lon="1.9385">
        <ele>2646.65</ele>
        <time>2019-08-24T08:25:55Z</time>
      </trkpt>
      <trkpt lat="42.56988" lon="1.93836">
        <ele>2650.97</ele>
        <time>2019-08-24T08:26:28Z</time>
      </trkpt>
      <trkpt lat="42.56986" lon="1.93829">
        <ele>2653.38</ele>
        <time>2019-08-24T08:26:49Z</time>
      </trkpt>
      <trkpt lat="42.56984" lon="1.93824">
        <ele>2655.78</ele>
        <time>2019-08-24T08:27:09Z</time>
      </trkpt>
      <trkpt lat="42.5698" lon="1.93816">
        <ele>2658.66</ele>
        <time>2019-08-24T08:27:31Z</time>
      </trkpt>
      <trkpt lat="42.56979" lon="1.93804">
        <ele>2661.07</ele>
        <time>2019-08-24T08:27:51Z</time>
      </trkpt>
      <trkpt lat="42.5698" lon="1.93793">
        <ele>2663.47</ele>
        <time>2019-08-24T08:28:14Z</time>
      </trkpt>
      <trkpt lat="42.56973" lon="1.93783">
        <ele>2664.91</ele>
        <time>2019-08-24T08:28:33Z</time>
      </trkpt>
      <trkpt lat="42.56975" lon="1.93773">
        <ele>2666.83</ele>
        <time>2019-08-24T08:28:49Z</time>
      </trkpt>
      <trkpt lat="42.56974" lon="1.93765">
        <ele>2669.72</ele>
        <time>2019-08-24T08:29:17Z</time>
      </trkpt>
      <trkpt lat="42.56967" lon="1.93753">
        <ele>2673.08</ele>
        <time>2019-08-24T08:29:40Z</time>
      </trkpt>
      <trkpt lat="42.56971" lon="1.93747">
        <ele>2675.97</ele>
        <time>2019-08-24T08:30:02Z</time>
      </trkpt>
      <trkpt lat="42.56967" lon="1.9374">
        <ele>2678.37</ele>
        <time>2019-08-24T08:30:24Z</time>
      </trkpt>
      <trkpt lat="42.56965" lon="1.93731">
        <ele>2681.73</ele>
        <time>2019-08-24T08:30:50Z</time>
      </trkpt>
      <trkpt lat="42.56965" lon="1.93727">
        <ele>2683.66</ele>
        <time>2019-08-24T08:31:12Z</time>
      </trkpt>
      <trkpt lat="42.56963" lon="1.93719">
        <ele>2686.06</ele>
        <time>2019-08-24T08:31:33Z</time>
      </trkpt>
      <trkpt lat="42.56957" lon="1.93709">
        <ele>2690.39</ele>
        <time>2019-08-24T08:32:02Z</time>
      </trkpt>
      <trkpt lat="42.56962" lon="1.93702">
        <ele>2693.27</ele>
        <time>2019-08-24T08:32:23Z</time>
      </trkpt>
      <trkpt lat="42.56962" lon="1.93691">
        <ele>2696.64</ele>
        <time>2019-08-24T08:32:54Z</time>
      </trkpt>
      <trkpt lat="42.5696" lon="1.93682">
        <ele>2699.04</ele>
        <time>2019-08-24T08:33:15Z</time>
      </trkpt>
      <trkpt lat="42.56962" lon="1.93673">
        <ele>2701.92</ele>
        <time>2019-08-24T08:33:49Z</time>
      </trkpt>
      <trkpt lat="42.56959" lon="1.93663">
        <ele>2705.29</ele>
        <time>2019-08-24T08:34:12Z</time>
      </trkpt>
      <trkpt lat="42.56965" lon="1.93662">
        <ele>2707.21</ele>
        <time>2019-08-24T08:34:31Z</time>
      </trkpt>
      <trkpt lat="42.56959" lon="1.93655">
        <ele>2708.65</ele>
        <time>2019-08-24T08:34:47Z</time>
      </trkpt>
      <trkpt lat="42.5696" lon="1.93647">
        <ele>2711.54</ele>
        <time>2019-08-24T08:35:13Z</time>
      </trkpt>
      <trkpt lat="42.56959" lon="1.93637">
        <ele>2714.9</ele>
        <time>2019-08-24T08:35:38Z</time>
      </trkpt>
      <trkpt lat="42.56955" lon="1.93628">
        <ele>2717.78</ele>
        <time>2019-08-24T08:36:01Z</time>
      </trkpt>
      <trkpt lat="42.56956" lon="1.93622">
        <ele>2720.67</ele>
        <time>2019-08-24T08:36:27Z</time>
      </trkpt>
      <trkpt lat="42.56955" lon="1.9361">
        <ele>2724.99</ele>
        <time>2019-08-24T08:37:17Z</time>
      </trkpt>
      <trkpt lat="42.5696" lon="1.93612">
        <ele>2726.92</ele>
        <time>2019-08-24T08:38:15Z</time>
      </trkpt>
      <trkpt lat="42.56967" lon="1.93607">
        <ele>2731.72</ele>
        <time>2019-08-24T08:38:44Z</time>
      </trkpt>
      <trkpt lat="42.56972" lon="1.93598">
        <ele>2737.49</ele>
        <time>2019-08-24T08:39:35Z</time>
      </trkpt>
      <trkpt lat="42.56973" lon="1.93593">
        <ele>2739.41</ele>
        <time>2019-08-24T08:39:52Z</time>
      </trkpt>
      <trkpt lat="42.56975" lon="1.93581">
        <ele>2743.26</ele>
        <time>2019-08-24T08:40:23Z</time>
      </trkpt>
      <trkpt lat="42.56974" lon="1.93571">
        <ele>2748.55</ele>
        <time>2019-08-24T08:40:58Z</time>
      </trkpt>
      <trkpt lat="42.56973" lon="1.9356">
        <ele>2752.39</ele>
        <time>2019-08-24T08:41:33Z</time>
      </trkpt>
      <trkpt lat="42.56969" lon="1.93553">
        <ele>2756.72</ele>
        <time>2019-08-24T08:42:04Z</time>
      </trkpt>
      <trkpt lat="42.56971" lon="1.93545">
        <ele>2761.04</ele>
        <time>2019-08-24T08:45:16Z</time>
      </trkpt>
      <trkpt lat="42.56968" lon="1.93541">
        <ele>2763.93</ele>
        <time>2019-08-24T08:47:10Z</time>
      </trkpt>
      <trkpt lat="42.56966" lon="1.93522">
        <ele>2768.73</ele>
        <time>2019-08-24T08:47:45Z</time>
      </trkpt>
      <trkpt lat="42.56963" lon="1.93509">
        <ele>2771.62</ele>
        <time>2019-08-24T08:48:12Z</time>
      </trkpt>
      <trkpt lat="42.5696" lon="1.93497">
        <ele>2774.02</ele>
        <time>2019-08-24T08:48:33Z</time>
      </trkpt>
      <trkpt lat="42.56959" lon="1.93485">
        <ele>2778.83</ele>
        <time>2019-08-24T08:49:10Z</time>
      </trkpt>
      <trkpt lat="42.56956" lon="1.93479">
        <ele>2783.15</ele>
        <time>2019-08-24T08:49:52Z</time>
      </trkpt>
      <trkpt lat="42.56956" lon="1.93471">
        <ele>2784.12</ele>
        <time>2019-08-24T08:50:10Z</time>
      </trkpt>
      <trkpt lat="42.56956" lon="1.93461">
        <ele>2786.52</ele>
        <time>2019-08-24T08:50:29Z</time>
      </trkpt>
      <trkpt lat="42.56961" lon="1.9345">
        <ele>2788.44</ele>
        <time>2019-08-24T08:50:46Z</time>
      </trkpt>
      <trkpt lat="42.56965" lon="1.93439">
        <ele>2790.36</ele>
        <time>2019-08-24T08:51:06Z</time>
      </trkpt>
      <trkpt lat="42.56971" lon="1.93427">
        <ele>2793.25</ele>
        <time>2019-08-24T08:51:31Z</time>
      </trkpt>
      <trkpt lat="42.56976" lon="1.93416">
        <ele>2795.65</ele>
        <time>2019-08-24T08:51:56Z</time>
      </trkpt>
      <trkpt lat="42.56985" lon="1.93407">
        <ele>2797.57</ele>
        <time>2019-08-24T08:52:21Z</time>
      </trkpt>
      <trkpt lat="42.56993" lon="1.93402">
        <ele>2797.57</ele>
        <time>2019-08-24T08:52:55Z</time>
      </trkpt>
      <trkpt lat="42.57" lon="1.93394">
        <ele>2797.57</ele>
        <time>2019-08-24T08:53:10Z</time>
      </trkpt>
      <trkpt lat="42.57009" lon="1.9339">
        <ele>2798.54</ele>
        <time>2019-08-24T08:53:30Z</time>
      </trkpt>
      <trkpt lat="42.57013" lon="1.93379">
        <ele>2802.86</ele>
        <time>2019-08-24T08:54:01Z</time>
      </trkpt>
      <trkpt lat="42.57017" lon="1.93372">
        <ele>2807.67</ele>
        <time>2019-08-24T08:54:37Z</time>
      </trkpt>
      <trkpt lat="42.57015" lon="1.93369">
        <ele>2811.03</ele>
        <time>2019-08-24T08:56:05Z</time>
      </trkpt>
      <trkpt lat="42.57009" lon="1.93367">
        <ele>2815.84</ele>
        <time>2019-08-24T08:56:41Z</time>
      </trkpt>
      <trkpt lat="42.57006" lon="1.93356">
        <ele>2823.53</ele>
        <time>2019-08-24T08:57:42Z</time>
      </trkpt>
      <trkpt lat="42.57006" lon="1.93344">
        <ele>2830.26</ele>
        <time>2019-08-24T08:58:39Z</time>
      </trkpt>
      <trkpt lat="42.57009" lon="1.93335">
        <ele>2836.99</ele>
        <time>2019-08-24T08:59:28Z</time>
      </trkpt>
      <trkpt lat="42.57013" lon="1.93323">
        <ele>2843.72</ele>
        <time>2019-08-24T09:00:42Z</time>
      </trkpt>
      <trkpt lat="42.57017" lon="1.93312">
        <ele>2846.6</ele>
        <time>2019-08-24T09:01:21Z</time>
      </trkpt>
      <trkpt lat="42.57017" lon="1.93296">
        <ele>2851.41</ele>
        <time>2019-08-24T09:01:53Z</time>
      </trkpt>
      <trkpt lat="42.5702" lon="1.93285">
        <ele>2855.73</ele>
        <time>2019-08-24T09:02:27Z</time>
      </trkpt>
      <trkpt lat="42.57022" lon="1.93279">
        <ele>2859.58</ele>
        <time>2019-08-24T09:03:22Z</time>
      </trkpt>
      <trkpt lat="42.57032" lon="1.93268">
        <ele>2862.94</ele>
        <time>2019-08-24T09:03:55Z</time>
      </trkpt>
      <trkpt lat="42.57035" lon="1.9326">
        <ele>2867.27</ele>
        <time>2019-08-24T09:04:29Z</time>
      </trkpt>
      <trkpt lat="42.5704" lon="1.93252">
        <ele>2871.11</ele>
        <time>2019-08-24T09:05:14Z</time>
      </trkpt>
      <trkpt lat="42.57043" lon="1.93245">
        <ele>2875.92</ele>
        <time>2019-08-24T09:05:44Z</time>
      </trkpt>
      <trkpt lat="42.57047" lon="1.93236">
        <ele>2880.25</ele>
        <time>2019-08-24T09:06:25Z</time>
      </trkpt>
      <trkpt lat="42.57045" lon="1.9323">
        <ele>2883.13</ele>
        <time>2019-08-24T09:06:43Z</time>
      </trkpt>
      <trkpt lat="42.57038" lon="1.93226">
        <ele>2888.42</ele>
        <time>2019-08-24T09:07:22Z</time>
      </trkpt>
      <trkpt lat="42.57041" lon="1.93216">
        <ele>2892.74</ele>
        <time>2019-08-24T09:08:02Z</time>
      </trkpt>
      <trkpt lat="42.57041" lon="1.93208">
        <ele>2898.51</ele>
        <time>2019-08-24T09:08:46Z</time>
      </trkpt>
      <trkpt lat="42.5704" lon="1.93199">
        <ele>2902.36</ele>
        <time>2019-08-24T09:09:14Z</time>
      </trkpt>
      <trkpt lat="42.57032" lon="1.93194">
        <ele>2907.65</ele>
        <time>2019-08-24T09:09:55Z</time>
      </trkpt>
      <trkpt lat="42.57025" lon="1.9319">
        <ele>2912.45</ele>
        <time>2019-08-24T09:10:31Z</time>
      </trkpt>
      <trkpt lat="42.57019" lon="1.93192">
        <ele>2915.34</ele>
        <time>2019-08-24T09:11:30Z</time>
      </trkpt>
      <trkpt lat="42.57016" lon="1.932">
        <ele>2912.45</ele>
        <time>2019-08-24T09:12:03Z</time>
      </trkpt>
      <trkpt lat="42.57009" lon="1.93205">
        <ele>2914.37</ele>
        <time>2019-08-24T09:12:17Z</time>
      </trkpt>
      <trkpt lat="42.57002" lon="1.93209">
        <ele>2917.26</ele>
        <time>2019-08-24T09:12:41Z</time>
      </trkpt>
      <trkpt lat="42.56993" lon="1.93216">
        <ele>2917.74</ele>
        <time>2019-08-24T09:13:05Z</time>
      </trkpt>
      <trkpt lat="42.56985" lon="1.93216">
        <ele>2918.7</ele>
        <time>2019-08-24T09:13:31Z</time>
      </trkpt>
      <trkpt lat="42.56987" lon="1.93209">
        <ele>2922.06</ele>
        <time>2019-08-24T09:17:41Z</time>
      </trkpt>
      <trkpt lat="42.56985" lon="1.93213">
        <ele>2920.14</ele>
        <time>2019-08-24T09:20:30Z</time>
      </trkpt>
      <trkpt lat="42.56991" lon="1.93218">
        <ele>2918.22</ele>
        <time>2019-08-24T09:21:40Z</time>
      </trkpt>
      <trkpt lat="42.56998" lon="1.93212">
        <ele>2916.78</ele>
        <time>2019-08-24T09:22:07Z</time>
      </trkpt>
      <trkpt lat="42.57007" lon="1.93207">
        <ele>2915.34</ele>
        <time>2019-08-24T09:22:23Z</time>
      </trkpt>
      <trkpt lat="42.57013" lon="1.93198">
        <ele>2913.89</ele>
        <time>2019-08-24T09:22:39Z</time>
      </trkpt>
      <trkpt lat="42.57021" lon="1.93193">
        <ele>2913.89</ele>
        <time>2019-08-24T09:22:55Z</time>
      </trkpt>
      <trkpt lat="42.57029" lon="1.93187">
        <ele>2912.93</ele>
        <time>2019-08-24T09:23:27Z</time>
      </trkpt>
      <trkpt lat="42.57037" lon="1.93187">
        <ele>2910.05</ele>
        <time>2019-08-24T09:23:54Z</time>
      </trkpt>
      <trkpt lat="42.57046" lon="1.93187">
        <ele>2907.65</ele>
        <time>2019-08-24T09:24:19Z</time>
      </trkpt>
      <trkpt lat="42.57053" lon="1.93188">
        <ele>2908.61</ele>
        <time>2019-08-24T09:24:33Z</time>
      </trkpt>
      <trkpt lat="42.57057" lon="1.93183">
        <ele>2911.97</ele>
        <time>2019-08-24T09:24:51Z</time>
      </trkpt>
      <trkpt lat="42.57065" lon="1.93178">
        <ele>2913.89</ele>
        <time>2019-08-24T09:25:13Z</time>
      </trkpt>
      <trkpt lat="42.5707" lon="1.9317">
        <ele>2914.37</ele>
        <time>2019-08-24T09:25:44Z</time>
      </trkpt>
      <trkpt lat="42.57079" lon="1.93164">
        <ele>2913.41</ele>
        <time>2019-08-24T09:25:57Z</time>
      </trkpt>
      <trkpt lat="42.57086" lon="1.93161">
        <ele>2913.89</ele>
        <time>2019-08-24T09:26:35Z</time>
      </trkpt>
      <trkpt lat="42.57084" lon="1.93162">
        <ele>2913.89</ele>
        <time>2019-08-24T09:28:48Z</time>
      </trkpt>
      <trkpt lat="42.57078" lon="1.93168">
        <ele>2913.89</ele>
        <time>2019-08-24T09:29:05Z</time>
      </trkpt>
      <trkpt lat="42.57072" lon="1.93176">
        <ele>2913.89</ele>
        <time>2019-08-24T09:29:18Z</time>
      </trkpt>
      <trkpt lat="42.57069" lon="1.93188">
        <ele>2913.89</ele>
        <time>2019-08-24T09:29:31Z</time>
      </trkpt>
      <trkpt lat="42.57072" lon="1.93195">
        <ele>2911.97</ele>
        <time>2019-08-24T09:30:42Z</time>
      </trkpt>
      <trkpt lat="42.57064" lon="1.93193">
        <ele>2912.93</ele>
        <time>2019-08-24T09:31:22Z</time>
      </trkpt>
      <trkpt lat="42.57058" lon="1.93194">
        <ele>2910.05</ele>
        <time>2019-08-24T09:31:40Z</time>
      </trkpt>
      <trkpt lat="42.57053" lon="1.93199">
        <ele>2906.68</ele>
        <time>2019-08-24T09:31:57Z</time>
      </trkpt>
      <trkpt lat="42.57047" lon="1.93204">
        <ele>2903.8</ele>
        <time>2019-08-24T09:32:13Z</time>
      </trkpt>
      <trkpt lat="42.57052" lon="1.93215">
        <ele>2899.95</ele>
        <time>2019-08-24T09:32:43Z</time>
      </trkpt>
      <trkpt lat="42.57052" lon="1.93226">
        <ele>2894.67</ele>
        <time>2019-08-24T09:33:09Z</time>
      </trkpt>
      <trkpt lat="42.57046" lon="1.93232">
        <ele>2889.38</ele>
        <time>2019-08-24T09:33:57Z</time>
      </trkpt>
      <trkpt lat="42.57049" lon="1.93243">
        <ele>2885.53</ele>
        <time>2019-08-24T09:34:30Z</time>
      </trkpt>
      <trkpt lat="42.57044" lon="1.93251">
        <ele>2881.69</ele>
        <time>2019-08-24T09:34:55Z</time>
      </trkpt>
      <trkpt lat="42.5704" lon="1.93256">
        <ele>2877.36</ele>
        <time>2019-08-24T09:35:21Z</time>
      </trkpt>
      <trkpt lat="42.57038" lon="1.93265">
        <ele>2873.04</ele>
        <time>2019-08-24T09:35:57Z</time>
      </trkpt>
      <trkpt lat="42.57028" lon="1.93271">
        <ele>2870.15</ele>
        <time>2019-08-24T09:36:33Z</time>
      </trkpt>
      <trkpt lat="42.57025" lon="1.93276">
        <ele>2870.63</ele>
        <time>2019-08-24T09:36:52Z</time>
      </trkpt>
      <trkpt lat="42.57027" lon="1.93278">
        <ele>2865.83</ele>
        <time>2019-08-24T09:37:25Z</time>
      </trkpt>
      <trkpt lat="42.57022" lon="1.93288">
        <ele>2863.42</ele>
        <time>2019-08-24T09:37:51Z</time>
      </trkpt>
      <trkpt lat="42.57023" lon="1.93292">
        <ele>2859.1</ele>
        <time>2019-08-24T09:38:16Z</time>
      </trkpt>
      <trkpt lat="42.5702" lon="1.93303">
        <ele>2856.69</ele>
        <time>2019-08-24T09:38:40Z</time>
      </trkpt>
      <trkpt lat="42.57019" lon="1.9331">
        <ele>2853.33</ele>
        <time>2019-08-24T09:39:07Z</time>
      </trkpt>
      <trkpt lat="42.57019" lon="1.93319">
        <ele>2850.93</ele>
        <time>2019-08-24T09:39:27Z</time>
      </trkpt>
      <trkpt lat="42.57014" lon="1.93327">
        <ele>2851.89</ele>
        <time>2019-08-24T09:39:59Z</time>
      </trkpt>
      <trkpt lat="42.57009" lon="1.93338">
        <ele>2844.68</ele>
        <time>2019-08-24T09:42:05Z</time>
      </trkpt>
      <trkpt lat="42.57007" lon="1.93348">
        <ele>2839.39</ele>
        <time>2019-08-24T09:42:56Z</time>
      </trkpt>
      <trkpt lat="42.57007" lon="1.93354">
        <ele>2835.06</ele>
        <time>2019-08-24T09:43:44Z</time>
      </trkpt>
      <trkpt lat="42.57009" lon="1.93364">
        <ele>2831.22</ele>
        <time>2019-08-24T09:44:09Z</time>
      </trkpt>
      <trkpt lat="42.57009" lon="1.93374">
        <ele>2826.89</ele>
        <time>2019-08-24T09:44:52Z</time>
      </trkpt>
      <trkpt lat="42.57016" lon="1.93376">
        <ele>2821.61</ele>
        <time>2019-08-24T09:45:37Z</time>
      </trkpt>
      <trkpt lat="42.57016" lon="1.93382">
        <ele>2817.28</ele>
        <time>2019-08-24T09:46:07Z</time>
      </trkpt>
      <trkpt lat="42.57016" lon="1.9339">
        <ele>2812.96</ele>
        <time>2019-08-24T09:46:38Z</time>
      </trkpt>
      <trkpt lat="42.57007" lon="1.93396">
        <ele>2811.03</ele>
        <time>2019-08-24T09:46:51Z</time>
      </trkpt>
      <trkpt lat="42.57" lon="1.93405">
        <ele>2808.63</ele>
        <time>2019-08-24T09:47:09Z</time>
      </trkpt>
      <trkpt lat="42.56991" lon="1.93408">
        <ele>2809.59</ele>
        <time>2019-08-24T09:47:26Z</time>
      </trkpt>
      <trkpt lat="42.56983" lon="1.93415">
        <ele>2808.63</ele>
        <time>2019-08-24T09:47:41Z</time>
      </trkpt>
      <trkpt lat="42.56978" lon="1.93419">
        <ele>2805.75</ele>
        <time>2019-08-24T09:48:02Z</time>
      </trkpt>
      <trkpt lat="42.56974" lon="1.9343">
        <ele>2804.3</ele>
        <time>2019-08-24T09:48:17Z</time>
      </trkpt>
      <trkpt lat="42.56969" lon="1.93438">
        <ele>2803.34</ele>
        <time>2019-08-24T09:48:33Z</time>
      </trkpt>
      <trkpt lat="42.56964" lon="1.93449">
        <ele>2800.94</ele>
        <time>2019-08-24T09:48:46Z</time>
      </trkpt>
      <trkpt lat="42.5696" lon="1.9346">
        <ele>2799.98</ele>
        <time>2019-08-24T09:49:07Z</time>
      </trkpt>
      <trkpt lat="42.56955" lon="1.93461">
        <ele>2800.94</ele>
        <time>2019-08-24T09:49:49Z</time>
      </trkpt>
      <trkpt lat="42.56953" lon="1.93468">
        <ele>2799.5</ele>
        <time>2019-08-24T09:51:06Z</time>
      </trkpt>
      <trkpt lat="42.56953" lon="1.9348">
        <ele>2797.09</ele>
        <time>2019-08-24T09:52:03Z</time>
      </trkpt>
      <trkpt lat="42.5695" lon="1.93491">
        <ele>2794.21</ele>
        <time>2019-08-24T09:52:24Z</time>
      </trkpt>
      <trkpt lat="42.56948" lon="1.93493">
        <ele>2793.73</ele>
        <time>2019-08-24T09:52:56Z</time>
      </trkpt>
      <trkpt lat="42.56951" lon="1.9348">
        <ele>2795.17</ele>
        <time>2019-08-24T09:53:12Z</time>
      </trkpt>
      <trkpt lat="42.56951" lon="1.93473">
        <ele>2796.61</ele>
        <time>2019-08-24T10:10:21Z</time>
      </trkpt>
      <trkpt lat="42.56953" lon="1.93475">
        <ele>2799.98</ele>
        <time>2019-08-24T10:24:44Z</time>
      </trkpt>
      <trkpt lat="42.56957" lon="1.93478">
        <ele>2797.09</ele>
        <time>2019-08-24T10:25:08Z</time>
      </trkpt>
      <trkpt lat="42.56962" lon="1.93484">
        <ele>2793.25</ele>
        <time>2019-08-24T10:25:35Z</time>
      </trkpt>
      <trkpt lat="42.56964" lon="1.93496">
        <ele>2788.92</ele>
        <time>2019-08-24T10:25:55Z</time>
      </trkpt>
      <trkpt lat="42.56966" lon="1.93507">
        <ele>2786.04</ele>
        <time>2019-08-24T10:26:08Z</time>
      </trkpt>
      <trkpt lat="42.5697" lon="1.93517">
        <ele>2784.12</ele>
        <time>2019-08-24T10:26:23Z</time>
      </trkpt>
      <trkpt lat="42.56971" lon="1.9353">
        <ele>2780.75</ele>
        <time>2019-08-24T10:26:37Z</time>
      </trkpt>
      <trkpt lat="42.5697" lon="1.93542">
        <ele>2779.79</ele>
        <time>2019-08-24T10:26:51Z</time>
      </trkpt>
      <trkpt lat="42.56967" lon="1.93551">
        <ele>2775.94</ele>
        <time>2019-08-24T10:27:07Z</time>
      </trkpt>
      <trkpt lat="42.56971" lon="1.93556">
        <ele>2772.1</ele>
        <time>2019-08-24T10:27:27Z</time>
      </trkpt>
      <trkpt lat="42.56976" lon="1.93564">
        <ele>2768.73</ele>
        <time>2019-08-24T10:27:49Z</time>
      </trkpt>
      <trkpt lat="42.56973" lon="1.93576">
        <ele>2765.37</ele>
        <time>2019-08-24T10:28:09Z</time>
      </trkpt>
      <trkpt lat="42.56975" lon="1.93584">
        <ele>2761.52</ele>
        <time>2019-08-24T10:28:31Z</time>
      </trkpt>
      <trkpt lat="42.56969" lon="1.93593">
        <ele>2759.12</ele>
        <time>2019-08-24T10:28:48Z</time>
      </trkpt>
      <trkpt lat="42.56969" lon="1.93602">
        <ele>2757.2</ele>
        <time>2019-08-24T10:29:05Z</time>
      </trkpt>
      <trkpt lat="42.56966" lon="1.9361">
        <ele>2752.87</ele>
        <time>2019-08-24T10:29:25Z</time>
      </trkpt>
      <trkpt lat="42.56963" lon="1.93615">
        <ele>2748.07</ele>
        <time>2019-08-24T10:29:52Z</time>
      </trkpt>
      <trkpt lat="42.56956" lon="1.93613">
        <ele>2743.74</ele>
        <time>2019-08-24T10:30:25Z</time>
      </trkpt>
      <trkpt lat="42.56958" lon="1.93623">
        <ele>2739.41</ele>
        <time>2019-08-24T10:30:45Z</time>
      </trkpt>
      <trkpt lat="42.56957" lon="1.93632">
        <ele>2735.57</ele>
        <time>2019-08-24T10:31:04Z</time>
      </trkpt>
      <trkpt lat="42.5696" lon="1.93643">
        <ele>2731.72</ele>
        <time>2019-08-24T10:31:21Z</time>
      </trkpt>
      <trkpt lat="42.56965" lon="1.93653">
        <ele>2729.8</ele>
        <time>2019-08-24T10:31:37Z</time>
      </trkpt>
      <trkpt lat="42.56962" lon="1.93659">
        <ele>2726.92</ele>
        <time>2019-08-24T10:31:51Z</time>
      </trkpt>
      <trkpt lat="42.56964" lon="1.93665">
        <ele>2724.03</ele>
        <time>2019-08-24T10:32:07Z</time>
      </trkpt>
      <trkpt lat="42.56964" lon="1.93673">
        <ele>2721.15</ele>
        <time>2019-08-24T10:32:22Z</time>
      </trkpt>
      <trkpt lat="42.56961" lon="1.93681">
        <ele>2718.27</ele>
        <time>2019-08-24T10:32:40Z</time>
      </trkpt>
      <trkpt lat="42.56967" lon="1.9369">
        <ele>2714.9</ele>
        <time>2019-08-24T10:32:58Z</time>
      </trkpt>
      <trkpt lat="42.56967" lon="1.937">
        <ele>2712.02</ele>
        <time>2019-08-24T10:33:13Z</time>
      </trkpt>
      <trkpt lat="42.56959" lon="1.93709">
        <ele>2708.65</ele>
        <time>2019-08-24T10:33:26Z</time>
      </trkpt>
      <trkpt lat="42.56961" lon="1.93715">
        <ele>2706.73</ele>
        <time>2019-08-24T10:33:40Z</time>
      </trkpt>
      <trkpt lat="42.56967" lon="1.93724">
        <ele>2702.4</ele>
        <time>2019-08-24T10:33:55Z</time>
      </trkpt>
      <trkpt lat="42.56962" lon="1.93736">
        <ele>2698.56</ele>
        <time>2019-08-24T10:34:08Z</time>
      </trkpt>
      <trkpt lat="42.56971" lon="1.93743">
        <ele>2695.19</ele>
        <time>2019-08-24T10:34:20Z</time>
      </trkpt>
      <trkpt lat="42.5697" lon="1.93755">
        <ele>2692.79</ele>
        <time>2019-08-24T10:34:40Z</time>
      </trkpt>
      <trkpt lat="42.5697" lon="1.93761">
        <ele>2689.43</ele>
        <time>2019-08-24T10:34:53Z</time>
      </trkpt>
      <trkpt lat="42.56975" lon="1.93772">
        <ele>2686.54</ele>
        <time>2019-08-24T10:35:07Z</time>
      </trkpt>
      <trkpt lat="42.5697" lon="1.93784">
        <ele>2684.62</ele>
        <time>2019-08-24T10:35:19Z</time>
      </trkpt>
      <trkpt lat="42.56978" lon="1.93789">
        <ele>2682.7</ele>
        <time>2019-08-24T10:35:30Z</time>
      </trkpt>
      <trkpt lat="42.56983" lon="1.938">
        <ele>2680.29</ele>
        <time>2019-08-24T10:35:40Z</time>
      </trkpt>
      <trkpt lat="42.56978" lon="1.93814">
        <ele>2677.41</ele>
        <time>2019-08-24T10:35:51Z</time>
      </trkpt>
      <trkpt lat="42.56983" lon="1.93819">
        <ele>2674.52</ele>
        <time>2019-08-24T10:36:02Z</time>
      </trkpt>
      <trkpt lat="42.56985" lon="1.93827">
        <ele>2673.08</ele>
        <time>2019-08-24T10:36:17Z</time>
      </trkpt>
      <trkpt lat="42.56986" lon="1.93832">
        <ele>2670.68</ele>
        <time>2019-08-24T10:36:30Z</time>
      </trkpt>
      <trkpt lat="42.56989" lon="1.93845">
        <ele>2667.31</ele>
        <time>2019-08-24T10:36:45Z</time>
      </trkpt>
      <trkpt lat="42.56983" lon="1.93858">
        <ele>2663.95</ele>
        <time>2019-08-24T10:37:00Z</time>
      </trkpt>
      <trkpt lat="42.56981" lon="1.93865">
        <ele>2661.07</ele>
        <time>2019-08-24T10:37:15Z</time>
      </trkpt>
      <trkpt lat="42.56986" lon="1.93869">
        <ele>2657.7</ele>
        <time>2019-08-24T10:37:29Z</time>
      </trkpt>
      <trkpt lat="42.56988" lon="1.93879">
        <ele>2654.34</ele>
        <time>2019-08-24T10:37:43Z</time>
      </trkpt>
      <trkpt lat="42.56991" lon="1.93888">
        <ele>2652.9</ele>
        <time>2019-08-24T10:37:57Z</time>
      </trkpt>
      <trkpt lat="42.56991" lon="1.93901">
        <ele>2650.01</ele>
        <time>2019-08-24T10:38:11Z</time>
      </trkpt>
      <trkpt lat="42.5699" lon="1.93913">
        <ele>2647.13</ele>
        <time>2019-08-24T10:38:25Z</time>
      </trkpt>
      <trkpt lat="42.56994" lon="1.93923">
        <ele>2643.76</ele>
        <time>2019-08-24T10:38:40Z</time>
      </trkpt>
      <trkpt lat="42.57" lon="1.93926">
        <ele>2641.36</ele>
        <time>2019-08-24T10:38:55Z</time>
      </trkpt>
      <trkpt lat="42.57" lon="1.93934">
        <ele>2637.51</ele>
        <time>2019-08-24T10:39:10Z</time>
      </trkpt>
      <trkpt lat="42.57005" lon="1.93943">
        <ele>2633.67</ele>
        <time>2019-08-24T10:39:26Z</time>
      </trkpt>
      <trkpt lat="42.57005" lon="1.93957">
        <ele>2630.3</ele>
        <time>2019-08-24T10:39:43Z</time>
      </trkpt>
      <trkpt lat="42.57008" lon="1.93969">
        <ele>2627.42</ele>
        <time>2019-08-24T10:39:56Z</time>
      </trkpt>
      <trkpt lat="42.57013" lon="1.93976">
        <ele>2623.58</ele>
        <time>2019-08-24T10:40:14Z</time>
      </trkpt>
      <trkpt lat="42.57019" lon="1.93983">
        <ele>2619.73</ele>
        <time>2019-08-24T10:40:29Z</time>
      </trkpt>
      <trkpt lat="42.57022" lon="1.93996">
        <ele>2617.81</ele>
        <time>2019-08-24T10:40:44Z</time>
      </trkpt>
      <trkpt lat="42.57029" lon="1.93996">
        <ele>2616.37</ele>
        <time>2019-08-24T10:40:58Z</time>
      </trkpt>
      <trkpt lat="42.57028" lon="1.93995">
        <ele>2614.92</ele>
        <time>2019-08-24T10:42:13Z</time>
      </trkpt>
      <trkpt lat="42.57036" lon="1.94002">
        <ele>2612.04</ele>
        <time>2019-08-24T10:42:29Z</time>
      </trkpt>
      <trkpt lat="42.5704" lon="1.93993">
        <ele>2610.12</ele>
        <time>2019-08-24T10:42:43Z</time>
      </trkpt>
      <trkpt lat="42.57041" lon="1.93994">
        <ele>2610.6</ele>
        <time>2019-08-24T10:42:59Z</time>
      </trkpt>
      <trkpt lat="42.57045" lon="1.94004">
        <ele>2610.6</ele>
        <time>2019-08-24T10:43:18Z</time>
      </trkpt>
      <trkpt lat="42.57043" lon="1.9401">
        <ele>2610.12</ele>
        <time>2019-08-24T10:43:38Z</time>
      </trkpt>
      <trkpt lat="42.57046" lon="1.94021">
        <ele>2608.67</ele>
        <time>2019-08-24T10:43:53Z</time>
      </trkpt>
      <trkpt lat="42.57049" lon="1.94032">
        <ele>2605.79</ele>
        <time>2019-08-24T10:44:05Z</time>
      </trkpt>
      <trkpt lat="42.57048" lon="1.94043">
        <ele>2602.43</ele>
        <time>2019-08-24T10:44:25Z</time>
      </trkpt>
      <trkpt lat="42.5705" lon="1.94053">
        <ele>2599.06</ele>
        <time>2019-08-24T10:44:41Z</time>
      </trkpt>
      <trkpt lat="42.57047" lon="1.94063">
        <ele>2595.22</ele>
        <time>2019-08-24T10:44:55Z</time>
      </trkpt>
      <trkpt lat="42.57051" lon="1.94073">
        <ele>2592.33</ele>
        <time>2019-08-24T10:45:07Z</time>
      </trkpt>
      <trkpt lat="42.5705" lon="1.94085">
        <ele>2588.49</ele>
        <time>2019-08-24T10:45:20Z</time>
      </trkpt>
      <trkpt lat="42.57048" lon="1.94095">
        <ele>2583.68</ele>
        <time>2019-08-24T10:45:48Z</time>
      </trkpt>
      <trkpt lat="42.57049" lon="1.94108">
        <ele>2581.76</ele>
        <time>2019-08-24T10:46:04Z</time>
      </trkpt>
      <trkpt lat="42.57051" lon="1.94118">
        <ele>2580.32</ele>
        <time>2019-08-24T10:46:16Z</time>
      </trkpt>
      <trkpt lat="42.57052" lon="1.94127">
        <ele>2577.43</ele>
        <time>2019-08-24T10:46:29Z</time>
      </trkpt>
      <trkpt lat="42.57046" lon="1.94136">
        <ele>2574.55</ele>
        <time>2019-08-24T10:46:43Z</time>
      </trkpt>
      <trkpt lat="42.57049" lon="1.94141">
        <ele>2572.63</ele>
        <time>2019-08-24T10:46:56Z</time>
      </trkpt>
      <trkpt lat="42.57045" lon="1.94152">
        <ele>2568.3</ele>
        <time>2019-08-24T10:47:11Z</time>
      </trkpt>
      <trkpt lat="42.57045" lon="1.94161">
        <ele>2564.93</ele>
        <time>2019-08-24T10:47:29Z</time>
      </trkpt>
      <trkpt lat="42.5704" lon="1.94171">
        <ele>2562.05</ele>
        <time>2019-08-24T10:47:40Z</time>
      </trkpt>
      <trkpt lat="42.57038" lon="1.94183">
        <ele>2561.57</ele>
        <time>2019-08-24T10:47:50Z</time>
      </trkpt>
      <trkpt lat="42.57036" lon="1.94194">
        <ele>2559.17</ele>
        <time>2019-08-24T10:48:00Z</time>
      </trkpt>
      <trkpt lat="42.57035" lon="1.94205">
        <ele>2556.76</ele>
        <time>2019-08-24T10:48:18Z</time>
      </trkpt>
      <trkpt lat="42.57036" lon="1.94215">
        <ele>2553.88</ele>
        <time>2019-08-24T10:48:34Z</time>
      </trkpt>
      <trkpt lat="42.57037" lon="1.94229">
        <ele>2552.44</ele>
        <time>2019-08-24T10:48:48Z</time>
      </trkpt>
      <trkpt lat="42.57038" lon="1.9424">
        <ele>2548.11</ele>
        <time>2019-08-24T10:49:03Z</time>
      </trkpt>
      <trkpt lat="42.57035" lon="1.94251">
        <ele>2545.23</ele>
        <time>2019-08-24T10:49:18Z</time>
      </trkpt>
      <trkpt lat="42.57028" lon="1.94258">
        <ele>2542.34</ele>
        <time>2019-08-24T10:49:34Z</time>
      </trkpt>
      <trkpt lat="42.57028" lon="1.94264">
        <ele>2538.5</ele>
        <time>2019-08-24T10:49:58Z</time>
      </trkpt>
      <trkpt lat="42.57025" lon="1.94275">
        <ele>2533.69</ele>
        <time>2019-08-24T10:50:18Z</time>
      </trkpt>
      <trkpt lat="42.5702" lon="1.94281">
        <ele>2530.33</ele>
        <time>2019-08-24T10:50:33Z</time>
      </trkpt>
      <trkpt lat="42.57016" lon="1.94289">
        <ele>2527.44</ele>
        <time>2019-08-24T10:50:48Z</time>
      </trkpt>
      <trkpt lat="42.57016" lon="1.94298">
        <ele>2524.08</ele>
        <time>2019-08-24T10:51:02Z</time>
      </trkpt>
      <trkpt lat="42.57011" lon="1.94308">
        <ele>2521.19</ele>
        <time>2019-08-24T10:51:18Z</time>
      </trkpt>
      <trkpt lat="42.57009" lon="1.94318">
        <ele>2518.31</ele>
        <time>2019-08-24T10:51:32Z</time>
      </trkpt>
      <trkpt lat="42.57008" lon="1.94328">
        <ele>2515.91</ele>
        <time>2019-08-24T10:51:46Z</time>
      </trkpt>
      <trkpt lat="42.57008" lon="1.94342">
        <ele>2511.58</ele>
        <time>2019-08-24T10:52:02Z</time>
      </trkpt>
      <trkpt lat="42.57004" lon="1.94353">
        <ele>2508.22</ele>
        <time>2019-08-24T10:52:17Z</time>
      </trkpt>
      <trkpt lat="42.57003" lon="1.94365">
        <ele>2504.85</ele>
        <time>2019-08-24T10:52:32Z</time>
      </trkpt>
      <trkpt lat="42.57005" lon="1.94379">
        <ele>2502.45</ele>
        <time>2019-08-24T10:52:48Z</time>
      </trkpt>
      <trkpt lat="42.57006" lon="1.9439">
        <ele>2500.53</ele>
        <time>2019-08-24T10:52:58Z</time>
      </trkpt>
      <trkpt lat="42.57006" lon="1.94402">
        <ele>2499.08</ele>
        <time>2019-08-24T10:53:12Z</time>
      </trkpt>
      <trkpt lat="42.57007" lon="1.94412">
        <ele>2496.2</ele>
        <time>2019-08-24T10:53:28Z</time>
      </trkpt>
      <trkpt lat="42.57011" lon="1.94422">
        <ele>2493.8</ele>
        <time>2019-08-24T10:53:45Z</time>
      </trkpt>
      <trkpt lat="42.57014" lon="1.94432">
        <ele>2490.91</ele>
        <time>2019-08-24T10:54:01Z</time>
      </trkpt>
      <trkpt lat="42.57021" lon="1.94443">
        <ele>2487.55</ele>
        <time>2019-08-24T10:54:16Z</time>
      </trkpt>
      <trkpt lat="42.57025" lon="1.94452">
        <ele>2483.7</ele>
        <time>2019-08-24T10:54:34Z</time>
      </trkpt>
      <trkpt lat="42.5703" lon="1.94462">
        <ele>2479.86</ele>
        <time>2019-08-24T10:54:55Z</time>
      </trkpt>
      <trkpt lat="42.57037" lon="1.94469">
        <ele>2476.97</ele>
        <time>2019-08-24T10:55:09Z</time>
      </trkpt>
      <trkpt lat="42.57042" lon="1.94481">
        <ele>2472.65</ele>
        <time>2019-08-24T10:55:23Z</time>
      </trkpt>
      <trkpt lat="42.57045" lon="1.94491">
        <ele>2470.73</ele>
        <time>2019-08-24T10:55:35Z</time>
      </trkpt>
      <trkpt lat="42.57046" lon="1.94504">
        <ele>2467.84</ele>
        <time>2019-08-24T10:55:45Z</time>
      </trkpt>
      <trkpt lat="42.57047" lon="1.94515">
        <ele>2466.88</ele>
        <time>2019-08-24T10:55:57Z</time>
      </trkpt>
      <trkpt lat="42.5705" lon="1.94528">
        <ele>2463.52</ele>
        <time>2019-08-24T10:56:08Z</time>
      </trkpt>
      <trkpt lat="42.57057" lon="1.94537">
        <ele>2461.59</ele>
        <time>2019-08-24T10:56:19Z</time>
      </trkpt>
      <trkpt lat="42.57065" lon="1.94543">
        <ele>2458.71</ele>
        <time>2019-08-24T10:56:31Z</time>
      </trkpt>
      <trkpt lat="42.57074" lon="1.9455">
        <ele>2456.31</ele>
        <time>2019-08-24T10:56:42Z</time>
      </trkpt>
      <trkpt lat="42.57083" lon="1.94556">
        <ele>2455.34</ele>
        <time>2019-08-24T10:56:51Z</time>
      </trkpt>
      <trkpt lat="42.57087" lon="1.94569">
        <ele>2454.38</ele>
        <time>2019-08-24T10:57:02Z</time>
      </trkpt>
      <trkpt lat="42.5709" lon="1.94582">
        <ele>2453.42</ele>
        <time>2019-08-24T10:57:20Z</time>
      </trkpt>
      <trkpt lat="42.57093" lon="1.94593">
        <ele>2452.46</ele>
        <time>2019-08-24T10:57:31Z</time>
      </trkpt>
      <trkpt lat="42.5709" lon="1.94602">
        <ele>2451.5</ele>
        <time>2019-08-24T10:57:42Z</time>
      </trkpt>
      <trkpt lat="42.5709" lon="1.94616">
        <ele>2448.62</ele>
        <time>2019-08-24T10:57:56Z</time>
      </trkpt>
      <trkpt lat="42.57093" lon="1.94628">
        <ele>2447.65</ele>
        <time>2019-08-24T10:58:09Z</time>
      </trkpt>
      <trkpt lat="42.57097" lon="1.94639">
        <ele>2446.69</ele>
        <time>2019-08-24T10:58:21Z</time>
      </trkpt>
      <trkpt lat="42.57097" lon="1.94653">
        <ele>2445.73</ele>
        <time>2019-08-24T10:58:33Z</time>
      </trkpt>
      <trkpt lat="42.57096" lon="1.94665">
        <ele>2444.77</ele>
        <time>2019-08-24T10:58:43Z</time>
      </trkpt>
      <trkpt lat="42.57094" lon="1.94677">
        <ele>2442.85</ele>
        <time>2019-08-24T10:58:55Z</time>
      </trkpt>
      <trkpt lat="42.57094" lon="1.94689">
        <ele>2440.92</ele>
        <time>2019-08-24T10:59:04Z</time>
      </trkpt>
      <trkpt lat="42.57093" lon="1.94701">
        <ele>2438.52</ele>
        <time>2019-08-24T10:59:13Z</time>
      </trkpt>
      <trkpt lat="42.57097" lon="1.94711">
        <ele>2436.6</ele>
        <time>2019-08-24T10:59:27Z</time>
      </trkpt>
      <trkpt lat="42.57101" lon="1.9472">
        <ele>2435.16</ele>
        <time>2019-08-24T10:59:40Z</time>
      </trkpt>
      <trkpt lat="42.57107" lon="1.94731">
        <ele>2434.68</ele>
        <time>2019-08-24T10:59:54Z</time>
      </trkpt>
      <trkpt lat="42.57111" lon="1.94738">
        <ele>2434.2</ele>
        <time>2019-08-24T11:00:06Z</time>
      </trkpt>
      <trkpt lat="42.57113" lon="1.94754">
        <ele>2432.75</ele>
        <time>2019-08-24T11:00:18Z</time>
      </trkpt>
      <trkpt lat="42.57108" lon="1.94757">
        <ele>2433.23</ele>
        <time>2019-08-24T11:02:29Z</time>
      </trkpt>
      <trkpt lat="42.57114" lon="1.94765">
        <ele>2433.23</ele>
        <time>2019-08-24T11:03:19Z</time>
      </trkpt>
      <trkpt lat="42.57124" lon="1.94768">
        <ele>2430.35</ele>
        <time>2019-08-24T11:03:33Z</time>
      </trkpt>
      <trkpt lat="42.57129" lon="1.94781">
        <ele>2428.91</ele>
        <time>2019-08-24T11:03:44Z</time>
      </trkpt>
      <trkpt lat="42.57122" lon="1.94793">
        <ele>2427.95</ele>
        <time>2019-08-24T11:03:56Z</time>
      </trkpt>
      <trkpt lat="42.57124" lon="1.94802">
        <ele>2425.06</ele>
        <time>2019-08-24T11:04:09Z</time>
      </trkpt>
      <trkpt lat="42.57126" lon="1.94814">
        <ele>2423.14</ele>
        <time>2019-08-24T11:04:22Z</time>
      </trkpt>
      <trkpt lat="42.57125" lon="1.94827">
        <ele>2422.66</ele>
        <time>2019-08-24T11:04:33Z</time>
      </trkpt>
      <trkpt lat="42.57125" lon="1.94842">
        <ele>2422.66</ele>
        <time>2019-08-24T11:04:44Z</time>
      </trkpt>
      <trkpt lat="42.57123" lon="1.94854">
        <ele>2422.18</ele>
        <time>2019-08-24T11:04:54Z</time>
      </trkpt>
      <trkpt lat="42.57127" lon="1.94866">
        <ele>2421.22</ele>
        <time>2019-08-24T11:05:06Z</time>
      </trkpt>
      <trkpt lat="42.57134" lon="1.94873">
        <ele>2421.22</ele>
        <time>2019-08-24T11:05:18Z</time>
      </trkpt>
      <trkpt lat="42.57139" lon="1.9488">
        <ele>2419.78</ele>
        <time>2019-08-24T11:05:30Z</time>
      </trkpt>
      <trkpt lat="42.57148" lon="1.94883">
        <ele>2417.37</ele>
        <time>2019-08-24T11:05:44Z</time>
      </trkpt>
      <trkpt lat="42.57153" lon="1.94895">
        <ele>2414.01</ele>
        <time>2019-08-24T11:05:55Z</time>
      </trkpt>
      <trkpt lat="42.57161" lon="1.949">
        <ele>2411.12</ele>
        <time>2019-08-24T11:06:07Z</time>
      </trkpt>
      <trkpt lat="42.57168" lon="1.9491">
        <ele>2408.72</ele>
        <time>2019-08-24T11:06:17Z</time>
      </trkpt>
      <trkpt lat="42.57166" lon="1.94923">
        <ele>2407.76</ele>
        <time>2019-08-24T11:06:25Z</time>
      </trkpt>
      <trkpt lat="42.57166" lon="1.94935">
        <ele>2409.2</ele>
        <time>2019-08-24T11:06:34Z</time>
      </trkpt>
      <trkpt lat="42.57166" lon="1.94947">
        <ele>2408.72</ele>
        <time>2019-08-24T11:06:45Z</time>
      </trkpt>
      <trkpt lat="42.57168" lon="1.94957">
        <ele>2406.8</ele>
        <time>2019-08-24T11:06:59Z</time>
      </trkpt>
      <trkpt lat="42.57165" lon="1.94965">
        <ele>2403.91</ele>
        <time>2019-08-24T11:07:14Z</time>
      </trkpt>
      <trkpt lat="42.5717" lon="1.94972">
        <ele>2401.03</ele>
        <time>2019-08-24T11:07:29Z</time>
      </trkpt>
      <trkpt lat="42.57178" lon="1.94976">
        <ele>2399.11</ele>
        <time>2019-08-24T11:07:41Z</time>
      </trkpt>
      <trkpt lat="42.57179" lon="1.94988">
        <ele>2397.67</ele>
        <time>2019-08-24T11:07:52Z</time>
      </trkpt>
      <trkpt lat="42.57178" lon="1.95001">
        <ele>2394.78</ele>
        <time>2019-08-24T11:08:14Z</time>
      </trkpt>
      <trkpt lat="42.57178" lon="1.95015">
        <ele>2392.86</ele>
        <time>2019-08-24T11:08:28Z</time>
      </trkpt>
      <trkpt lat="42.57174" lon="1.95025">
        <ele>2391.9</ele>
        <time>2019-08-24T11:08:38Z</time>
      </trkpt>
      <trkpt lat="42.57171" lon="1.95038">
        <ele>2390.94</ele>
        <time>2019-08-24T11:08:48Z</time>
      </trkpt>
      <trkpt lat="42.57166" lon="1.95049">
        <ele>2388.53</ele>
        <time>2019-08-24T11:08:58Z</time>
      </trkpt>
      <trkpt lat="42.57163" lon="1.95062">
        <ele>2387.09</ele>
        <time>2019-08-24T11:09:08Z</time>
      </trkpt>
      <trkpt lat="42.5716" lon="1.95073">
        <ele>2385.65</ele>
        <time>2019-08-24T11:09:18Z</time>
      </trkpt>
      <trkpt lat="42.57157" lon="1.95086">
        <ele>2384.21</ele>
        <time>2019-08-24T11:09:27Z</time>
      </trkpt>
      <trkpt lat="42.57154" lon="1.95097">
        <ele>2384.21</ele>
        <time>2019-08-24T11:09:37Z</time>
      </trkpt>
      <trkpt lat="42.57157" lon="1.95109">
        <ele>2382.28</ele>
        <time>2019-08-24T11:09:47Z</time>
      </trkpt>
      <trkpt lat="42.57154" lon="1.95122">
        <ele>2381.8</ele>
        <time>2019-08-24T11:09:56Z</time>
      </trkpt>
      <trkpt lat="42.57154" lon="1.95133">
        <ele>2380.36</ele>
        <time>2019-08-24T11:10:06Z</time>
      </trkpt>
      <trkpt lat="42.57153" lon="1.95146">
        <ele>2377.96</ele>
        <time>2019-08-24T11:10:16Z</time>
      </trkpt>
      <trkpt lat="42.57152" lon="1.95159">
        <ele>2376.04</ele>
        <time>2019-08-24T11:10:26Z</time>
      </trkpt>
      <trkpt lat="42.57146" lon="1.95169">
        <ele>2375.55</ele>
        <time>2019-08-24T11:10:35Z</time>
      </trkpt>
      <trkpt lat="42.57145" lon="1.95182">
        <ele>2375.55</ele>
        <time>2019-08-24T11:10:45Z</time>
      </trkpt>
      <trkpt lat="42.5715" lon="1.95194">
        <ele>2375.55</ele>
        <time>2019-08-24T11:10:55Z</time>
      </trkpt>
      <trkpt lat="42.57153" lon="1.95207">
        <ele>2376.04</ele>
        <time>2019-08-24T11:11:04Z</time>
      </trkpt>
      <trkpt lat="42.57154" lon="1.9522">
        <ele>2376.52</ele>
        <time>2019-08-24T11:11:13Z</time>
      </trkpt>
      <trkpt lat="42.57155" lon="1.95232">
        <ele>2377</ele>
        <time>2019-08-24T11:11:23Z</time>
      </trkpt>
      <trkpt lat="42.57156" lon="1.95245">
        <ele>2377.96</ele>
        <time>2019-08-24T11:11:33Z</time>
      </trkpt>
      <trkpt lat="42.57159" lon="1.95256">
        <ele>2377.96</ele>
        <time>2019-08-24T11:11:43Z</time>
      </trkpt>
      <trkpt lat="42.57164" lon="1.95266">
        <ele>2377.96</ele>
        <time>2019-08-24T11:11:53Z</time>
      </trkpt>
      <trkpt lat="42.57165" lon="1.95279">
        <ele>2377.48</ele>
        <time>2019-08-24T11:12:02Z</time>
      </trkpt>
      <trkpt lat="42.57169" lon="1.95292">
        <ele>2377</ele>
        <time>2019-08-24T11:12:11Z</time>
      </trkpt>
      <trkpt lat="42.57172" lon="1.95301">
        <ele>2376.52</ele>
        <time>2019-08-24T11:12:29Z</time>
      </trkpt>
      <trkpt lat="42.57172" lon="1.95316">
        <ele>2376.04</ele>
        <time>2019-08-24T11:12:43Z</time>
      </trkpt>
      <trkpt lat="42.57175" lon="1.95326">
        <ele>2375.55</ele>
        <time>2019-08-24T11:12:52Z</time>
      </trkpt>
      <trkpt lat="42.57179" lon="1.95339">
        <ele>2375.07</ele>
        <time>2019-08-24T11:13:01Z</time>
      </trkpt>
      <trkpt lat="42.57181" lon="1.95351">
        <ele>2375.07</ele>
        <time>2019-08-24T11:13:11Z</time>
      </trkpt>
      <trkpt lat="42.57183" lon="1.95364">
        <ele>2374.11</ele>
        <time>2019-08-24T11:13:21Z</time>
      </trkpt>
      <trkpt lat="42.57186" lon="1.95375">
        <ele>2373.63</ele>
        <time>2019-08-24T11:13:31Z</time>
      </trkpt>
      <trkpt lat="42.57188" lon="1.95387">
        <ele>2372.19</ele>
        <time>2019-08-24T11:13:41Z</time>
      </trkpt>
      <trkpt lat="42.57189" lon="1.954">
        <ele>2370.75</ele>
        <time>2019-08-24T11:13:52Z</time>
      </trkpt>
      <trkpt lat="42.57193" lon="1.95408">
        <ele>2368.35</ele>
        <time>2019-08-24T11:14:05Z</time>
      </trkpt>
      <trkpt lat="42.57196" lon="1.9542">
        <ele>2366.9</ele>
        <time>2019-08-24T11:14:15Z</time>
      </trkpt>
      <trkpt lat="42.57197" lon="1.95432">
        <ele>2365.46</ele>
        <time>2019-08-24T11:14:25Z</time>
      </trkpt>
      <trkpt lat="42.57201" lon="1.95443">
        <ele>2364.02</ele>
        <time>2019-08-24T11:14:34Z</time>
      </trkpt>
      <trkpt lat="42.57209" lon="1.9545">
        <ele>2362.1</ele>
        <time>2019-08-24T11:14:44Z</time>
      </trkpt>
      <trkpt lat="42.57211" lon="1.95463">
        <ele>2359.21</ele>
        <time>2019-08-24T11:14:54Z</time>
      </trkpt>
      <trkpt lat="42.57216" lon="1.95476">
        <ele>2358.25</ele>
        <time>2019-08-24T11:15:04Z</time>
      </trkpt>
      <trkpt lat="42.57222" lon="1.95486">
        <ele>2357.77</ele>
        <time>2019-08-24T11:15:13Z</time>
      </trkpt>
      <trkpt lat="42.57228" lon="1.95492">
        <ele>2357.77</ele>
        <time>2019-08-24T11:15:34Z</time>
      </trkpt>
      <trkpt lat="42.57229" lon="1.95504">
        <ele>2358.25</ele>
        <time>2019-08-24T11:15:43Z</time>
      </trkpt>
      <trkpt lat="42.57234" lon="1.9551">
        <ele>2359.21</ele>
        <time>2019-08-24T11:16:11Z</time>
      </trkpt>
      <trkpt lat="42.57242" lon="1.95515">
        <ele>2359.21</ele>
        <time>2019-08-24T11:16:22Z</time>
      </trkpt>
      <trkpt lat="42.57249" lon="1.95523">
        <ele>2359.21</ele>
        <time>2019-08-24T11:16:32Z</time>
      </trkpt>
      <trkpt lat="42.57255" lon="1.95533">
        <ele>2357.77</ele>
        <time>2019-08-24T11:16:42Z</time>
      </trkpt>
      <trkpt lat="42.57261" lon="1.95541">
        <ele>2356.81</ele>
        <time>2019-08-24T11:16:51Z</time>
      </trkpt>
      <trkpt lat="42.57268" lon="1.9555">
        <ele>2355.37</ele>
        <time>2019-08-24T11:17:01Z</time>
      </trkpt>
      <trkpt lat="42.57275" lon="1.95559">
        <ele>2353.93</ele>
        <time>2019-08-24T11:17:10Z</time>
      </trkpt>
      <trkpt lat="42.57282" lon="1.95567">
        <ele>2353.93</ele>
        <time>2019-08-24T11:17:19Z</time>
      </trkpt>
      <trkpt lat="42.57284" lon="1.95579">
        <ele>2352.96</ele>
        <time>2019-08-24T11:17:29Z</time>
      </trkpt>
      <trkpt lat="42.57291" lon="1.95581">
        <ele>2352.48</ele>
        <time>2019-08-24T11:17:53Z</time>
      </trkpt>
      <trkpt lat="42.57298" lon="1.9559">
        <ele>2351.52</ele>
        <time>2019-08-24T11:18:03Z</time>
      </trkpt>
      <trkpt lat="42.57304" lon="1.95596">
        <ele>2350.08</ele>
        <time>2019-08-24T11:18:12Z</time>
      </trkpt>
      <trkpt lat="42.57314" lon="1.956">
        <ele>2349.6</ele>
        <time>2019-08-24T11:18:22Z</time>
      </trkpt>
      <trkpt lat="42.57323" lon="1.95601">
        <ele>2348.64</ele>
        <time>2019-08-24T11:18:31Z</time>
      </trkpt>
      <trkpt lat="42.57331" lon="1.95606">
        <ele>2349.12</ele>
        <time>2019-08-24T11:18:40Z</time>
      </trkpt>
      <trkpt lat="42.57339" lon="1.95615">
        <ele>2348.64</ele>
        <time>2019-08-24T11:18:49Z</time>
      </trkpt>
      <trkpt lat="42.57347" lon="1.95621">
        <ele>2348.64</ele>
        <time>2019-08-24T11:18:58Z</time>
      </trkpt>
      <trkpt lat="42.57355" lon="1.9562">
        <ele>2349.12</ele>
        <time>2019-08-24T11:19:09Z</time>
      </trkpt>
      <trkpt lat="42.57365" lon="1.95621">
        <ele>2349.12</ele>
        <time>2019-08-24T11:19:19Z</time>
      </trkpt>
      <trkpt lat="42.57374" lon="1.95626">
        <ele>2349.6</ele>
        <time>2019-08-24T11:19:29Z</time>
      </trkpt>
      <trkpt lat="42.57381" lon="1.95637">
        <ele>2349.6</ele>
        <time>2019-08-24T11:19:38Z</time>
      </trkpt>
      <trkpt lat="42.5739" lon="1.9564">
        <ele>2350.56</ele>
        <time>2019-08-24T11:19:47Z</time>
      </trkpt>
      <trkpt lat="42.57397" lon="1.95643">
        <ele>2350.56</ele>
        <time>2019-08-24T11:19:55Z</time>
      </trkpt>
      <trkpt lat="42.57405" lon="1.95648">
        <ele>2351.04</ele>
        <time>2019-08-24T11:20:03Z</time>
      </trkpt>
      <trkpt lat="42.57413" lon="1.95654">
        <ele>2351.52</ele>
        <time>2019-08-24T11:20:11Z</time>
      </trkpt>
      <trkpt lat="42.57422" lon="1.9566">
        <ele>2351.04</ele>
        <time>2019-08-24T11:20:19Z</time>
      </trkpt>
      <trkpt lat="42.5743" lon="1.95668">
        <ele>2351.04</ele>
        <time>2019-08-24T11:20:27Z</time>
      </trkpt>
      <trkpt lat="42.57437" lon="1.95676">
        <ele>2350.56</ele>
        <time>2019-08-24T11:20:35Z</time>
      </trkpt>
      <trkpt lat="42.57444" lon="1.95683">
        <ele>2350.08</ele>
        <time>2019-08-24T11:20:43Z</time>
      </trkpt>
      <trkpt lat="42.57451" lon="1.95691">
        <ele>2350.08</ele>
        <time>2019-08-24T11:20:51Z</time>
      </trkpt>
      <trkpt lat="42.57459" lon="1.957">
        <ele>2349.12</ele>
        <time>2019-08-24T11:20:59Z</time>
      </trkpt>
      <trkpt lat="42.57467" lon="1.95708">
        <ele>2348.16</ele>
        <time>2019-08-24T11:21:07Z</time>
      </trkpt>
      <trkpt lat="42.57475" lon="1.95716">
        <ele>2347.2</ele>
        <time>2019-08-24T11:21:15Z</time>
      </trkpt>
      <trkpt lat="42.5748" lon="1.95729">
        <ele>2348.16</ele>
        <time>2019-08-24T11:21:23Z</time>
      </trkpt>
      <trkpt lat="42.57487" lon="1.95737">
        <ele>2348.16</ele>
        <time>2019-08-24T11:21:31Z</time>
      </trkpt>
      <trkpt lat="42.57492" lon="1.95748">
        <ele>2347.2</ele>
        <time>2019-08-24T11:21:39Z</time>
      </trkpt>
      <trkpt lat="42.57497" lon="1.95761">
        <ele>2346.72</ele>
        <time>2019-08-24T11:21:48Z</time>
      </trkpt>
      <trkpt lat="42.57501" lon="1.95772">
        <ele>2345.75</ele>
        <time>2019-08-24T11:21:56Z</time>
      </trkpt>
      <trkpt lat="42.57506" lon="1.95784">
        <ele>2344.79</ele>
        <time>2019-08-24T11:22:04Z</time>
      </trkpt>
      <trkpt lat="42.57509" lon="1.95795">
        <ele>2345.27</ele>
        <time>2019-08-24T11:22:12Z</time>
      </trkpt>
      <trkpt lat="42.57512" lon="1.95808">
        <ele>2345.27</ele>
        <time>2019-08-24T11:22:22Z</time>
      </trkpt>
      <trkpt lat="42.57516" lon="1.95817">
        <ele>2343.35</ele>
        <time>2019-08-24T11:22:38Z</time>
      </trkpt>
      <trkpt lat="42.5752" lon="1.95828">
        <ele>2343.35</ele>
        <time>2019-08-24T11:22:49Z</time>
      </trkpt>
      <trkpt lat="42.57518" lon="1.9584">
        <ele>2343.83</ele>
        <time>2019-08-24T11:23:01Z</time>
      </trkpt>
      <trkpt lat="42.57516" lon="1.95852">
        <ele>2342.87</ele>
        <time>2019-08-24T11:23:12Z</time>
      </trkpt>
      <trkpt lat="42.57516" lon="1.95863">
        <ele>2341.91</ele>
        <time>2019-08-24T11:23:24Z</time>
      </trkpt>
      <trkpt lat="42.57517" lon="1.95871">
        <ele>2339.99</ele>
        <time>2019-08-24T11:23:38Z</time>
      </trkpt>
      <trkpt lat="42.57523" lon="1.95883">
        <ele>2338.06</ele>
        <time>2019-08-24T11:23:48Z</time>
      </trkpt>
      <trkpt lat="42.57529" lon="1.95894">
        <ele>2337.58</ele>
        <time>2019-08-24T11:23:58Z</time>
      </trkpt>
      <trkpt lat="42.57532" lon="1.95906">
        <ele>2336.62</ele>
        <time>2019-08-24T11:24:08Z</time>
      </trkpt>
      <trkpt lat="42.57535" lon="1.95918">
        <ele>2335.18</ele>
        <time>2019-08-24T11:24:17Z</time>
      </trkpt>
      <trkpt lat="42.57537" lon="1.9593">
        <ele>2334.22</ele>
        <time>2019-08-24T11:24:26Z</time>
      </trkpt>
      <trkpt lat="42.5754" lon="1.95942">
        <ele>2333.26</ele>
        <time>2019-08-24T11:24:35Z</time>
      </trkpt>
      <trkpt lat="42.57542" lon="1.95953">
        <ele>2332.78</ele>
        <time>2019-08-24T11:24:44Z</time>
      </trkpt>
      <trkpt lat="42.57544" lon="1.95966">
        <ele>2331.81</ele>
        <time>2019-08-24T11:24:54Z</time>
      </trkpt>
      <trkpt lat="42.57546" lon="1.95978">
        <ele>2332.78</ele>
        <time>2019-08-24T11:25:04Z</time>
      </trkpt>
      <trkpt lat="42.57548" lon="1.95991">
        <ele>2331.81</ele>
        <time>2019-08-24T11:25:14Z</time>
      </trkpt>
      <trkpt lat="42.57549" lon="1.96003">
        <ele>2331.33</ele>
        <time>2019-08-24T11:25:24Z</time>
      </trkpt>
      <trkpt lat="42.57549" lon="1.96015">
        <ele>2330.85</ele>
        <time>2019-08-24T11:25:34Z</time>
      </trkpt>
      <trkpt lat="42.57552" lon="1.96026">
        <ele>2328.45</ele>
        <time>2019-08-24T11:25:44Z</time>
      </trkpt>
      <trkpt lat="42.57557" lon="1.96037">
        <ele>2327.49</ele>
        <time>2019-08-24T11:25:53Z</time>
      </trkpt>
      <trkpt lat="42.57561" lon="1.9605">
        <ele>2327.49</ele>
        <time>2019-08-24T11:26:02Z</time>
      </trkpt>
      <trkpt lat="42.57564" lon="1.96062">
        <ele>2327.49</ele>
        <time>2019-08-24T11:26:11Z</time>
      </trkpt>
      <trkpt lat="42.57568" lon="1.96073">
        <ele>2326.53</ele>
        <time>2019-08-24T11:26:20Z</time>
      </trkpt>
      <trkpt lat="42.57568" lon="1.96086">
        <ele>2326.53</ele>
        <time>2019-08-24T11:26:30Z</time>
      </trkpt>
      <trkpt lat="42.5757" lon="1.96098">
        <ele>2327.01</ele>
        <time>2019-08-24T11:26:39Z</time>
      </trkpt>
      <trkpt lat="42.57572" lon="1.9611">
        <ele>2326.53</ele>
        <time>2019-08-24T11:26:49Z</time>
      </trkpt>
      <trkpt lat="42.57572" lon="1.96124">
        <ele>2327.01</ele>
        <time>2019-08-24T11:26:59Z</time>
      </trkpt>
      <trkpt lat="42.57577" lon="1.96135">
        <ele>2325.57</ele>
        <time>2019-08-24T11:27:09Z</time>
      </trkpt>
      <trkpt lat="42.57582" lon="1.96145">
        <ele>2325.09</ele>
        <time>2019-08-24T11:27:17Z</time>
      </trkpt>
      <trkpt lat="42.57585" lon="1.96156">
        <ele>2324.12</ele>
        <time>2019-08-24T11:27:25Z</time>
      </trkpt>
      <trkpt lat="42.57588" lon="1.96168">
        <ele>2323.64</ele>
        <time>2019-08-24T11:27:33Z</time>
      </trkpt>
      <trkpt lat="42.57592" lon="1.96181">
        <ele>2323.16</ele>
        <time>2019-08-24T11:27:44Z</time>
      </trkpt>
      <trkpt lat="42.57596" lon="1.96192">
        <ele>2324.12</ele>
        <time>2019-08-24T11:27:53Z</time>
      </trkpt>
      <trkpt lat="42.57603" lon="1.96201">
        <ele>2323.64</ele>
        <time>2019-08-24T11:28:02Z</time>
      </trkpt>
      <trkpt lat="42.57611" lon="1.96208">
        <ele>2324.12</ele>
        <time>2019-08-24T11:28:11Z</time>
      </trkpt>
      <trkpt lat="42.57619" lon="1.96213">
        <ele>2323.64</ele>
        <time>2019-08-24T11:28:21Z</time>
      </trkpt>
      <trkpt lat="42.57625" lon="1.96224">
        <ele>2323.64</ele>
        <time>2019-08-24T11:28:31Z</time>
      </trkpt>
      <trkpt lat="42.57629" lon="1.96235">
        <ele>2323.64</ele>
        <time>2019-08-24T11:28:40Z</time>
      </trkpt>
      <trkpt lat="42.57634" lon="1.96246">
        <ele>2323.64</ele>
        <time>2019-08-24T11:28:49Z</time>
      </trkpt>
      <trkpt lat="42.57639" lon="1.96258">
        <ele>2323.64</ele>
        <time>2019-08-24T11:28:58Z</time>
      </trkpt>
      <trkpt lat="42.57642" lon="1.96271">
        <ele>2323.64</ele>
        <time>2019-08-24T11:29:07Z</time>
      </trkpt>
      <trkpt lat="42.57645" lon="1.96282">
        <ele>2323.64</ele>
        <time>2019-08-24T11:29:16Z</time>
      </trkpt>
      <trkpt lat="42.5765" lon="1.96294">
        <ele>2324.61</ele>
        <time>2019-08-24T11:29:25Z</time>
      </trkpt>
      <trkpt lat="42.57651" lon="1.96307">
        <ele>2324.61</ele>
        <time>2019-08-24T11:29:34Z</time>
      </trkpt>
      <trkpt lat="42.57651" lon="1.9632">
        <ele>2323.64</ele>
        <time>2019-08-24T11:29:42Z</time>
      </trkpt>
      <trkpt lat="42.57654" lon="1.96331">
        <ele>2324.12</ele>
        <time>2019-08-24T11:29:51Z</time>
      </trkpt>
      <trkpt lat="42.57657" lon="1.96344">
        <ele>2323.16</ele>
        <time>2019-08-24T11:29:59Z</time>
      </trkpt>
      <trkpt lat="42.5766" lon="1.96356">
        <ele>2323.16</ele>
        <time>2019-08-24T11:30:07Z</time>
      </trkpt>
      <trkpt lat="42.57664" lon="1.96366">
        <ele>2322.68</ele>
        <time>2019-08-24T11:30:15Z</time>
      </trkpt>
      <trkpt lat="42.57661" lon="1.96379">
        <ele>2322.68</ele>
        <time>2019-08-24T11:30:24Z</time>
      </trkpt>
      <trkpt lat="42.57657" lon="1.96392">
        <ele>2322.68</ele>
        <time>2019-08-24T11:30:33Z</time>
      </trkpt>
      <trkpt lat="42.57665" lon="1.96399">
        <ele>2322.2</ele>
        <time>2019-08-24T11:30:43Z</time>
      </trkpt>
      <trkpt lat="42.5767" lon="1.96409">
        <ele>2321.72</ele>
        <time>2019-08-24T11:30:52Z</time>
      </trkpt>
      <trkpt lat="42.57671" lon="1.96422">
        <ele>2322.2</ele>
        <time>2019-08-24T11:31:07Z</time>
      </trkpt>
      <trkpt lat="42.57669" lon="1.96434">
        <ele>2322.2</ele>
        <time>2019-08-24T11:31:21Z</time>
      </trkpt>
      <trkpt lat="42.57669" lon="1.96448">
        <ele>2321.72</ele>
        <time>2019-08-24T11:31:31Z</time>
      </trkpt>
      <trkpt lat="42.57668" lon="1.9646">
        <ele>2322.2</ele>
        <time>2019-08-24T11:31:39Z</time>
      </trkpt>
      <trkpt lat="42.57666" lon="1.96472">
        <ele>2322.2</ele>
        <time>2019-08-24T11:31:47Z</time>
      </trkpt>
      <trkpt lat="42.57664" lon="1.96484">
        <ele>2321.72</ele>
        <time>2019-08-24T11:31:55Z</time>
      </trkpt>
      <trkpt lat="42.57661" lon="1.96496">
        <ele>2322.2</ele>
        <time>2019-08-24T11:32:04Z</time>
      </trkpt>
      <trkpt lat="42.57656" lon="1.96507">
        <ele>2321.72</ele>
        <time>2019-08-24T11:32:13Z</time>
      </trkpt>
      <trkpt lat="42.57652" lon="1.96517">
        <ele>2322.2</ele>
        <time>2019-08-24T11:32:22Z</time>
      </trkpt>
      <trkpt lat="42.57647" lon="1.96528">
        <ele>2321.72</ele>
        <time>2019-08-24T11:32:31Z</time>
      </trkpt>
      <trkpt lat="42.57643" lon="1.9654">
        <ele>2321.72</ele>
        <time>2019-08-24T11:32:44Z</time>
      </trkpt>
      <trkpt lat="42.57633" lon="1.96539">
        <ele>2319.8</ele>
        <time>2019-08-24T11:32:55Z</time>
      </trkpt>
      <trkpt lat="42.57626" lon="1.96535">
        <ele>2319.8</ele>
        <time>2019-08-24T11:33:06Z</time>
      </trkpt>
      <trkpt lat="42.5762" lon="1.96543">
        <ele>2320.28</ele>
        <time>2019-08-24T11:33:17Z</time>
      </trkpt>
      <trkpt lat="42.57617" lon="1.96555">
        <ele>2321.24</ele>
        <time>2019-08-24T11:33:27Z</time>
      </trkpt>
      <trkpt lat="42.57613" lon="1.96567">
        <ele>2321.72</ele>
        <time>2019-08-24T11:33:37Z</time>
      </trkpt>
      <trkpt lat="42.57612" lon="1.96579">
        <ele>2321.72</ele>
        <time>2019-08-24T11:33:47Z</time>
      </trkpt>
      <trkpt lat="42.5761" lon="1.96592">
        <ele>2321.24</ele>
        <time>2019-08-24T11:33:56Z</time>
      </trkpt>
      <trkpt lat="42.57607" lon="1.96605">
        <ele>2320.76</ele>
        <time>2019-08-24T11:34:05Z</time>
      </trkpt>
      <trkpt lat="42.57608" lon="1.96614">
        <ele>2320.28</ele>
        <time>2019-08-24T11:34:17Z</time>
      </trkpt>
      <trkpt lat="42.57614" lon="1.96625">
        <ele>2318.84</ele>
        <time>2019-08-24T11:34:28Z</time>
      </trkpt>
      <trkpt lat="42.57616" lon="1.96636">
        <ele>2319.8</ele>
        <time>2019-08-24T11:34:38Z</time>
      </trkpt>
      <trkpt lat="42.57617" lon="1.96651">
        <ele>2320.76</ele>
        <time>2019-08-24T11:34:50Z</time>
      </trkpt>
      <trkpt lat="42.57619" lon="1.96664">
        <ele>2321.24</ele>
        <time>2019-08-24T11:35:01Z</time>
      </trkpt>
      <trkpt lat="42.57621" lon="1.96677">
        <ele>2322.2</ele>
        <time>2019-08-24T11:35:13Z</time>
      </trkpt>
      <trkpt lat="42.5762" lon="1.96691">
        <ele>2322.2</ele>
        <time>2019-08-24T11:35:27Z</time>
      </trkpt>
      <trkpt lat="42.57616" lon="1.96706">
        <ele>2324.61</ele>
        <time>2019-08-24T11:35:46Z</time>
      </trkpt>
      <trkpt lat="42.5761" lon="1.96719">
        <ele>2326.53</ele>
        <time>2019-08-24T11:36:02Z</time>
      </trkpt>
      <trkpt lat="42.57605" lon="1.96731">
        <ele>2325.57</ele>
        <time>2019-08-24T11:36:17Z</time>
      </trkpt>
      <trkpt lat="42.57604" lon="1.96745">
        <ele>2322.68</ele>
        <time>2019-08-24T11:36:32Z</time>
      </trkpt>
      <trkpt lat="42.57601" lon="1.96757">
        <ele>2320.28</ele>
        <time>2019-08-24T11:36:45Z</time>
      </trkpt>
      <trkpt lat="42.57596" lon="1.9676">
        <ele>2316.91</ele>
        <time>2019-08-24T11:37:04Z</time>
      </trkpt>
      <trkpt lat="42.57591" lon="1.96771">
        <ele>2315.95</ele>
        <time>2019-08-24T11:37:14Z</time>
      </trkpt>
      <trkpt lat="42.57591" lon="1.96785">
        <ele>2316.43</ele>
        <time>2019-08-24T11:37:24Z</time>
      </trkpt>
      <trkpt lat="42.57588" lon="1.96798">
        <ele>2316.91</ele>
        <time>2019-08-24T11:37:35Z</time>
      </trkpt>
      <trkpt lat="42.57584" lon="1.9681">
        <ele>2317.4</ele>
        <time>2019-08-24T11:37:45Z</time>
      </trkpt>
      <trkpt lat="42.57581" lon="1.96821">
        <ele>2317.88</ele>
        <time>2019-08-24T11:37:56Z</time>
      </trkpt>
      <trkpt lat="42.57579" lon="1.96833">
        <ele>2317.88</ele>
        <time>2019-08-24T11:38:06Z</time>
      </trkpt>
      <trkpt lat="42.57577" lon="1.96846">
        <ele>2316.91</ele>
        <time>2019-08-24T11:38:16Z</time>
      </trkpt>
      <trkpt lat="42.57571" lon="1.96857">
        <ele>2315.47</ele>
        <time>2019-08-24T11:38:26Z</time>
      </trkpt>
      <trkpt lat="42.57571" lon="1.96869">
        <ele>2314.03</ele>
        <time>2019-08-24T11:38:37Z</time>
      </trkpt>
      <trkpt lat="42.57567" lon="1.9688">
        <ele>2313.07</ele>
        <time>2019-08-24T11:38:49Z</time>
      </trkpt>
      <trkpt lat="42.57559" lon="1.96887">
        <ele>2309.7</ele>
        <time>2019-08-24T11:39:02Z</time>
      </trkpt>
      <trkpt lat="42.57556" lon="1.96899">
        <ele>2309.22</ele>
        <time>2019-08-24T11:39:13Z</time>
      </trkpt>
      <trkpt lat="42.57556" lon="1.96911">
        <ele>2306.82</ele>
        <time>2019-08-24T11:39:26Z</time>
      </trkpt>
      <trkpt lat="42.57561" lon="1.96923">
        <ele>2304.9</ele>
        <time>2019-08-24T11:39:38Z</time>
      </trkpt>
      <trkpt lat="42.57561" lon="1.96935">
        <ele>2304.42</ele>
        <time>2019-08-24T11:39:53Z</time>
      </trkpt>
      <trkpt lat="42.57557" lon="1.96946">
        <ele>2303.46</ele>
        <time>2019-08-24T11:40:19Z</time>
      </trkpt>
      <trkpt lat="42.57558" lon="1.96954">
        <ele>2301.05</ele>
        <time>2019-08-24T11:40:54Z</time>
      </trkpt>
      <trkpt lat="42.57547" lon="1.96957">
        <ele>2300.09</ele>
        <time>2019-08-24T11:41:06Z</time>
      </trkpt>
      <trkpt lat="42.57541" lon="1.96963">
        <ele>2297.21</ele>
        <time>2019-08-24T11:41:20Z</time>
      </trkpt>
      <trkpt lat="42.57539" lon="1.96975">
        <ele>2294.8</ele>
        <time>2019-08-24T11:41:32Z</time>
      </trkpt>
      <trkpt lat="42.57536" lon="1.96986">
        <ele>2293.84</ele>
        <time>2019-08-24T11:41:43Z</time>
      </trkpt>
      <trkpt lat="42.57532" lon="1.96995">
        <ele>2290.96</ele>
        <time>2019-08-24T11:41:55Z</time>
      </trkpt>
      <trkpt lat="42.57527" lon="1.97006">
        <ele>2289.04</ele>
        <time>2019-08-24T11:42:10Z</time>
      </trkpt>
      <trkpt lat="42.57528" lon="1.97015">
        <ele>2285.19</ele>
        <time>2019-08-24T11:42:28Z</time>
      </trkpt>
      <trkpt lat="42.57526" lon="1.97027">
        <ele>2282.79</ele>
        <time>2019-08-24T11:42:40Z</time>
      </trkpt>
      <trkpt lat="42.57523" lon="1.97039">
        <ele>2280.87</ele>
        <time>2019-08-24T11:42:50Z</time>
      </trkpt>
      <trkpt lat="42.57517" lon="1.9705">
        <ele>2279.42</ele>
        <time>2019-08-24T11:43:00Z</time>
      </trkpt>
      <trkpt lat="42.57514" lon="1.97062">
        <ele>2276.54</ele>
        <time>2019-08-24T11:43:11Z</time>
      </trkpt>
      <trkpt lat="42.5751" lon="1.97074">
        <ele>2276.06</ele>
        <time>2019-08-24T11:43:20Z</time>
      </trkpt>
      <trkpt lat="42.57503" lon="1.97085">
        <ele>2274.14</ele>
        <time>2019-08-24T11:43:31Z</time>
      </trkpt>
      <trkpt lat="42.575" lon="1.97098">
        <ele>2272.21</ele>
        <time>2019-08-24T11:43:43Z</time>
      </trkpt>
      <trkpt lat="42.57496" lon="1.97107">
        <ele>2269.81</ele>
        <time>2019-08-24T11:43:54Z</time>
      </trkpt>
      <trkpt lat="42.57494" lon="1.97118">
        <ele>2267.41</ele>
        <time>2019-08-24T11:44:06Z</time>
      </trkpt>
      <trkpt lat="42.5749" lon="1.9713">
        <ele>2266.45</ele>
        <time>2019-08-24T11:44:16Z</time>
      </trkpt>
      <trkpt lat="42.57488" lon="1.97142">
        <ele>2264.52</ele>
        <time>2019-08-24T11:44:27Z</time>
      </trkpt>
      <trkpt lat="42.57483" lon="1.97155">
        <ele>2262.6</ele>
        <time>2019-08-24T11:44:37Z</time>
      </trkpt>
      <trkpt lat="42.5748" lon="1.97166">
        <ele>2260.2</ele>
        <time>2019-08-24T11:44:48Z</time>
      </trkpt>
      <trkpt lat="42.57477" lon="1.97179">
        <ele>2258.75</ele>
        <time>2019-08-24T11:44:59Z</time>
      </trkpt>
      <trkpt lat="42.5747" lon="1.97189">
        <ele>2257.31</ele>
        <time>2019-08-24T11:45:09Z</time>
      </trkpt>
      <trkpt lat="42.57462" lon="1.97198">
        <ele>2256.35</ele>
        <time>2019-08-24T11:45:20Z</time>
      </trkpt>
      <trkpt lat="42.57453" lon="1.97202">
        <ele>2254.91</ele>
        <time>2019-08-24T11:45:31Z</time>
      </trkpt>
      <trkpt lat="42.57452" lon="1.97214">
        <ele>2252.99</ele>
        <time>2019-08-24T11:45:40Z</time>
      </trkpt>
      <trkpt lat="42.5745" lon="1.97226">
        <ele>2251.54</ele>
        <time>2019-08-24T11:45:50Z</time>
      </trkpt>
      <trkpt lat="42.57446" lon="1.97237">
        <ele>2251.54</ele>
        <time>2019-08-24T11:46:01Z</time>
      </trkpt>
      <trkpt lat="42.57438" lon="1.97245">
        <ele>2251.06</ele>
        <time>2019-08-24T11:46:12Z</time>
      </trkpt>
      <trkpt lat="42.5743" lon="1.97244">
        <ele>2251.54</ele>
        <time>2019-08-24T11:46:25Z</time>
      </trkpt>
      <trkpt lat="42.57423" lon="1.97253">
        <ele>2249.14</ele>
        <time>2019-08-24T11:46:38Z</time>
      </trkpt>
      <trkpt lat="42.57414" lon="1.9726">
        <ele>2248.66</ele>
        <time>2019-08-24T11:46:48Z</time>
      </trkpt>
      <trkpt lat="42.57409" lon="1.97273">
        <ele>2248.66</ele>
        <time>2019-08-24T11:46:57Z</time>
      </trkpt>
      <trkpt lat="42.574" lon="1.97281">
        <ele>2248.66</ele>
        <time>2019-08-24T11:47:07Z</time>
      </trkpt>
      <trkpt lat="42.57394" lon="1.97292">
        <ele>2249.14</ele>
        <time>2019-08-24T11:47:18Z</time>
      </trkpt>
      <trkpt lat="42.57391" lon="1.97306">
        <ele>2250.1</ele>
        <time>2019-08-24T11:47:28Z</time>
      </trkpt>
      <trkpt lat="42.57389" lon="1.97319">
        <ele>2249.62</ele>
        <time>2019-08-24T11:47:37Z</time>
      </trkpt>
      <trkpt lat="42.57386" lon="1.97323">
        <ele>2250.1</ele>
        <time>2019-08-24T11:47:55Z</time>
      </trkpt>
      <trkpt lat="42.57389" lon="1.97336">
        <ele>2251.54</ele>
        <time>2019-08-24T11:48:05Z</time>
      </trkpt>
      <trkpt lat="42.5739" lon="1.97348">
        <ele>2252.99</ele>
        <time>2019-08-24T11:48:16Z</time>
      </trkpt>
      <trkpt lat="42.57387" lon="1.9736">
        <ele>2253.95</ele>
        <time>2019-08-24T11:48:25Z</time>
      </trkpt>
      <trkpt lat="42.57385" lon="1.97373">
        <ele>2253.95</ele>
        <time>2019-08-24T11:48:35Z</time>
      </trkpt>
      <trkpt lat="42.57381" lon="1.97385">
        <ele>2254.43</ele>
        <time>2019-08-24T11:48:43Z</time>
      </trkpt>
      <trkpt lat="42.57376" lon="1.97396">
        <ele>2253.95</ele>
        <time>2019-08-24T11:48:51Z</time>
      </trkpt>
      <trkpt lat="42.57372" lon="1.97408">
        <ele>2253.95</ele>
        <time>2019-08-24T11:48:59Z</time>
      </trkpt>
      <trkpt lat="42.57367" lon="1.97419">
        <ele>2252.51</ele>
        <time>2019-08-24T11:49:07Z</time>
      </trkpt>
      <trkpt lat="42.57362" lon="1.97429">
        <ele>2252.03</ele>
        <time>2019-08-24T11:49:14Z</time>
      </trkpt>
      <trkpt lat="42.5736" lon="1.97442">
        <ele>2252.51</ele>
        <time>2019-08-24T11:49:22Z</time>
      </trkpt>
      <trkpt lat="42.57358" lon="1.97454">
        <ele>2252.99</ele>
        <time>2019-08-24T11:49:30Z</time>
      </trkpt>
      <trkpt lat="42.57353" lon="1.97466">
        <ele>2252.51</ele>
        <time>2019-08-24T11:49:39Z</time>
      </trkpt>
      <trkpt lat="42.57347" lon="1.9747">
        <ele>2252.51</ele>
        <time>2019-08-24T11:49:51Z</time>
      </trkpt>
      <trkpt lat="42.57343" lon="1.9748">
        <ele>2252.51</ele>
        <time>2019-08-24T11:50:07Z</time>
      </trkpt>
      <trkpt lat="42.57337" lon="1.9749">
        <ele>2251.54</ele>
        <time>2019-08-24T11:50:15Z</time>
      </trkpt>
      <trkpt lat="42.57332" lon="1.97499">
        <ele>2250.58</ele>
        <time>2019-08-24T11:50:23Z</time>
      </trkpt>
      <trkpt lat="42.57325" lon="1.97509">
        <ele>2250.1</ele>
        <time>2019-08-24T11:50:31Z</time>
      </trkpt>
      <trkpt lat="42.57318" lon="1.97516">
        <ele>2249.14</ele>
        <time>2019-08-24T11:50:39Z</time>
      </trkpt>
      <trkpt lat="42.57315" lon="1.97528">
        <ele>2246.74</ele>
        <time>2019-08-24T11:50:51Z</time>
      </trkpt>
      <trkpt lat="42.57311" lon="1.97539">
        <ele>2245.78</ele>
        <time>2019-08-24T11:51:01Z</time>
      </trkpt>
      <trkpt lat="42.57307" lon="1.9755">
        <ele>2243.37</ele>
        <time>2019-08-24T11:51:10Z</time>
      </trkpt>
      <trkpt lat="42.57303" lon="1.97561">
        <ele>2241.93</ele>
        <time>2019-08-24T11:51:20Z</time>
      </trkpt>
      <trkpt lat="42.57295" lon="1.97571">
        <ele>2240.49</ele>
        <time>2019-08-24T11:51:30Z</time>
      </trkpt>
      <trkpt lat="42.57287" lon="1.97579">
        <ele>2241.45</ele>
        <time>2019-08-24T11:51:39Z</time>
      </trkpt>
      <trkpt lat="42.57282" lon="1.97588">
        <ele>2239.53</ele>
        <time>2019-08-24T11:51:48Z</time>
      </trkpt>
      <trkpt lat="42.57279" lon="1.976">
        <ele>2238.57</ele>
        <time>2019-08-24T11:51:58Z</time>
      </trkpt>
      <trkpt lat="42.57278" lon="1.97613">
        <ele>2238.57</ele>
        <time>2019-08-24T11:52:10Z</time>
      </trkpt>
      <trkpt lat="42.57271" lon="1.97624">
        <ele>2236.16</ele>
        <time>2019-08-24T11:52:20Z</time>
      </trkpt>
      <trkpt lat="42.57271" lon="1.97636">
        <ele>2236.16</ele>
        <time>2019-08-24T11:52:28Z</time>
      </trkpt>
      <trkpt lat="42.57269" lon="1.97649">
        <ele>2235.68</ele>
        <time>2019-08-24T11:52:36Z</time>
      </trkpt>
      <trkpt lat="42.57267" lon="1.97661">
        <ele>2234.72</ele>
        <time>2019-08-24T11:52:45Z</time>
      </trkpt>
      <trkpt lat="42.57259" lon="1.9767">
        <ele>2232.32</ele>
        <time>2019-08-24T11:52:53Z</time>
      </trkpt>
      <trkpt lat="42.57249" lon="1.97673">
        <ele>2231.84</ele>
        <time>2019-08-24T11:53:01Z</time>
      </trkpt>
      <trkpt lat="42.57245" lon="1.97682">
        <ele>2231.84</ele>
        <time>2019-08-24T11:53:09Z</time>
      </trkpt>
      <trkpt lat="42.5724" lon="1.97692">
        <ele>2232.32</ele>
        <time>2019-08-24T11:53:17Z</time>
      </trkpt>
      <trkpt lat="42.57237" lon="1.97704">
        <ele>2229.92</ele>
        <time>2019-08-24T11:53:28Z</time>
      </trkpt>
      <trkpt lat="42.57233" lon="1.97716">
        <ele>2227.99</ele>
        <time>2019-08-24T11:53:40Z</time>
      </trkpt>
      <trkpt lat="42.57226" lon="1.97724">
        <ele>2226.55</ele>
        <time>2019-08-24T11:53:50Z</time>
      </trkpt>
      <trkpt lat="42.57221" lon="1.97736">
        <ele>2225.59</ele>
        <time>2019-08-24T11:53:59Z</time>
      </trkpt>
      <trkpt lat="42.57215" lon="1.97747">
        <ele>2225.59</ele>
        <time>2019-08-24T11:54:08Z</time>
      </trkpt>
      <trkpt lat="42.57207" lon="1.97757">
        <ele>2225.59</ele>
        <time>2019-08-24T11:54:16Z</time>
      </trkpt>
      <trkpt lat="42.57198" lon="1.97763">
        <ele>2225.11</ele>
        <time>2019-08-24T11:54:24Z</time>
      </trkpt>
      <trkpt lat="42.57191" lon="1.97772">
        <ele>2224.63</ele>
        <time>2019-08-24T11:54:33Z</time>
      </trkpt>
      <trkpt lat="42.57183" lon="1.97778">
        <ele>2222.71</ele>
        <time>2019-08-24T11:54:42Z</time>
      </trkpt>
      <trkpt lat="42.57177" lon="1.97789">
        <ele>2221.26</ele>
        <time>2019-08-24T11:54:51Z</time>
      </trkpt>
      <trkpt lat="42.57171" lon="1.97797">
        <ele>2220.78</ele>
        <time>2019-08-24T11:55:00Z</time>
      </trkpt>
      <trkpt lat="42.57165" lon="1.97807">
        <ele>2218.86</ele>
        <time>2019-08-24T11:55:09Z</time>
      </trkpt>
      <trkpt lat="42.5716" lon="1.97817">
        <ele>2217.9</ele>
        <time>2019-08-24T11:55:19Z</time>
      </trkpt>
      <trkpt lat="42.57154" lon="1.97827">
        <ele>2215.01</ele>
        <time>2019-08-24T11:55:29Z</time>
      </trkpt>
      <trkpt lat="42.57149" lon="1.97837">
        <ele>2213.57</ele>
        <time>2019-08-24T11:55:39Z</time>
      </trkpt>
      <trkpt lat="42.57142" lon="1.97846">
        <ele>2213.09</ele>
        <time>2019-08-24T11:55:49Z</time>
      </trkpt>
      <trkpt lat="42.57137" lon="1.97856">
        <ele>2210.69</ele>
        <time>2019-08-24T11:55:57Z</time>
      </trkpt>
      <trkpt lat="42.57132" lon="1.97865">
        <ele>2209.25</ele>
        <time>2019-08-24T11:56:10Z</time>
      </trkpt>
      <trkpt lat="42.57124" lon="1.97873">
        <ele>2206.36</ele>
        <time>2019-08-24T11:56:20Z</time>
      </trkpt>
      <trkpt lat="42.57115" lon="1.97879">
        <ele>2204.44</ele>
        <time>2019-08-24T11:56:28Z</time>
      </trkpt>
      <trkpt lat="42.57109" lon="1.97883">
        <ele>2202.04</ele>
        <time>2019-08-24T11:56:40Z</time>
      </trkpt>
      <trkpt lat="42.57099" lon="1.97885">
        <ele>2201.08</ele>
        <time>2019-08-24T11:56:49Z</time>
      </trkpt>
      <trkpt lat="42.5709" lon="1.9789">
        <ele>2200.11</ele>
        <time>2019-08-24T11:56:58Z</time>
      </trkpt>
      <trkpt lat="42.57082" lon="1.97894">
        <ele>2199.15</ele>
        <time>2019-08-24T11:57:09Z</time>
      </trkpt>
      <trkpt lat="42.57075" lon="1.97901">
        <ele>2195.31</ele>
        <time>2019-08-24T11:57:22Z</time>
      </trkpt>
      <trkpt lat="42.57069" lon="1.97909">
        <ele>2193.39</ele>
        <time>2019-08-24T11:57:32Z</time>
      </trkpt>
      <trkpt lat="42.57059" lon="1.97913">
        <ele>2192.9</ele>
        <time>2019-08-24T11:57:40Z</time>
      </trkpt>
      <trkpt lat="42.5705" lon="1.97919">
        <ele>2192.9</ele>
        <time>2019-08-24T11:57:48Z</time>
      </trkpt>
      <trkpt lat="42.57042" lon="1.97923">
        <ele>2191.46</ele>
        <time>2019-08-24T11:57:56Z</time>
      </trkpt>
      <trkpt lat="42.57034" lon="1.9793">
        <ele>2190.98</ele>
        <time>2019-08-24T11:58:03Z</time>
      </trkpt>
      <trkpt lat="42.57027" lon="1.97938">
        <ele>2190.5</ele>
        <time>2019-08-24T11:58:11Z</time>
      </trkpt>
      <trkpt lat="42.57026" lon="1.9795">
        <ele>2190.02</ele>
        <time>2019-08-24T11:58:20Z</time>
      </trkpt>
      <trkpt lat="42.57018" lon="1.97955">
        <ele>2189.54</ele>
        <time>2019-08-24T11:58:28Z</time>
      </trkpt>
      <trkpt lat="42.57008" lon="1.97956">
        <ele>2190.02</ele>
        <time>2019-08-24T11:58:38Z</time>
      </trkpt>
      <trkpt lat="42.56999" lon="1.97951">
        <ele>2188.58</ele>
        <time>2019-08-24T11:58:47Z</time>
      </trkpt>
      <trkpt lat="42.56992" lon="1.97944">
        <ele>2189.54</ele>
        <time>2019-08-24T11:58:56Z</time>
      </trkpt>
      <trkpt lat="42.56985" lon="1.97934">
        <ele>2190.02</ele>
        <time>2019-08-24T11:59:07Z</time>
      </trkpt>
      <trkpt lat="42.56975" lon="1.97938">
        <ele>2190.98</ele>
        <time>2019-08-24T11:59:21Z</time>
      </trkpt>
      <trkpt lat="42.56966" lon="1.97946">
        <ele>2190.02</ele>
        <time>2019-08-24T11:59:34Z</time>
      </trkpt>
      <trkpt lat="42.56959" lon="1.97959">
        <ele>2188.58</ele>
        <time>2019-08-24T11:59:46Z</time>
      </trkpt>
      <trkpt lat="42.56954" lon="1.97971">
        <ele>2189.54</ele>
        <time>2019-08-24T11:59:57Z</time>
      </trkpt>
      <trkpt lat="42.56946" lon="1.9798">
        <ele>2190.5</ele>
        <time>2019-08-24T12:00:11Z</time>
      </trkpt>
      <trkpt lat="42.56938" lon="1.97991">
        <ele>2191.46</ele>
        <time>2019-08-24T12:00:25Z</time>
      </trkpt>
      <trkpt lat="42.56931" lon="1.98005">
        <ele>2191.46</ele>
        <time>2019-08-24T12:00:39Z</time>
      </trkpt>
      <trkpt lat="42.56923" lon="1.9802">
        <ele>2190.02</ele>
        <time>2019-08-24T12:00:50Z</time>
      </trkpt>
      <trkpt lat="42.56915" lon="1.98029">
        <ele>2188.58</ele>
        <time>2019-08-24T12:00:59Z</time>
      </trkpt>
      <trkpt lat="42.56907" lon="1.98039">
        <ele>2187.62</ele>
        <time>2019-08-24T12:01:09Z</time>
      </trkpt>
      <trkpt lat="42.569" lon="1.98048">
        <ele>2188.1</ele>
        <time>2019-08-24T12:01:19Z</time>
      </trkpt>
      <trkpt lat="42.56891" lon="1.98057">
        <ele>2186.66</ele>
        <time>2019-08-24T12:01:29Z</time>
      </trkpt>
      <trkpt lat="42.56883" lon="1.98064">
        <ele>2187.14</ele>
        <time>2019-08-24T12:01:38Z</time>
      </trkpt>
      <trkpt lat="42.56875" lon="1.98069">
        <ele>2186.66</ele>
        <time>2019-08-24T12:01:48Z</time>
      </trkpt>
      <trkpt lat="42.56865" lon="1.98075">
        <ele>2186.18</ele>
        <time>2019-08-24T12:01:58Z</time>
      </trkpt>
      <trkpt lat="42.56856" lon="1.98079">
        <ele>2186.18</ele>
        <time>2019-08-24T12:02:08Z</time>
      </trkpt>
      <trkpt lat="42.56846" lon="1.98082">
        <ele>2185.69</ele>
        <time>2019-08-24T12:02:18Z</time>
      </trkpt>
      <trkpt lat="42.56836" lon="1.98084">
        <ele>2186.18</ele>
        <time>2019-08-24T12:02:29Z</time>
      </trkpt>
      <trkpt lat="42.56828" lon="1.98093">
        <ele>2185.69</ele>
        <time>2019-08-24T12:02:39Z</time>
      </trkpt>
      <trkpt lat="42.56822" lon="1.98101">
        <ele>2185.69</ele>
        <time>2019-08-24T12:02:50Z</time>
      </trkpt>
      <trkpt lat="42.56813" lon="1.98114">
        <ele>2185.69</ele>
        <time>2019-08-24T12:03:04Z</time>
      </trkpt>
      <trkpt lat="42.56805" lon="1.98126">
        <ele>2183.77</ele>
        <time>2019-08-24T12:03:15Z</time>
      </trkpt>
      <trkpt lat="42.56795" lon="1.98132">
        <ele>2183.77</ele>
        <time>2019-08-24T12:03:24Z</time>
      </trkpt>
      <trkpt lat="42.56788" lon="1.9814">
        <ele>2183.77</ele>
        <time>2019-08-24T12:03:32Z</time>
      </trkpt>
      <trkpt lat="42.56781" lon="1.98148">
        <ele>2182.33</ele>
        <time>2019-08-24T12:03:40Z</time>
      </trkpt>
      <trkpt lat="42.56775" lon="1.98159">
        <ele>2182.81</ele>
        <time>2019-08-24T12:03:51Z</time>
      </trkpt>
      <trkpt lat="42.56768" lon="1.98166">
        <ele>2181.37</ele>
        <time>2019-08-24T12:04:00Z</time>
      </trkpt>
      <trkpt lat="42.56761" lon="1.98176">
        <ele>2181.85</ele>
        <time>2019-08-24T12:04:13Z</time>
      </trkpt>
      <trkpt lat="42.56754" lon="1.9819">
        <ele>2180.89</ele>
        <time>2019-08-24T12:04:25Z</time>
      </trkpt>
      <trkpt lat="42.56752" lon="1.98208">
        <ele>2180.89</ele>
        <time>2019-08-24T12:04:38Z</time>
      </trkpt>
      <trkpt lat="42.56746" lon="1.98221">
        <ele>2178.48</ele>
        <time>2019-08-24T12:04:49Z</time>
      </trkpt>
      <trkpt lat="42.56737" lon="1.98228">
        <ele>2177.52</ele>
        <time>2019-08-24T12:05:01Z</time>
      </trkpt>
      <trkpt lat="42.56726" lon="1.98232">
        <ele>2176.56</ele>
        <time>2019-08-24T12:05:12Z</time>
      </trkpt>
      <trkpt lat="42.56713" lon="1.98235">
        <ele>2176.08</ele>
        <time>2019-08-24T12:05:24Z</time>
      </trkpt>
      <trkpt lat="42.56705" lon="1.98241">
        <ele>2175.6</ele>
        <time>2019-08-24T12:05:37Z</time>
      </trkpt>
      <trkpt lat="42.56695" lon="1.98244">
        <ele>2172.24</ele>
        <time>2019-08-24T12:05:48Z</time>
      </trkpt>
      <trkpt lat="42.56687" lon="1.98245">
        <ele>2170.79</ele>
        <time>2019-08-24T12:06:02Z</time>
      </trkpt>
      <trkpt lat="42.56678" lon="1.98253">
        <ele>2166.95</ele>
        <time>2019-08-24T12:06:17Z</time>
      </trkpt>
      <trkpt lat="42.56669" lon="1.98259">
        <ele>2164.55</ele>
        <time>2019-08-24T12:06:30Z</time>
      </trkpt>
      <trkpt lat="42.5666" lon="1.98266">
        <ele>2161.66</ele>
        <time>2019-08-24T12:06:43Z</time>
      </trkpt>
      <trkpt lat="42.56651" lon="1.98262">
        <ele>2161.66</ele>
        <time>2019-08-24T12:06:56Z</time>
      </trkpt>
      <trkpt lat="42.56643" lon="1.98266">
        <ele>2159.74</ele>
        <time>2019-08-24T12:07:13Z</time>
      </trkpt>
      <trkpt lat="42.56634" lon="1.9827">
        <ele>2158.78</ele>
        <time>2019-08-24T12:07:28Z</time>
      </trkpt>
      <trkpt lat="42.56623" lon="1.9827">
        <ele>2157.82</ele>
        <time>2019-08-24T12:07:39Z</time>
      </trkpt>
      <trkpt lat="42.56615" lon="1.98274">
        <ele>2156.37</ele>
        <time>2019-08-24T12:07:49Z</time>
      </trkpt>
      <trkpt lat="42.56604" lon="1.98277">
        <ele>2155.89</ele>
        <time>2019-08-24T12:07:58Z</time>
      </trkpt>
      <trkpt lat="42.56594" lon="1.98277">
        <ele>2156.37</ele>
        <time>2019-08-24T12:08:07Z</time>
      </trkpt>
      <trkpt lat="42.56584" lon="1.98273">
        <ele>2156.37</ele>
        <time>2019-08-24T12:08:17Z</time>
      </trkpt>
      <trkpt lat="42.56577" lon="1.98284">
        <ele>2156.86</ele>
        <time>2019-08-24T12:08:26Z</time>
      </trkpt>
      <trkpt lat="42.56571" lon="1.98296">
        <ele>2156.86</ele>
        <time>2019-08-24T12:08:36Z</time>
      </trkpt>
      <trkpt lat="42.56566" lon="1.98307">
        <ele>2155.89</ele>
        <time>2019-08-24T12:08:50Z</time>
      </trkpt>
      <trkpt lat="42.56558" lon="1.98309">
        <ele>2155.41</ele>
        <time>2019-08-24T12:09:05Z</time>
      </trkpt>
      <trkpt lat="42.56551" lon="1.98319">
        <ele>2155.41</ele>
        <time>2019-08-24T12:09:15Z</time>
      </trkpt>
      <trkpt lat="42.56543" lon="1.98329">
        <ele>2155.89</ele>
        <time>2019-08-24T12:09:28Z</time>
      </trkpt>
      <trkpt lat="42.56537" lon="1.98344">
        <ele>2155.89</ele>
        <time>2019-08-24T12:09:39Z</time>
      </trkpt>
      <trkpt lat="42.56527" lon="1.98352">
        <ele>2155.89</ele>
        <time>2019-08-24T12:09:49Z</time>
      </trkpt>
      <trkpt lat="42.56524" lon="1.98367">
        <ele>2155.41</ele>
        <time>2019-08-24T12:09:59Z</time>
      </trkpt>
      <trkpt lat="42.56515" lon="1.98376">
        <ele>2155.89</ele>
        <time>2019-08-24T12:10:11Z</time>
      </trkpt>
      <trkpt lat="42.56508" lon="1.98387">
        <ele>2155.89</ele>
        <time>2019-08-24T12:10:23Z</time>
      </trkpt>
      <trkpt lat="42.565" lon="1.984">
        <ele>2155.89</ele>
        <time>2019-08-24T12:10:36Z</time>
      </trkpt>
      <trkpt lat="42.56492" lon="1.98411">
        <ele>2155.41</ele>
        <time>2019-08-24T12:10:48Z</time>
      </trkpt>
      <trkpt lat="42.56485" lon="1.98421">
        <ele>2156.86</ele>
        <time>2019-08-24T12:10:58Z</time>
      </trkpt>
      <trkpt lat="42.5648" lon="1.98435">
        <ele>2155.41</ele>
        <time>2019-08-24T12:11:08Z</time>
      </trkpt>
      <trkpt lat="42.5648" lon="1.9845">
        <ele>2156.37</ele>
        <time>2019-08-24T12:11:17Z</time>
      </trkpt>
      <trkpt lat="42.56477" lon="1.98465">
        <ele>2155.89</ele>
        <time>2019-08-24T12:11:26Z</time>
      </trkpt>
      <trkpt lat="42.56473" lon="1.9848">
        <ele>2155.89</ele>
        <time>2019-08-24T12:11:38Z</time>
      </trkpt>
      <trkpt lat="42.56469" lon="1.98495">
        <ele>2155.41</ele>
        <time>2019-08-24T12:11:47Z</time>
      </trkpt>
      <trkpt lat="42.56459" lon="1.98504">
        <ele>2155.41</ele>
        <time>2019-08-24T12:11:59Z</time>
      </trkpt>
      <trkpt lat="42.56448" lon="1.98514">
        <ele>2156.37</ele>
        <time>2019-08-24T12:12:13Z</time>
      </trkpt>
      <trkpt lat="42.56437" lon="1.98526">
        <ele>2155.89</ele>
        <time>2019-08-24T12:12:29Z</time>
      </trkpt>
      <trkpt lat="42.56434" lon="1.98542">
        <ele>2153.49</ele>
        <time>2019-08-24T12:12:44Z</time>
      </trkpt>
      <trkpt lat="42.56432" lon="1.98557">
        <ele>2151.09</ele>
        <time>2019-08-24T12:12:58Z</time>
      </trkpt>
      <trkpt lat="42.56424" lon="1.98566">
        <ele>2150.13</ele>
        <time>2019-08-24T12:13:07Z</time>
      </trkpt>
      <trkpt lat="42.56415" lon="1.98574">
        <ele>2149.65</ele>
        <time>2019-08-24T12:13:17Z</time>
      </trkpt>
      <trkpt lat="42.56407" lon="1.98583">
        <ele>2149.16</ele>
        <time>2019-08-24T12:13:26Z</time>
      </trkpt>
      <trkpt lat="42.56397" lon="1.9859">
        <ele>2148.68</ele>
        <time>2019-08-24T12:13:40Z</time>
      </trkpt>
      <trkpt lat="42.56384" lon="1.98598">
        <ele>2148.68</ele>
        <time>2019-08-24T12:13:54Z</time>
      </trkpt>
      <trkpt lat="42.56374" lon="1.9861">
        <ele>2145.8</ele>
        <time>2019-08-24T12:14:07Z</time>
      </trkpt>
      <trkpt lat="42.56368" lon="1.9862">
        <ele>2143.4</ele>
        <time>2019-08-24T12:14:20Z</time>
      </trkpt>
      <trkpt lat="42.56358" lon="1.98628">
        <ele>2141.95</ele>
        <time>2019-08-24T12:14:31Z</time>
      </trkpt>
      <trkpt lat="42.56349" lon="1.98637">
        <ele>2140.51</ele>
        <time>2019-08-24T12:14:41Z</time>
      </trkpt>
      <trkpt lat="42.5634" lon="1.98645">
        <ele>2140.03</ele>
        <time>2019-08-24T12:14:52Z</time>
      </trkpt>
      <trkpt lat="42.56339" lon="1.98659">
        <ele>2139.07</ele>
        <time>2019-08-24T12:15:03Z</time>
      </trkpt>
      <trkpt lat="42.5634" lon="1.98672">
        <ele>2137.15</ele>
        <time>2019-08-24T12:15:16Z</time>
      </trkpt>
      <trkpt lat="42.56332" lon="1.98681">
        <ele>2135.23</ele>
        <time>2019-08-24T12:15:25Z</time>
      </trkpt>
      <trkpt lat="42.56328" lon="1.98691">
        <ele>2133.78</ele>
        <time>2019-08-24T12:15:36Z</time>
      </trkpt>
      <trkpt lat="42.56323" lon="1.98702">
        <ele>2131.38</ele>
        <time>2019-08-24T12:15:50Z</time>
      </trkpt>
      <trkpt lat="42.56316" lon="1.98712">
        <ele>2128.98</ele>
        <time>2019-08-24T12:16:02Z</time>
      </trkpt>
      <trkpt lat="42.56306" lon="1.98717">
        <ele>2128.5</ele>
        <time>2019-08-24T12:16:20Z</time>
      </trkpt>
      <trkpt lat="42.56295" lon="1.98723">
        <ele>2128.5</ele>
        <time>2019-08-24T12:16:33Z</time>
      </trkpt>
      <trkpt lat="42.56283" lon="1.98724">
        <ele>2128.98</ele>
        <time>2019-08-24T12:16:45Z</time>
      </trkpt>
      <trkpt lat="42.56275" lon="1.98733">
        <ele>2127.05</ele>
        <time>2019-08-24T12:16:55Z</time>
      </trkpt>
      <trkpt lat="42.5627" lon="1.98745">
        <ele>2125.61</ele>
        <time>2019-08-24T12:17:08Z</time>
      </trkpt>
      <trkpt lat="42.56264" lon="1.98757">
        <ele>2123.21</ele>
        <time>2019-08-24T12:17:24Z</time>
      </trkpt>
      <trkpt lat="42.5626" lon="1.98771">
        <ele>2119.36</ele>
        <time>2019-08-24T12:17:51Z</time>
      </trkpt>
      <trkpt lat="42.56255" lon="1.98782">
        <ele>2117.44</ele>
        <time>2019-08-24T12:18:06Z</time>
      </trkpt>
      <trkpt lat="42.56249" lon="1.98795">
        <ele>2115.52</ele>
        <time>2019-08-24T12:18:17Z</time>
      </trkpt>
      <trkpt lat="42.5624" lon="1.988">
        <ele>2114.56</ele>
        <time>2019-08-24T12:18:27Z</time>
      </trkpt>
      <trkpt lat="42.5623" lon="1.98804">
        <ele>2115.04</ele>
        <time>2019-08-24T12:18:37Z</time>
      </trkpt>
      <trkpt lat="42.5622" lon="1.98812">
        <ele>2116</ele>
        <time>2019-08-24T12:18:48Z</time>
      </trkpt>
      <trkpt lat="42.5621" lon="1.9882">
        <ele>2115.04</ele>
        <time>2019-08-24T12:19:00Z</time>
      </trkpt>
      <trkpt lat="42.56198" lon="1.98827">
        <ele>2114.56</ele>
        <time>2019-08-24T12:19:13Z</time>
      </trkpt>
      <trkpt lat="42.56189" lon="1.98836">
        <ele>2115.52</ele>
        <time>2019-08-24T12:19:26Z</time>
      </trkpt>
      <trkpt lat="42.56193" lon="1.9884">
        <ele>2112.63</ele>
        <time>2019-08-24T12:19:58Z</time>
      </trkpt>
      <trkpt lat="42.56194" lon="1.98853">
        <ele>2111.67</ele>
        <time>2019-08-24T12:20:10Z</time>
      </trkpt>
      <trkpt lat="42.56187" lon="1.98866">
        <ele>2110.71</ele>
        <time>2019-08-24T12:20:26Z</time>
      </trkpt>
      <trkpt lat="42.56183" lon="1.98884">
        <ele>2108.79</ele>
        <time>2019-08-24T12:20:42Z</time>
      </trkpt>
      <trkpt lat="42.56174" lon="1.98894">
        <ele>2106.87</ele>
        <time>2019-08-24T12:20:57Z</time>
      </trkpt>
      <trkpt lat="42.56163" lon="1.98896">
        <ele>2103.98</ele>
        <time>2019-08-24T12:21:11Z</time>
      </trkpt>
      <trkpt lat="42.56152" lon="1.98898">
        <ele>2102.54</ele>
        <time>2019-08-24T12:21:23Z</time>
      </trkpt>
      <trkpt lat="42.56145" lon="1.98907">
        <ele>2103.02</ele>
        <time>2019-08-24T12:21:34Z</time>
      </trkpt>
      <trkpt lat="42.56136" lon="1.98914">
        <ele>2103.02</ele>
        <time>2019-08-24T12:21:43Z</time>
      </trkpt>
      <trkpt lat="42.56125" lon="1.98926">
        <ele>2101.58</ele>
        <time>2019-08-24T12:21:53Z</time>
      </trkpt>
      <trkpt lat="42.56116" lon="1.98938">
        <ele>2101.1</ele>
        <time>2019-08-24T12:22:07Z</time>
      </trkpt>
      <trkpt lat="42.56114" lon="1.98955">
        <ele>2099.66</ele>
        <time>2019-08-24T12:22:18Z</time>
      </trkpt>
      <trkpt lat="42.56103" lon="1.98963">
        <ele>2096.77</ele>
        <time>2019-08-24T12:22:29Z</time>
      </trkpt>
      <trkpt lat="42.56097" lon="1.98976">
        <ele>2097.73</ele>
        <time>2019-08-24T12:22:38Z</time>
      </trkpt>
      <trkpt lat="42.56092" lon="1.9899">
        <ele>2097.25</ele>
        <time>2019-08-24T12:22:47Z</time>
      </trkpt>
      <trkpt lat="42.56084" lon="1.99003">
        <ele>2097.73</ele>
        <time>2019-08-24T12:23:02Z</time>
      </trkpt>
      <trkpt lat="42.56079" lon="1.99017">
        <ele>2097.25</ele>
        <time>2019-08-24T12:23:13Z</time>
      </trkpt>
      <trkpt lat="42.56068" lon="1.99028">
        <ele>2096.29</ele>
        <time>2019-08-24T12:23:28Z</time>
      </trkpt>
      <trkpt lat="42.56061" lon="1.99044">
        <ele>2094.37</ele>
        <time>2019-08-24T12:23:42Z</time>
      </trkpt>
      <trkpt lat="42.56047" lon="1.99054">
        <ele>2094.85</ele>
        <time>2019-08-24T12:23:53Z</time>
      </trkpt>
      <trkpt lat="42.56036" lon="1.99064">
        <ele>2093.41</ele>
        <time>2019-08-24T12:24:02Z</time>
      </trkpt>
      <trkpt lat="42.56028" lon="1.99074">
        <ele>2093.41</ele>
        <time>2019-08-24T12:24:13Z</time>
      </trkpt>
      <trkpt lat="42.56025" lon="1.99088">
        <ele>2094.85</ele>
        <time>2019-08-24T12:24:29Z</time>
      </trkpt>
      <trkpt lat="42.56023" lon="1.99108">
        <ele>2090.04</ele>
        <time>2019-08-24T12:24:48Z</time>
      </trkpt>
      <trkpt lat="42.56019" lon="1.99125">
        <ele>2087.64</ele>
        <time>2019-08-24T12:25:03Z</time>
      </trkpt>
      <trkpt lat="42.56016" lon="1.9914">
        <ele>2084.76</ele>
        <time>2019-08-24T12:25:14Z</time>
      </trkpt>
      <trkpt lat="42.56013" lon="1.99155">
        <ele>2083.31</ele>
        <time>2019-08-24T12:25:26Z</time>
      </trkpt>
      <trkpt lat="42.56008" lon="1.99169">
        <ele>2082.83</ele>
        <time>2019-08-24T12:25:36Z</time>
      </trkpt>
      <trkpt lat="42.56011" lon="1.99184">
        <ele>2081.87</ele>
        <time>2019-08-24T12:25:49Z</time>
      </trkpt>
      <trkpt lat="42.56007" lon="1.99208">
        <ele>2081.87</ele>
        <time>2019-08-24T12:26:10Z</time>
      </trkpt>
      <trkpt lat="42.55996" lon="1.99225">
        <ele>2081.39</ele>
        <time>2019-08-24T12:26:27Z</time>
      </trkpt>
      <trkpt lat="42.55994" lon="1.99247">
        <ele>2082.35</ele>
        <time>2019-08-24T12:26:46Z</time>
      </trkpt>
      <trkpt lat="42.55997" lon="1.99268">
        <ele>2082.35</ele>
        <time>2019-08-24T12:27:05Z</time>
      </trkpt>
      <trkpt lat="42.55996" lon="1.99289">
        <ele>2081.39</ele>
        <time>2019-08-24T12:27:26Z</time>
      </trkpt>
      <trkpt lat="42.56001" lon="1.99312">
        <ele>2080.43</ele>
        <time>2019-08-24T12:27:45Z</time>
      </trkpt>
      <trkpt lat="42.56004" lon="1.99332">
        <ele>2079.95</ele>
        <time>2019-08-24T12:28:03Z</time>
      </trkpt>
      <trkpt lat="42.56006" lon="1.99354">
        <ele>2079.47</ele>
        <time>2019-08-24T12:28:39Z</time>
      </trkpt>
      <trkpt lat="42.56005" lon="1.99373">
        <ele>2077.55</ele>
        <time>2019-08-24T12:29:00Z</time>
      </trkpt>
      <trkpt lat="42.56009" lon="1.99396">
        <ele>2074.18</ele>
        <time>2019-08-24T12:29:29Z</time>
      </trkpt>
      <trkpt lat="42.56014" lon="1.99413">
        <ele>2071.78</ele>
        <time>2019-08-24T12:29:56Z</time>
      </trkpt>
      <trkpt lat="42.56023" lon="1.99424">
        <ele>2069.86</ele>
        <time>2019-08-24T12:30:19Z</time>
      </trkpt>
      <trkpt lat="42.56029" lon="1.99437">
        <ele>2066.49</ele>
        <time>2019-08-24T12:30:42Z</time>
      </trkpt>
      <trkpt lat="42.56027" lon="1.99455">
        <ele>2062.65</ele>
        <time>2019-08-24T12:31:14Z</time>
      </trkpt>
      <trkpt lat="42.56025" lon="1.99471">
        <ele>2058.8</ele>
        <time>2019-08-24T12:31:37Z</time>
      </trkpt>
      <trkpt lat="42.56029" lon="1.99484">
        <ele>2057.36</ele>
        <time>2019-08-24T12:31:45Z</time>
      </trkpt>
      <trkpt lat="42.56032" lon="1.99499">
        <ele>2057.36</ele>
        <time>2019-08-24T12:31:57Z</time>
      </trkpt>
      <trkpt lat="42.56031" lon="1.99513">
        <ele>2056.88</ele>
        <time>2019-08-24T12:32:08Z</time>
      </trkpt>
      <trkpt lat="42.56018" lon="1.99525">
        <ele>2051.59</ele>
        <time>2019-08-24T12:32:25Z</time>
      </trkpt>
      <trkpt lat="42.56012" lon="1.99539">
        <ele>2049.19</ele>
        <time>2019-08-24T12:32:39Z</time>
      </trkpt>
      <trkpt lat="42.5601" lon="1.99557">
        <ele>2048.23</ele>
        <time>2019-08-24T12:32:50Z</time>
      </trkpt>
      <trkpt lat="42.56006" lon="1.99573">
        <ele>2047.26</ele>
        <time>2019-08-24T12:33:01Z</time>
      </trkpt>
      <trkpt lat="42.56003" lon="1.9959">
        <ele>2046.3</ele>
        <time>2019-08-24T12:33:14Z</time>
      </trkpt>
      <trkpt lat="42.55997" lon="1.99603">
        <ele>2043.9</ele>
        <time>2019-08-24T12:33:24Z</time>
      </trkpt>
      <trkpt lat="42.55998" lon="1.99618">
        <ele>2041.98</ele>
        <time>2019-08-24T12:33:34Z</time>
      </trkpt>
      <trkpt lat="42.55996" lon="1.99633">
        <ele>2041.98</ele>
        <time>2019-08-24T12:33:48Z</time>
      </trkpt>
    </trkseg>
  </trk>
</gpx>